<?xml version="1.0" encoding="UTF-8" ?>
<gpx xmlns="http://www.topografix.com/GPX/1/1" version="1.1" creator="RouteGadget GPS Tracking" xmlns:xsi="http://www.w3.org/2001/XMLSchema-instance" xmlns:tp1="http://www.garmin.com/xmlschemas/TrackPointExtension/v1" xsi:schemaLocation="http://www.topografix.com/GPX/1/1 http://www.topografix.com/GPX/1/1/gpx.xsd http://www.garmin.com/xmlschemas/TrackPointExtension/v1 http://www.garmin.com/xmlschemas/TrackPointExtensionv1.xsd">
<trk>
<trkseg><trkpt lat="62.755086" lon="22.873493">
<time>2021-06-11T09:31:04Z</time>
</trkpt>
<trkpt lat="62.755086" lon="22.873493">
<time>2021-06-11T09:31:05Z</time>
</trkpt>
<trkpt lat="62.755086" lon="22.873493">
<time>2021-06-11T09:31:06Z</time>
</trkpt>
<trkpt lat="62.755086" lon="22.873493">
<time>2021-06-11T09:31:07Z</time>
</trkpt>
<trkpt lat="62.755086" lon="22.873493">
<time>2021-06-11T09:31:08Z</time>
</trkpt>
<trkpt lat="62.755081" lon="22.873491">
<time>2021-06-11T09:31:09Z</time>
</trkpt>
<trkpt lat="62.75504" lon="22.873476">
<time>2021-06-11T09:31:10Z</time>
</trkpt>
<trkpt lat="62.754975" lon="22.873465">
<time>2021-06-11T09:31:11Z</time>
</trkpt>
<trkpt lat="62.75491" lon="22.873458">
<time>2021-06-11T09:31:12Z</time>
</trkpt>
<trkpt lat="62.75485" lon="22.873453">
<time>2021-06-11T09:31:13Z</time>
</trkpt>
<trkpt lat="62.754778" lon="22.873443">
<time>2021-06-11T09:31:14Z</time>
</trkpt>
<trkpt lat="62.754691" lon="22.873436">
<time>2021-06-11T09:31:15Z</time>
</trkpt>
<trkpt lat="62.754615" lon="22.873438">
<time>2021-06-11T09:31:16Z</time>
</trkpt>
<trkpt lat="62.754538" lon="22.87345">
<time>2021-06-11T09:31:17Z</time>
</trkpt>
<trkpt lat="62.754461" lon="22.87348">
<time>2021-06-11T09:31:18Z</time>
</trkpt>
<trkpt lat="62.754393" lon="22.87353">
<time>2021-06-11T09:31:19Z</time>
</trkpt>
<trkpt lat="62.754341" lon="22.873578">
<time>2021-06-11T09:31:20Z</time>
</trkpt>
<trkpt lat="62.754266" lon="22.87366">
<time>2021-06-11T09:31:21Z</time>
</trkpt>
<trkpt lat="62.754208" lon="22.87374">
<time>2021-06-11T09:31:22Z</time>
</trkpt>
<trkpt lat="62.754163" lon="22.873806">
<time>2021-06-11T09:31:23Z</time>
</trkpt>
<trkpt lat="62.75411" lon="22.873898">
<time>2021-06-11T09:31:24Z</time>
</trkpt>
<trkpt lat="62.754048" lon="22.874023">
<time>2021-06-11T09:31:25Z</time>
</trkpt>
<trkpt lat="62.754" lon="22.874138">
<time>2021-06-11T09:31:26Z</time>
</trkpt>
<trkpt lat="62.753955" lon="22.87426">
<time>2021-06-11T09:31:27Z</time>
</trkpt>
<trkpt lat="62.753921" lon="22.874366">
<time>2021-06-11T09:31:28Z</time>
</trkpt>
<trkpt lat="62.753886" lon="22.874503">
<time>2021-06-11T09:31:29Z</time>
</trkpt>
<trkpt lat="62.75386" lon="22.874648">
<time>2021-06-11T09:31:30Z</time>
</trkpt>
<trkpt lat="62.753831" lon="22.874826">
<time>2021-06-11T09:31:31Z</time>
</trkpt>
<trkpt lat="62.753813" lon="22.874945">
<time>2021-06-11T09:31:32Z</time>
</trkpt>
<trkpt lat="62.75379" lon="22.875095">
<time>2021-06-11T09:31:33Z</time>
</trkpt>
<trkpt lat="62.753765" lon="22.875266">
<time>2021-06-11T09:31:34Z</time>
</trkpt>
<trkpt lat="62.753746" lon="22.875385">
<time>2021-06-11T09:31:35Z</time>
</trkpt>
<trkpt lat="62.753726" lon="22.875536">
<time>2021-06-11T09:31:36Z</time>
</trkpt>
<trkpt lat="62.753708" lon="22.875683">
<time>2021-06-11T09:31:37Z</time>
</trkpt>
<trkpt lat="62.753688" lon="22.87583">
<time>2021-06-11T09:31:38Z</time>
</trkpt>
<trkpt lat="62.753666" lon="22.875961">
<time>2021-06-11T09:31:39Z</time>
</trkpt>
<trkpt lat="62.75363" lon="22.876091">
<time>2021-06-11T09:31:40Z</time>
</trkpt>
<trkpt lat="62.7536" lon="22.87616">
<time>2021-06-11T09:31:41Z</time>
</trkpt>
<trkpt lat="62.75356" lon="22.876215">
<time>2021-06-11T09:31:42Z</time>
</trkpt>
<trkpt lat="62.753513" lon="22.876241">
<time>2021-06-11T09:31:43Z</time>
</trkpt>
<trkpt lat="62.753465" lon="22.876245">
<time>2021-06-11T09:31:44Z</time>
</trkpt>
<trkpt lat="62.753413" lon="22.87623">
<time>2021-06-11T09:31:45Z</time>
</trkpt>
<trkpt lat="62.75336" lon="22.876215">
<time>2021-06-11T09:31:46Z</time>
</trkpt>
<trkpt lat="62.753306" lon="22.876195">
<time>2021-06-11T09:31:47Z</time>
</trkpt>
<trkpt lat="62.75326" lon="22.87617">
<time>2021-06-11T09:31:48Z</time>
</trkpt>
<trkpt lat="62.753213" lon="22.876118">
<time>2021-06-11T09:31:49Z</time>
</trkpt>
<trkpt lat="62.75317" lon="22.876055">
<time>2021-06-11T09:31:50Z</time>
</trkpt>
<trkpt lat="62.75314" lon="22.875975">
<time>2021-06-11T09:31:51Z</time>
</trkpt>
<trkpt lat="62.753118" lon="22.875865">
<time>2021-06-11T09:31:52Z</time>
</trkpt>
<trkpt lat="62.753095" lon="22.875753">
<time>2021-06-11T09:31:53Z</time>
</trkpt>
<trkpt lat="62.75306" lon="22.875653">
<time>2021-06-11T09:31:54Z</time>
</trkpt>
<trkpt lat="62.753031" lon="22.875598">
<time>2021-06-11T09:31:55Z</time>
</trkpt>
<trkpt lat="62.752988" lon="22.875553">
<time>2021-06-11T09:31:56Z</time>
</trkpt>
<trkpt lat="62.75294" lon="22.875525">
<time>2021-06-11T09:31:57Z</time>
</trkpt>
<trkpt lat="62.752888" lon="22.875503">
<time>2021-06-11T09:31:58Z</time>
</trkpt>
<trkpt lat="62.752838" lon="22.875471">
<time>2021-06-11T09:31:59Z</time>
</trkpt>
<trkpt lat="62.752791" lon="22.875423">
<time>2021-06-11T09:32:00Z</time>
</trkpt>
<trkpt lat="62.752751" lon="22.875366">
<time>2021-06-11T09:32:01Z</time>
</trkpt>
<trkpt lat="62.752715" lon="22.875295">
<time>2021-06-11T09:32:02Z</time>
</trkpt>
<trkpt lat="62.7527" lon="22.875241">
<time>2021-06-11T09:32:03Z</time>
</trkpt>
<trkpt lat="62.75268" lon="22.875178">
<time>2021-06-11T09:32:04Z</time>
</trkpt>
<trkpt lat="62.752655" lon="22.875121">
<time>2021-06-11T09:32:05Z</time>
</trkpt>
<trkpt lat="62.752621" lon="22.875076">
<time>2021-06-11T09:32:06Z</time>
</trkpt>
<trkpt lat="62.752581" lon="22.875036">
<time>2021-06-11T09:32:07Z</time>
</trkpt>
<trkpt lat="62.752531" lon="22.874996">
<time>2021-06-11T09:32:08Z</time>
</trkpt>
<trkpt lat="62.752495" lon="22.874973">
<time>2021-06-11T09:32:09Z</time>
</trkpt>
<trkpt lat="62.752445" lon="22.874955">
<time>2021-06-11T09:32:10Z</time>
</trkpt>
<trkpt lat="62.752381" lon="22.874948">
<time>2021-06-11T09:32:11Z</time>
</trkpt>
<trkpt lat="62.752341" lon="22.874961">
<time>2021-06-11T09:32:12Z</time>
</trkpt>
<trkpt lat="62.752295" lon="22.874991">
<time>2021-06-11T09:32:13Z</time>
</trkpt>
<trkpt lat="62.752258" lon="22.875031">
<time>2021-06-11T09:32:14Z</time>
</trkpt>
<trkpt lat="62.75223" lon="22.875083">
<time>2021-06-11T09:32:15Z</time>
</trkpt>
<trkpt lat="62.752195" lon="22.87516">
<time>2021-06-11T09:32:16Z</time>
</trkpt>
<trkpt lat="62.752171" lon="22.875226">
<time>2021-06-11T09:32:17Z</time>
</trkpt>
<trkpt lat="62.752145" lon="22.875305">
<time>2021-06-11T09:32:18Z</time>
</trkpt>
<trkpt lat="62.752115" lon="22.875385">
<time>2021-06-11T09:32:19Z</time>
</trkpt>
<trkpt lat="62.752081" lon="22.875486">
<time>2021-06-11T09:32:20Z</time>
</trkpt>
<trkpt lat="62.752045" lon="22.875578">
<time>2021-06-11T09:32:21Z</time>
</trkpt>
<trkpt lat="62.752011" lon="22.87568">
<time>2021-06-11T09:32:22Z</time>
</trkpt>
<trkpt lat="62.75197" lon="22.87577">
<time>2021-06-11T09:32:23Z</time>
</trkpt>
<trkpt lat="62.751931" lon="22.87582">
<time>2021-06-11T09:32:24Z</time>
</trkpt>
<trkpt lat="62.751891" lon="22.875846">
<time>2021-06-11T09:32:25Z</time>
</trkpt>
<trkpt lat="62.751841" lon="22.87585">
<time>2021-06-11T09:32:26Z</time>
</trkpt>
<trkpt lat="62.751808" lon="22.875826">
<time>2021-06-11T09:32:27Z</time>
</trkpt>
<trkpt lat="62.751771" lon="22.875783">
<time>2021-06-11T09:32:28Z</time>
</trkpt>
<trkpt lat="62.751731" lon="22.875758">
<time>2021-06-11T09:32:29Z</time>
</trkpt>
<trkpt lat="62.751708" lon="22.875751">
<time>2021-06-11T09:32:30Z</time>
</trkpt>
<trkpt lat="62.75168" lon="22.875736">
<time>2021-06-11T09:32:31Z</time>
</trkpt>
<trkpt lat="62.751658" lon="22.875725">
<time>2021-06-11T09:32:32Z</time>
</trkpt>
<trkpt lat="62.75164" lon="22.875711">
<time>2021-06-11T09:32:33Z</time>
</trkpt>
<trkpt lat="62.751626" lon="22.875696">
<time>2021-06-11T09:32:34Z</time>
</trkpt>
<trkpt lat="62.751613" lon="22.875663">
<time>2021-06-11T09:32:35Z</time>
</trkpt>
<trkpt lat="62.751601" lon="22.875623">
<time>2021-06-11T09:32:36Z</time>
</trkpt>
<trkpt lat="62.751585" lon="22.875578">
<time>2021-06-11T09:32:37Z</time>
</trkpt>
<trkpt lat="62.751563" lon="22.875523">
<time>2021-06-11T09:32:38Z</time>
</trkpt>
<trkpt lat="62.751536" lon="22.875473">
<time>2021-06-11T09:32:39Z</time>
</trkpt>
<trkpt lat="62.751516" lon="22.875433">
<time>2021-06-11T09:32:40Z</time>
</trkpt>
<trkpt lat="62.751486" lon="22.875401">
<time>2021-06-11T09:32:41Z</time>
</trkpt>
<trkpt lat="62.751463" lon="22.875371">
<time>2021-06-11T09:32:42Z</time>
</trkpt>
<trkpt lat="62.751436" lon="22.87535">
<time>2021-06-11T09:32:43Z</time>
</trkpt>
<trkpt lat="62.75141" lon="22.875323">
<time>2021-06-11T09:32:44Z</time>
</trkpt>
<trkpt lat="62.751386" lon="22.875286">
<time>2021-06-11T09:32:45Z</time>
</trkpt>
<trkpt lat="62.751371" lon="22.875253">
<time>2021-06-11T09:32:46Z</time>
</trkpt>
<trkpt lat="62.751361" lon="22.875228">
<time>2021-06-11T09:32:47Z</time>
</trkpt>
<trkpt lat="62.751355" lon="22.875213">
<time>2021-06-11T09:32:48Z</time>
</trkpt>
<trkpt lat="62.751353" lon="22.875196">
<time>2021-06-11T09:32:49Z</time>
</trkpt>
<trkpt lat="62.75135" lon="22.875178">
<time>2021-06-11T09:32:50Z</time>
</trkpt>
<trkpt lat="62.751341" lon="22.875155">
<time>2021-06-11T09:32:51Z</time>
</trkpt>
<trkpt lat="62.751328" lon="22.875125">
<time>2021-06-11T09:32:52Z</time>
</trkpt>
<trkpt lat="62.751316" lon="22.875096">
<time>2021-06-11T09:32:53Z</time>
</trkpt>
<trkpt lat="62.751305" lon="22.875065">
<time>2021-06-11T09:32:54Z</time>
</trkpt>
<trkpt lat="62.751293" lon="22.875036">
<time>2021-06-11T09:32:55Z</time>
</trkpt>
<trkpt lat="62.751281" lon="22.875016">
<time>2021-06-11T09:32:56Z</time>
</trkpt>
<trkpt lat="62.751271" lon="22.874996">
<time>2021-06-11T09:32:57Z</time>
</trkpt>
<trkpt lat="62.751261" lon="22.874975">
<time>2021-06-11T09:32:58Z</time>
</trkpt>
<trkpt lat="62.751251" lon="22.874948">
<time>2021-06-11T09:32:59Z</time>
</trkpt>
<trkpt lat="62.751238" lon="22.874916">
<time>2021-06-11T09:33:00Z</time>
</trkpt>
<trkpt lat="62.751221" lon="22.874885">
<time>2021-06-11T09:33:01Z</time>
</trkpt>
<trkpt lat="62.75121" lon="22.874865">
<time>2021-06-11T09:33:02Z</time>
</trkpt>
<trkpt lat="62.751196" lon="22.874843">
<time>2021-06-11T09:33:03Z</time>
</trkpt>
<trkpt lat="62.751186" lon="22.874818">
<time>2021-06-11T09:33:04Z</time>
</trkpt>
<trkpt lat="62.751181" lon="22.874785">
<time>2021-06-11T09:33:05Z</time>
</trkpt>
<trkpt lat="62.751178" lon="22.874746">
<time>2021-06-11T09:33:06Z</time>
</trkpt>
<trkpt lat="62.751178" lon="22.874705">
<time>2021-06-11T09:33:07Z</time>
</trkpt>
<trkpt lat="62.751178" lon="22.87466">
<time>2021-06-11T09:33:08Z</time>
</trkpt>
<trkpt lat="62.751176" lon="22.874611">
<time>2021-06-11T09:33:09Z</time>
</trkpt>
<trkpt lat="62.75118" lon="22.874561">
<time>2021-06-11T09:33:10Z</time>
</trkpt>
<trkpt lat="62.751185" lon="22.874506">
<time>2021-06-11T09:33:11Z</time>
</trkpt>
<trkpt lat="62.751193" lon="22.874451">
<time>2021-06-11T09:33:12Z</time>
</trkpt>
<trkpt lat="62.751208" lon="22.874395">
<time>2021-06-11T09:33:13Z</time>
</trkpt>
<trkpt lat="62.751226" lon="22.874335">
<time>2021-06-11T09:33:14Z</time>
</trkpt>
<trkpt lat="62.751245" lon="22.87428">
<time>2021-06-11T09:33:15Z</time>
</trkpt>
<trkpt lat="62.751263" lon="22.874225">
<time>2021-06-11T09:33:16Z</time>
</trkpt>
<trkpt lat="62.751273" lon="22.874193">
<time>2021-06-11T09:33:17Z</time>
</trkpt>
<trkpt lat="62.751286" lon="22.874155">
<time>2021-06-11T09:33:18Z</time>
</trkpt>
<trkpt lat="62.751296" lon="22.874113">
<time>2021-06-11T09:33:19Z</time>
</trkpt>
<trkpt lat="62.7513" lon="22.874073">
<time>2021-06-11T09:33:20Z</time>
</trkpt>
<trkpt lat="62.751303" lon="22.874021">
<time>2021-06-11T09:33:21Z</time>
</trkpt>
<trkpt lat="62.751306" lon="22.873965">
<time>2021-06-11T09:33:22Z</time>
</trkpt>
<trkpt lat="62.751306" lon="22.873903">
<time>2021-06-11T09:33:23Z</time>
</trkpt>
<trkpt lat="62.751305" lon="22.873846">
<time>2021-06-11T09:33:24Z</time>
</trkpt>
<trkpt lat="62.751303" lon="22.873798">
<time>2021-06-11T09:33:25Z</time>
</trkpt>
<trkpt lat="62.751298" lon="22.873755">
<time>2021-06-11T09:33:26Z</time>
</trkpt>
<trkpt lat="62.751293" lon="22.873706">
<time>2021-06-11T09:33:27Z</time>
</trkpt>
<trkpt lat="62.751295" lon="22.873656">
<time>2021-06-11T09:33:28Z</time>
</trkpt>
<trkpt lat="62.751306" lon="22.873623">
<time>2021-06-11T09:33:29Z</time>
</trkpt>
<trkpt lat="62.751323" lon="22.873603">
<time>2021-06-11T09:33:30Z</time>
</trkpt>
<trkpt lat="62.751343" lon="22.873598">
<time>2021-06-11T09:33:31Z</time>
</trkpt>
<trkpt lat="62.751365" lon="22.873603">
<time>2021-06-11T09:33:32Z</time>
</trkpt>
<trkpt lat="62.75139" lon="22.873608">
<time>2021-06-11T09:33:33Z</time>
</trkpt>
<trkpt lat="62.751418" lon="22.873603">
<time>2021-06-11T09:33:34Z</time>
</trkpt>
<trkpt lat="62.75145" lon="22.873598">
<time>2021-06-11T09:33:35Z</time>
</trkpt>
<trkpt lat="62.751486" lon="22.873588">
<time>2021-06-11T09:33:36Z</time>
</trkpt>
<trkpt lat="62.751521" lon="22.873561">
<time>2021-06-11T09:33:37Z</time>
</trkpt>
<trkpt lat="62.751551" lon="22.873518">
<time>2021-06-11T09:33:38Z</time>
</trkpt>
<trkpt lat="62.75158" lon="22.873458">
<time>2021-06-11T09:33:39Z</time>
</trkpt>
<trkpt lat="62.751595" lon="22.873415">
<time>2021-06-11T09:33:40Z</time>
</trkpt>
<trkpt lat="62.751613" lon="22.87336">
<time>2021-06-11T09:33:41Z</time>
</trkpt>
<trkpt lat="62.75163" lon="22.873305">
<time>2021-06-11T09:33:42Z</time>
</trkpt>
<trkpt lat="62.751643" lon="22.873248">
<time>2021-06-11T09:33:43Z</time>
</trkpt>
<trkpt lat="62.751648" lon="22.873195">
<time>2021-06-11T09:33:44Z</time>
</trkpt>
<trkpt lat="62.751643" lon="22.873143">
<time>2021-06-11T09:33:45Z</time>
</trkpt>
<trkpt lat="62.751626" lon="22.873101">
<time>2021-06-11T09:33:46Z</time>
</trkpt>
<trkpt lat="62.751616" lon="22.873043">
<time>2021-06-11T09:33:47Z</time>
</trkpt>
<trkpt lat="62.751616" lon="22.872976">
<time>2021-06-11T09:33:48Z</time>
</trkpt>
<trkpt lat="62.75163" lon="22.872905">
<time>2021-06-11T09:33:49Z</time>
</trkpt>
<trkpt lat="62.751653" lon="22.87285">
<time>2021-06-11T09:33:50Z</time>
</trkpt>
<trkpt lat="62.751678" lon="22.872796">
<time>2021-06-11T09:33:51Z</time>
</trkpt>
<trkpt lat="62.751698" lon="22.872743">
<time>2021-06-11T09:33:52Z</time>
</trkpt>
<trkpt lat="62.751718" lon="22.872683">
<time>2021-06-11T09:33:53Z</time>
</trkpt>
<trkpt lat="62.751741" lon="22.872623">
<time>2021-06-11T09:33:54Z</time>
</trkpt>
<trkpt lat="62.751761" lon="22.872561">
<time>2021-06-11T09:33:55Z</time>
</trkpt>
<trkpt lat="62.75178" lon="22.87251">
<time>2021-06-11T09:33:56Z</time>
</trkpt>
<trkpt lat="62.751796" lon="22.872451">
<time>2021-06-11T09:33:57Z</time>
</trkpt>
<trkpt lat="62.751805" lon="22.872415">
<time>2021-06-11T09:33:58Z</time>
</trkpt>
<trkpt lat="62.751815" lon="22.872368">
<time>2021-06-11T09:33:59Z</time>
</trkpt>
<trkpt lat="62.751825" lon="22.87233">
<time>2021-06-11T09:34:00Z</time>
</trkpt>
<trkpt lat="62.751833" lon="22.87229">
<time>2021-06-11T09:34:01Z</time>
</trkpt>
<trkpt lat="62.751843" lon="22.872246">
<time>2021-06-11T09:34:02Z</time>
</trkpt>
<trkpt lat="62.751855" lon="22.8722">
<time>2021-06-11T09:34:03Z</time>
</trkpt>
<trkpt lat="62.751863" lon="22.872141">
<time>2021-06-11T09:34:04Z</time>
</trkpt>
<trkpt lat="62.751871" lon="22.872065">
<time>2021-06-11T09:34:05Z</time>
</trkpt>
<trkpt lat="62.751873" lon="22.872008">
<time>2021-06-11T09:34:06Z</time>
</trkpt>
<trkpt lat="62.751875" lon="22.871933">
<time>2021-06-11T09:34:07Z</time>
</trkpt>
<trkpt lat="62.751876" lon="22.871861">
<time>2021-06-11T09:34:08Z</time>
</trkpt>
<trkpt lat="62.751878" lon="22.871793">
<time>2021-06-11T09:34:09Z</time>
</trkpt>
<trkpt lat="62.751876" lon="22.871716">
<time>2021-06-11T09:34:10Z</time>
</trkpt>
<trkpt lat="62.751873" lon="22.871635">
<time>2021-06-11T09:34:11Z</time>
</trkpt>
<trkpt lat="62.751868" lon="22.871556">
<time>2021-06-11T09:34:12Z</time>
</trkpt>
<trkpt lat="62.751866" lon="22.871481">
<time>2021-06-11T09:34:13Z</time>
</trkpt>
<trkpt lat="62.751871" lon="22.87142">
<time>2021-06-11T09:34:14Z</time>
</trkpt>
<trkpt lat="62.75189" lon="22.871375">
<time>2021-06-11T09:34:15Z</time>
</trkpt>
<trkpt lat="62.751911" lon="22.871346">
<time>2021-06-11T09:34:16Z</time>
</trkpt>
<trkpt lat="62.751938" lon="22.871321">
<time>2021-06-11T09:34:17Z</time>
</trkpt>
<trkpt lat="62.751965" lon="22.871306">
<time>2021-06-11T09:34:18Z</time>
</trkpt>
<trkpt lat="62.751998" lon="22.871311">
<time>2021-06-11T09:34:19Z</time>
</trkpt>
<trkpt lat="62.752031" lon="22.871328">
<time>2021-06-11T09:34:20Z</time>
</trkpt>
<trkpt lat="62.752063" lon="22.871365">
<time>2021-06-11T09:34:21Z</time>
</trkpt>
<trkpt lat="62.752106" lon="22.871405">
<time>2021-06-11T09:34:22Z</time>
</trkpt>
<trkpt lat="62.752135" lon="22.871416">
<time>2021-06-11T09:34:23Z</time>
</trkpt>
<trkpt lat="62.752155" lon="22.871416">
<time>2021-06-11T09:34:24Z</time>
</trkpt>
<trkpt lat="62.75218" lon="22.871421">
<time>2021-06-11T09:34:25Z</time>
</trkpt>
<trkpt lat="62.752206" lon="22.871433">
<time>2021-06-11T09:34:26Z</time>
</trkpt>
<trkpt lat="62.752236" lon="22.871448">
<time>2021-06-11T09:34:27Z</time>
</trkpt>
<trkpt lat="62.752266" lon="22.871461">
<time>2021-06-11T09:34:28Z</time>
</trkpt>
<trkpt lat="62.752295" lon="22.871455">
<time>2021-06-11T09:34:29Z</time>
</trkpt>
<trkpt lat="62.752321" lon="22.871446">
<time>2021-06-11T09:34:30Z</time>
</trkpt>
<trkpt lat="62.752348" lon="22.87143">
<time>2021-06-11T09:34:31Z</time>
</trkpt>
<trkpt lat="62.752368" lon="22.871413">
<time>2021-06-11T09:34:32Z</time>
</trkpt>
<trkpt lat="62.752388" lon="22.8714">
<time>2021-06-11T09:34:33Z</time>
</trkpt>
<trkpt lat="62.752408" lon="22.871395">
<time>2021-06-11T09:34:34Z</time>
</trkpt>
<trkpt lat="62.752428" lon="22.87138">
<time>2021-06-11T09:34:35Z</time>
</trkpt>
<trkpt lat="62.752445" lon="22.87136">
<time>2021-06-11T09:34:36Z</time>
</trkpt>
<trkpt lat="62.752448" lon="22.871331">
<time>2021-06-11T09:34:37Z</time>
</trkpt>
<trkpt lat="62.752445" lon="22.871305">
<time>2021-06-11T09:34:38Z</time>
</trkpt>
<trkpt lat="62.75244" lon="22.871278">
<time>2021-06-11T09:34:39Z</time>
</trkpt>
<trkpt lat="62.752433" lon="22.871245">
<time>2021-06-11T09:34:40Z</time>
</trkpt>
<trkpt lat="62.752435" lon="22.87121">
<time>2021-06-11T09:34:41Z</time>
</trkpt>
<trkpt lat="62.75244" lon="22.871165">
<time>2021-06-11T09:34:42Z</time>
</trkpt>
<trkpt lat="62.75245" lon="22.871111">
<time>2021-06-11T09:34:43Z</time>
</trkpt>
<trkpt lat="62.75246" lon="22.871053">
<time>2021-06-11T09:34:44Z</time>
</trkpt>
<trkpt lat="62.752473" lon="22.871013">
<time>2021-06-11T09:34:45Z</time>
</trkpt>
<trkpt lat="62.752485" lon="22.87099">
<time>2021-06-11T09:34:46Z</time>
</trkpt>
<trkpt lat="62.752496" lon="22.870968">
<time>2021-06-11T09:34:47Z</time>
</trkpt>
<trkpt lat="62.75251" lon="22.87094">
<time>2021-06-11T09:34:48Z</time>
</trkpt>
<trkpt lat="62.752526" lon="22.870903">
<time>2021-06-11T09:34:49Z</time>
</trkpt>
<trkpt lat="62.752538" lon="22.870861">
<time>2021-06-11T09:34:50Z</time>
</trkpt>
<trkpt lat="62.752545" lon="22.870801">
<time>2021-06-11T09:34:51Z</time>
</trkpt>
<trkpt lat="62.752548" lon="22.870735">
<time>2021-06-11T09:34:52Z</time>
</trkpt>
<trkpt lat="62.752553" lon="22.87066">
<time>2021-06-11T09:34:53Z</time>
</trkpt>
<trkpt lat="62.752556" lon="22.870593">
<time>2021-06-11T09:34:54Z</time>
</trkpt>
<trkpt lat="62.752556" lon="22.87052">
<time>2021-06-11T09:34:55Z</time>
</trkpt>
<trkpt lat="62.75255" lon="22.870428">
<time>2021-06-11T09:34:56Z</time>
</trkpt>
<trkpt lat="62.752546" lon="22.870343">
<time>2021-06-11T09:34:57Z</time>
</trkpt>
<trkpt lat="62.752543" lon="22.870248">
<time>2021-06-11T09:34:58Z</time>
</trkpt>
<trkpt lat="62.752543" lon="22.870191">
<time>2021-06-11T09:34:59Z</time>
</trkpt>
<trkpt lat="62.75254" lon="22.870141">
<time>2021-06-11T09:35:00Z</time>
</trkpt>
<trkpt lat="62.752533" lon="22.870088">
<time>2021-06-11T09:35:01Z</time>
</trkpt>
<trkpt lat="62.752523" lon="22.870048">
<time>2021-06-11T09:35:02Z</time>
</trkpt>
<trkpt lat="62.75251" lon="22.870008">
<time>2021-06-11T09:35:03Z</time>
</trkpt>
<trkpt lat="62.75249" lon="22.86995">
<time>2021-06-11T09:35:04Z</time>
</trkpt>
<trkpt lat="62.75247" lon="22.86986">
<time>2021-06-11T09:35:05Z</time>
</trkpt>
<trkpt lat="62.752446" lon="22.86976">
<time>2021-06-11T09:35:06Z</time>
</trkpt>
<trkpt lat="62.752425" lon="22.869678">
<time>2021-06-11T09:35:07Z</time>
</trkpt>
<trkpt lat="62.752401" lon="22.869583">
<time>2021-06-11T09:35:08Z</time>
</trkpt>
<trkpt lat="62.752378" lon="22.869486">
<time>2021-06-11T09:35:09Z</time>
</trkpt>
<trkpt lat="62.752355" lon="22.86938">
<time>2021-06-11T09:35:10Z</time>
</trkpt>
<trkpt lat="62.752331" lon="22.869263">
<time>2021-06-11T09:35:11Z</time>
</trkpt>
<trkpt lat="62.752305" lon="22.869145">
<time>2021-06-11T09:35:12Z</time>
</trkpt>
<trkpt lat="62.752271" lon="22.869026">
<time>2021-06-11T09:35:13Z</time>
</trkpt>
<trkpt lat="62.752233" lon="22.86892">
<time>2021-06-11T09:35:14Z</time>
</trkpt>
<trkpt lat="62.752195" lon="22.868831">
<time>2021-06-11T09:35:15Z</time>
</trkpt>
<trkpt lat="62.752166" lon="22.868773">
<time>2021-06-11T09:35:16Z</time>
</trkpt>
<trkpt lat="62.752156" lon="22.868741">
<time>2021-06-11T09:35:17Z</time>
</trkpt>
<trkpt lat="62.752166" lon="22.868728">
<time>2021-06-11T09:35:18Z</time>
</trkpt>
<trkpt lat="62.752181" lon="22.868738">
<time>2021-06-11T09:35:19Z</time>
</trkpt>
<trkpt lat="62.752201" lon="22.868763">
<time>2021-06-11T09:35:20Z</time>
</trkpt>
<trkpt lat="62.752221" lon="22.868788">
<time>2021-06-11T09:35:21Z</time>
</trkpt>
<trkpt lat="62.752243" lon="22.868803">
<time>2021-06-11T09:35:22Z</time>
</trkpt>
<trkpt lat="62.752261" lon="22.86878">
<time>2021-06-11T09:35:23Z</time>
</trkpt>
<trkpt lat="62.75228" lon="22.868741">
<time>2021-06-11T09:35:24Z</time>
</trkpt>
<trkpt lat="62.7523" lon="22.868683">
<time>2021-06-11T09:35:25Z</time>
</trkpt>
<trkpt lat="62.75232" lon="22.868616">
<time>2021-06-11T09:35:26Z</time>
</trkpt>
<trkpt lat="62.752335" lon="22.868563">
<time>2021-06-11T09:35:27Z</time>
</trkpt>
<trkpt lat="62.752353" lon="22.868531">
<time>2021-06-11T09:35:28Z</time>
</trkpt>
<trkpt lat="62.752375" lon="22.868501">
<time>2021-06-11T09:35:29Z</time>
</trkpt>
<trkpt lat="62.75239" lon="22.868468">
<time>2021-06-11T09:35:30Z</time>
</trkpt>
<trkpt lat="62.7524" lon="22.868426">
<time>2021-06-11T09:35:31Z</time>
</trkpt>
<trkpt lat="62.752411" lon="22.868391">
<time>2021-06-11T09:35:32Z</time>
</trkpt>
<trkpt lat="62.752421" lon="22.868351">
<time>2021-06-11T09:35:33Z</time>
</trkpt>
<trkpt lat="62.752435" lon="22.868326">
<time>2021-06-11T09:35:34Z</time>
</trkpt>
<trkpt lat="62.752453" lon="22.868313">
<time>2021-06-11T09:35:35Z</time>
</trkpt>
<trkpt lat="62.752463" lon="22.868291">
<time>2021-06-11T09:35:36Z</time>
</trkpt>
<trkpt lat="62.752466" lon="22.868285">
<time>2021-06-11T09:35:37Z</time>
</trkpt>
<trkpt lat="62.752466" lon="22.868281">
<time>2021-06-11T09:35:38Z</time>
</trkpt>
<trkpt lat="62.752466" lon="22.868283">
<time>2021-06-11T09:35:39Z</time>
</trkpt>
<trkpt lat="62.752468" lon="22.86828">
<time>2021-06-11T09:35:40Z</time>
</trkpt>
<trkpt lat="62.75247" lon="22.86827">
<time>2021-06-11T09:35:41Z</time>
</trkpt>
<trkpt lat="62.752473" lon="22.868238">
<time>2021-06-11T09:35:42Z</time>
</trkpt>
<trkpt lat="62.752478" lon="22.868176">
<time>2021-06-11T09:35:43Z</time>
</trkpt>
<trkpt lat="62.752483" lon="22.86811">
<time>2021-06-11T09:35:44Z</time>
</trkpt>
<trkpt lat="62.752493" lon="22.868018">
<time>2021-06-11T09:35:45Z</time>
</trkpt>
<trkpt lat="62.752501" lon="22.867898">
<time>2021-06-11T09:35:46Z</time>
</trkpt>
<trkpt lat="62.752503" lon="22.867791">
<time>2021-06-11T09:35:47Z</time>
</trkpt>
<trkpt lat="62.752495" lon="22.867703">
<time>2021-06-11T09:35:48Z</time>
</trkpt>
<trkpt lat="62.752483" lon="22.867591">
<time>2021-06-11T09:35:49Z</time>
</trkpt>
<trkpt lat="62.752461" lon="22.867465">
<time>2021-06-11T09:35:50Z</time>
</trkpt>
<trkpt lat="62.752436" lon="22.867361">
<time>2021-06-11T09:35:51Z</time>
</trkpt>
<trkpt lat="62.752406" lon="22.867261">
<time>2021-06-11T09:35:52Z</time>
</trkpt>
<trkpt lat="62.75238" lon="22.86718">
<time>2021-06-11T09:35:53Z</time>
</trkpt>
<trkpt lat="62.752346" lon="22.867076">
<time>2021-06-11T09:35:54Z</time>
</trkpt>
<trkpt lat="62.752316" lon="22.866961">
<time>2021-06-11T09:35:55Z</time>
</trkpt>
<trkpt lat="62.752283" lon="22.866821">
<time>2021-06-11T09:35:56Z</time>
</trkpt>
<trkpt lat="62.752256" lon="22.866728">
<time>2021-06-11T09:35:57Z</time>
</trkpt>
<trkpt lat="62.752218" lon="22.86663">
<time>2021-06-11T09:35:58Z</time>
</trkpt>
<trkpt lat="62.752168" lon="22.866551">
<time>2021-06-11T09:35:59Z</time>
</trkpt>
<trkpt lat="62.752115" lon="22.866513">
<time>2021-06-11T09:36:00Z</time>
</trkpt>
<trkpt lat="62.752055" lon="22.866495">
<time>2021-06-11T09:36:01Z</time>
</trkpt>
<trkpt lat="62.752008" lon="22.866496">
<time>2021-06-11T09:36:02Z</time>
</trkpt>
<trkpt lat="62.75195" lon="22.866505">
<time>2021-06-11T09:36:03Z</time>
</trkpt>
<trkpt lat="62.75189" lon="22.866511">
<time>2021-06-11T09:36:04Z</time>
</trkpt>
<trkpt lat="62.75184" lon="22.86652">
<time>2021-06-11T09:36:05Z</time>
</trkpt>
<trkpt lat="62.751796" lon="22.866521">
<time>2021-06-11T09:36:06Z</time>
</trkpt>
<trkpt lat="62.75175" lon="22.866503">
<time>2021-06-11T09:36:07Z</time>
</trkpt>
<trkpt lat="62.751703" lon="22.866471">
<time>2021-06-11T09:36:08Z</time>
</trkpt>
<trkpt lat="62.751661" lon="22.866443">
<time>2021-06-11T09:36:09Z</time>
</trkpt>
<trkpt lat="62.75162" lon="22.866398">
<time>2021-06-11T09:36:10Z</time>
</trkpt>
<trkpt lat="62.751595" lon="22.86636">
<time>2021-06-11T09:36:11Z</time>
</trkpt>
<trkpt lat="62.751565" lon="22.866286">
<time>2021-06-11T09:36:12Z</time>
</trkpt>
<trkpt lat="62.751545" lon="22.866186">
<time>2021-06-11T09:36:13Z</time>
</trkpt>
<trkpt lat="62.751526" lon="22.866066">
<time>2021-06-11T09:36:14Z</time>
</trkpt>
<trkpt lat="62.751516" lon="22.865978">
<time>2021-06-11T09:36:15Z</time>
</trkpt>
<trkpt lat="62.751503" lon="22.865866">
<time>2021-06-11T09:36:16Z</time>
</trkpt>
<trkpt lat="62.7515" lon="22.86576">
<time>2021-06-11T09:36:17Z</time>
</trkpt>
<trkpt lat="62.751511" lon="22.865663">
<time>2021-06-11T09:36:18Z</time>
</trkpt>
<trkpt lat="62.751536" lon="22.865581">
<time>2021-06-11T09:36:19Z</time>
</trkpt>
<trkpt lat="62.75157" lon="22.86551">
<time>2021-06-11T09:36:20Z</time>
</trkpt>
<trkpt lat="62.751601" lon="22.86545">
<time>2021-06-11T09:36:21Z</time>
</trkpt>
<trkpt lat="62.751631" lon="22.865416">
<time>2021-06-11T09:36:22Z</time>
</trkpt>
<trkpt lat="62.751663" lon="22.865403">
<time>2021-06-11T09:36:23Z</time>
</trkpt>
<trkpt lat="62.751691" lon="22.86541">
<time>2021-06-11T09:36:24Z</time>
</trkpt>
<trkpt lat="62.751713" lon="22.865423">
<time>2021-06-11T09:36:25Z</time>
</trkpt>
<trkpt lat="62.751741" lon="22.86544">
<time>2021-06-11T09:36:26Z</time>
</trkpt>
<trkpt lat="62.751775" lon="22.86545">
<time>2021-06-11T09:36:27Z</time>
</trkpt>
<trkpt lat="62.751813" lon="22.865438">
<time>2021-06-11T09:36:28Z</time>
</trkpt>
<trkpt lat="62.751845" lon="22.865416">
<time>2021-06-11T09:36:29Z</time>
</trkpt>
<trkpt lat="62.751883" lon="22.865365">
<time>2021-06-11T09:36:30Z</time>
</trkpt>
<trkpt lat="62.751931" lon="22.865308">
<time>2021-06-11T09:36:31Z</time>
</trkpt>
<trkpt lat="62.751975" lon="22.865258">
<time>2021-06-11T09:36:32Z</time>
</trkpt>
<trkpt lat="62.75202" lon="22.865216">
<time>2021-06-11T09:36:33Z</time>
</trkpt>
<trkpt lat="62.752051" lon="22.865193">
<time>2021-06-11T09:36:34Z</time>
</trkpt>
<trkpt lat="62.752083" lon="22.865155">
<time>2021-06-11T09:36:35Z</time>
</trkpt>
<trkpt lat="62.752108" lon="22.86511">
<time>2021-06-11T09:36:36Z</time>
</trkpt>
<trkpt lat="62.752138" lon="22.865053">
<time>2021-06-11T09:36:37Z</time>
</trkpt>
<trkpt lat="62.752156" lon="22.86501">
<time>2021-06-11T09:36:38Z</time>
</trkpt>
<trkpt lat="62.752173" lon="22.864951">
<time>2021-06-11T09:36:39Z</time>
</trkpt>
<trkpt lat="62.752198" lon="22.864896">
<time>2021-06-11T09:36:40Z</time>
</trkpt>
<trkpt lat="62.752235" lon="22.86484">
<time>2021-06-11T09:36:41Z</time>
</trkpt>
<trkpt lat="62.752275" lon="22.8648">
<time>2021-06-11T09:36:42Z</time>
</trkpt>
<trkpt lat="62.75231" lon="22.864788">
<time>2021-06-11T09:36:43Z</time>
</trkpt>
<trkpt lat="62.752351" lon="22.864798">
<time>2021-06-11T09:36:44Z</time>
</trkpt>
<trkpt lat="62.752395" lon="22.864815">
<time>2021-06-11T09:36:45Z</time>
</trkpt>
<trkpt lat="62.752438" lon="22.86483">
<time>2021-06-11T09:36:46Z</time>
</trkpt>
<trkpt lat="62.75248" lon="22.86484">
<time>2021-06-11T09:36:47Z</time>
</trkpt>
<trkpt lat="62.752518" lon="22.864851">
<time>2021-06-11T09:36:48Z</time>
</trkpt>
<trkpt lat="62.752556" lon="22.864856">
<time>2021-06-11T09:36:49Z</time>
</trkpt>
<trkpt lat="62.752595" lon="22.864851">
<time>2021-06-11T09:36:50Z</time>
</trkpt>
<trkpt lat="62.752641" lon="22.864826">
<time>2021-06-11T09:36:51Z</time>
</trkpt>
<trkpt lat="62.752673" lon="22.864791">
<time>2021-06-11T09:36:52Z</time>
</trkpt>
<trkpt lat="62.752708" lon="22.864746">
<time>2021-06-11T09:36:53Z</time>
</trkpt>
<trkpt lat="62.75275" lon="22.8647">
<time>2021-06-11T09:36:54Z</time>
</trkpt>
<trkpt lat="62.752785" lon="22.86467">
<time>2021-06-11T09:36:55Z</time>
</trkpt>
<trkpt lat="62.752811" lon="22.864646">
<time>2021-06-11T09:36:56Z</time>
</trkpt>
<trkpt lat="62.75284" lon="22.86462">
<time>2021-06-11T09:36:57Z</time>
</trkpt>
<trkpt lat="62.752866" lon="22.864591">
<time>2021-06-11T09:36:58Z</time>
</trkpt>
<trkpt lat="62.752883" lon="22.864576">
<time>2021-06-11T09:36:59Z</time>
</trkpt>
<trkpt lat="62.75291" lon="22.86456">
<time>2021-06-11T09:37:00Z</time>
</trkpt>
<trkpt lat="62.752935" lon="22.864526">
<time>2021-06-11T09:37:01Z</time>
</trkpt>
<trkpt lat="62.752965" lon="22.864486">
<time>2021-06-11T09:37:02Z</time>
</trkpt>
<trkpt lat="62.752991" lon="22.86444">
<time>2021-06-11T09:37:03Z</time>
</trkpt>
<trkpt lat="62.753025" lon="22.864395">
<time>2021-06-11T09:37:04Z</time>
</trkpt>
<trkpt lat="62.75306" lon="22.864351">
<time>2021-06-11T09:37:05Z</time>
</trkpt>
<trkpt lat="62.753096" lon="22.86431">
<time>2021-06-11T09:37:06Z</time>
</trkpt>
<trkpt lat="62.75313" lon="22.864286">
<time>2021-06-11T09:37:07Z</time>
</trkpt>
<trkpt lat="62.753166" lon="22.864258">
<time>2021-06-11T09:37:08Z</time>
</trkpt>
<trkpt lat="62.753196" lon="22.864223">
<time>2021-06-11T09:37:09Z</time>
</trkpt>
<trkpt lat="62.753228" lon="22.86418">
<time>2021-06-11T09:37:10Z</time>
</trkpt>
<trkpt lat="62.75326" lon="22.864138">
<time>2021-06-11T09:37:11Z</time>
</trkpt>
<trkpt lat="62.753296" lon="22.864095">
<time>2021-06-11T09:37:12Z</time>
</trkpt>
<trkpt lat="62.753336" lon="22.864028">
<time>2021-06-11T09:37:13Z</time>
</trkpt>
<trkpt lat="62.753366" lon="22.863985">
<time>2021-06-11T09:37:14Z</time>
</trkpt>
<trkpt lat="62.753403" lon="22.863946">
<time>2021-06-11T09:37:15Z</time>
</trkpt>
<trkpt lat="62.753436" lon="22.863908">
<time>2021-06-11T09:37:16Z</time>
</trkpt>
<trkpt lat="62.753478" lon="22.863851">
<time>2021-06-11T09:37:17Z</time>
</trkpt>
<trkpt lat="62.753511" lon="22.86381">
<time>2021-06-11T09:37:18Z</time>
</trkpt>
<trkpt lat="62.753538" lon="22.863775">
<time>2021-06-11T09:37:19Z</time>
</trkpt>
<trkpt lat="62.753566" lon="22.863738">
<time>2021-06-11T09:37:20Z</time>
</trkpt>
<trkpt lat="62.753596" lon="22.863696">
<time>2021-06-11T09:37:21Z</time>
</trkpt>
<trkpt lat="62.753618" lon="22.863666">
<time>2021-06-11T09:37:22Z</time>
</trkpt>
<trkpt lat="62.753635" lon="22.863633">
<time>2021-06-11T09:37:23Z</time>
</trkpt>
<trkpt lat="62.75365" lon="22.863606">
<time>2021-06-11T09:37:24Z</time>
</trkpt>
<trkpt lat="62.753668" lon="22.863576">
<time>2021-06-11T09:37:25Z</time>
</trkpt>
<trkpt lat="62.753691" lon="22.863543">
<time>2021-06-11T09:37:26Z</time>
</trkpt>
<trkpt lat="62.753708" lon="22.863518">
<time>2021-06-11T09:37:27Z</time>
</trkpt>
<trkpt lat="62.753721" lon="22.863498">
<time>2021-06-11T09:37:28Z</time>
</trkpt>
<trkpt lat="62.753741" lon="22.863468">
<time>2021-06-11T09:37:29Z</time>
</trkpt>
<trkpt lat="62.753776" lon="22.863421">
<time>2021-06-11T09:37:30Z</time>
</trkpt>
<trkpt lat="62.753808" lon="22.86339">
<time>2021-06-11T09:37:31Z</time>
</trkpt>
<trkpt lat="62.753831" lon="22.86336">
<time>2021-06-11T09:37:32Z</time>
</trkpt>
<trkpt lat="62.753851" lon="22.863325">
<time>2021-06-11T09:37:33Z</time>
</trkpt>
<trkpt lat="62.753876" lon="22.863268">
<time>2021-06-11T09:37:34Z</time>
</trkpt>
<trkpt lat="62.753906" lon="22.863191">
<time>2021-06-11T09:37:35Z</time>
</trkpt>
<trkpt lat="62.753925" lon="22.863126">
<time>2021-06-11T09:37:36Z</time>
</trkpt>
<trkpt lat="62.753938" lon="22.863058">
<time>2021-06-11T09:37:37Z</time>
</trkpt>
<trkpt lat="62.753955" lon="22.86297">
<time>2021-06-11T09:37:38Z</time>
</trkpt>
<trkpt lat="62.753978" lon="22.862861">
<time>2021-06-11T09:37:39Z</time>
</trkpt>
<trkpt lat="62.753995" lon="22.862768">
<time>2021-06-11T09:37:40Z</time>
</trkpt>
<trkpt lat="62.754006" lon="22.862696">
<time>2021-06-11T09:37:41Z</time>
</trkpt>
<trkpt lat="62.754015" lon="22.862603">
<time>2021-06-11T09:37:42Z</time>
</trkpt>
<trkpt lat="62.754021" lon="22.862515">
<time>2021-06-11T09:37:43Z</time>
</trkpt>
<trkpt lat="62.754035" lon="22.862418">
<time>2021-06-11T09:37:44Z</time>
</trkpt>
<trkpt lat="62.754045" lon="22.862345">
<time>2021-06-11T09:37:45Z</time>
</trkpt>
<trkpt lat="62.754051" lon="22.862293">
<time>2021-06-11T09:37:46Z</time>
</trkpt>
<trkpt lat="62.754051" lon="22.862226">
<time>2021-06-11T09:37:47Z</time>
</trkpt>
<trkpt lat="62.754053" lon="22.862148">
<time>2021-06-11T09:37:48Z</time>
</trkpt>
<trkpt lat="62.75405" lon="22.86208">
<time>2021-06-11T09:37:49Z</time>
</trkpt>
<trkpt lat="62.754048" lon="22.862013">
<time>2021-06-11T09:37:50Z</time>
</trkpt>
<trkpt lat="62.754048" lon="22.861938">
<time>2021-06-11T09:37:51Z</time>
</trkpt>
<trkpt lat="62.754058" lon="22.861868">
<time>2021-06-11T09:37:52Z</time>
</trkpt>
<trkpt lat="62.754065" lon="22.861801">
<time>2021-06-11T09:37:53Z</time>
</trkpt>
<trkpt lat="62.754078" lon="22.861751">
<time>2021-06-11T09:37:54Z</time>
</trkpt>
<trkpt lat="62.754085" lon="22.861711">
<time>2021-06-11T09:37:55Z</time>
</trkpt>
<trkpt lat="62.754086" lon="22.861651">
<time>2021-06-11T09:37:56Z</time>
</trkpt>
<trkpt lat="62.754076" lon="22.861556">
<time>2021-06-11T09:37:57Z</time>
</trkpt>
<trkpt lat="62.754073" lon="22.86148">
<time>2021-06-11T09:37:58Z</time>
</trkpt>
<trkpt lat="62.754068" lon="22.861416">
<time>2021-06-11T09:37:59Z</time>
</trkpt>
<trkpt lat="62.75406" lon="22.861376">
<time>2021-06-11T09:38:00Z</time>
</trkpt>
<trkpt lat="62.754058" lon="22.861336">
<time>2021-06-11T09:38:01Z</time>
</trkpt>
<trkpt lat="62.754051" lon="22.861276">
<time>2021-06-11T09:38:02Z</time>
</trkpt>
<trkpt lat="62.75405" lon="22.861225">
<time>2021-06-11T09:38:03Z</time>
</trkpt>
<trkpt lat="62.754056" lon="22.861183">
<time>2021-06-11T09:38:04Z</time>
</trkpt>
<trkpt lat="62.754055" lon="22.861135">
<time>2021-06-11T09:38:05Z</time>
</trkpt>
<trkpt lat="62.754055" lon="22.86107">
<time>2021-06-11T09:38:06Z</time>
</trkpt>
<trkpt lat="62.754056" lon="22.861021">
<time>2021-06-11T09:38:07Z</time>
</trkpt>
<trkpt lat="62.754056" lon="22.860966">
<time>2021-06-11T09:38:08Z</time>
</trkpt>
<trkpt lat="62.754055" lon="22.860921">
<time>2021-06-11T09:38:09Z</time>
</trkpt>
<trkpt lat="62.75405" lon="22.860858">
<time>2021-06-11T09:38:10Z</time>
</trkpt>
<trkpt lat="62.754041" lon="22.860776">
<time>2021-06-11T09:38:11Z</time>
</trkpt>
<trkpt lat="62.754021" lon="22.86071">
<time>2021-06-11T09:38:12Z</time>
</trkpt>
<trkpt lat="62.754003" lon="22.860653">
<time>2021-06-11T09:38:13Z</time>
</trkpt>
<trkpt lat="62.753976" lon="22.860563">
<time>2021-06-11T09:38:14Z</time>
</trkpt>
<trkpt lat="62.753956" lon="22.860501">
<time>2021-06-11T09:38:15Z</time>
</trkpt>
<trkpt lat="62.753938" lon="22.860443">
<time>2021-06-11T09:38:16Z</time>
</trkpt>
<trkpt lat="62.753918" lon="22.860381">
<time>2021-06-11T09:38:17Z</time>
</trkpt>
<trkpt lat="62.753905" lon="22.860336">
<time>2021-06-11T09:38:18Z</time>
</trkpt>
<trkpt lat="62.75389" lon="22.860278">
<time>2021-06-11T09:38:19Z</time>
</trkpt>
<trkpt lat="62.753873" lon="22.860208">
<time>2021-06-11T09:38:20Z</time>
</trkpt>
<trkpt lat="62.753861" lon="22.860148">
<time>2021-06-11T09:38:21Z</time>
</trkpt>
<trkpt lat="62.753853" lon="22.860095">
<time>2021-06-11T09:38:22Z</time>
</trkpt>
<trkpt lat="62.753836" lon="22.860035">
<time>2021-06-11T09:38:23Z</time>
</trkpt>
<trkpt lat="62.753815" lon="22.859975">
<time>2021-06-11T09:38:24Z</time>
</trkpt>
<trkpt lat="62.753793" lon="22.859918">
<time>2021-06-11T09:38:25Z</time>
</trkpt>
<trkpt lat="62.753775" lon="22.859856">
<time>2021-06-11T09:38:26Z</time>
</trkpt>
<trkpt lat="62.75376" lon="22.859798">
<time>2021-06-11T09:38:27Z</time>
</trkpt>
<trkpt lat="62.753741" lon="22.85974">
<time>2021-06-11T09:38:28Z</time>
</trkpt>
<trkpt lat="62.753721" lon="22.859668">
<time>2021-06-11T09:38:29Z</time>
</trkpt>
<trkpt lat="62.753706" lon="22.859608">
<time>2021-06-11T09:38:30Z</time>
</trkpt>
<trkpt lat="62.753698" lon="22.859553">
<time>2021-06-11T09:38:31Z</time>
</trkpt>
<trkpt lat="62.753688" lon="22.859486">
<time>2021-06-11T09:38:32Z</time>
</trkpt>
<trkpt lat="62.753698" lon="22.859433">
<time>2021-06-11T09:38:33Z</time>
</trkpt>
<trkpt lat="62.753711" lon="22.859373">
<time>2021-06-11T09:38:34Z</time>
</trkpt>
<trkpt lat="62.753718" lon="22.859325">
<time>2021-06-11T09:38:35Z</time>
</trkpt>
<trkpt lat="62.753723" lon="22.859288">
<time>2021-06-11T09:38:36Z</time>
</trkpt>
<trkpt lat="62.753726" lon="22.859235">
<time>2021-06-11T09:38:37Z</time>
</trkpt>
<trkpt lat="62.753728" lon="22.859178">
<time>2021-06-11T09:38:38Z</time>
</trkpt>
<trkpt lat="62.753725" lon="22.859118">
<time>2021-06-11T09:38:39Z</time>
</trkpt>
<trkpt lat="62.753726" lon="22.859081">
<time>2021-06-11T09:38:40Z</time>
</trkpt>
<trkpt lat="62.75373" lon="22.85904">
<time>2021-06-11T09:38:41Z</time>
</trkpt>
<trkpt lat="62.753731" lon="22.859011">
<time>2021-06-11T09:38:42Z</time>
</trkpt>
<trkpt lat="62.753733" lon="22.859001">
<time>2021-06-11T09:38:43Z</time>
</trkpt>
<trkpt lat="62.753733" lon="22.858993">
<time>2021-06-11T09:38:44Z</time>
</trkpt>
<trkpt lat="62.753733" lon="22.858988">
<time>2021-06-11T09:38:45Z</time>
</trkpt>
<trkpt lat="62.753733" lon="22.858988">
<time>2021-06-11T09:38:46Z</time>
</trkpt>
<trkpt lat="62.753736" lon="22.858991">
<time>2021-06-11T09:38:47Z</time>
</trkpt>
<trkpt lat="62.753736" lon="22.859001">
<time>2021-06-11T09:38:48Z</time>
</trkpt>
<trkpt lat="62.753736" lon="22.859021">
<time>2021-06-11T09:38:49Z</time>
</trkpt>
<trkpt lat="62.753738" lon="22.859051">
<time>2021-06-11T09:38:50Z</time>
</trkpt>
<trkpt lat="62.75374" lon="22.859093">
<time>2021-06-11T09:38:51Z</time>
</trkpt>
<trkpt lat="62.753741" lon="22.85913">
<time>2021-06-11T09:38:52Z</time>
</trkpt>
<trkpt lat="62.753743" lon="22.859188">
<time>2021-06-11T09:38:53Z</time>
</trkpt>
<trkpt lat="62.753746" lon="22.859235">
<time>2021-06-11T09:38:54Z</time>
</trkpt>
<trkpt lat="62.753741" lon="22.859278">
<time>2021-06-11T09:38:55Z</time>
</trkpt>
<trkpt lat="62.753736" lon="22.859321">
<time>2021-06-11T09:38:56Z</time>
</trkpt>
<trkpt lat="62.753733" lon="22.859365">
<time>2021-06-11T09:38:57Z</time>
</trkpt>
<trkpt lat="62.753731" lon="22.859413">
<time>2021-06-11T09:38:58Z</time>
</trkpt>
<trkpt lat="62.753731" lon="22.859461">
<time>2021-06-11T09:38:59Z</time>
</trkpt>
<trkpt lat="62.753726" lon="22.859505">
<time>2021-06-11T09:39:00Z</time>
</trkpt>
<trkpt lat="62.753731" lon="22.859551">
<time>2021-06-11T09:39:01Z</time>
</trkpt>
<trkpt lat="62.753728" lon="22.859605">
<time>2021-06-11T09:39:02Z</time>
</trkpt>
<trkpt lat="62.753715" lon="22.85964">
<time>2021-06-11T09:39:03Z</time>
</trkpt>
<trkpt lat="62.753695" lon="22.85965">
<time>2021-06-11T09:39:04Z</time>
</trkpt>
<trkpt lat="62.75367" lon="22.859661">
<time>2021-06-11T09:39:05Z</time>
</trkpt>
<trkpt lat="62.753646" lon="22.859681">
<time>2021-06-11T09:39:06Z</time>
</trkpt>
<trkpt lat="62.753625" lon="22.859713">
<time>2021-06-11T09:39:07Z</time>
</trkpt>
<trkpt lat="62.753606" lon="22.859753">
<time>2021-06-11T09:39:08Z</time>
</trkpt>
<trkpt lat="62.753585" lon="22.859801">
<time>2021-06-11T09:39:09Z</time>
</trkpt>
<trkpt lat="62.75356" lon="22.859846">
<time>2021-06-11T09:39:10Z</time>
</trkpt>
<trkpt lat="62.75353" lon="22.859886">
<time>2021-06-11T09:39:11Z</time>
</trkpt>
<trkpt lat="62.753501" lon="22.859916">
<time>2021-06-11T09:39:12Z</time>
</trkpt>
<trkpt lat="62.75348" lon="22.859936">
<time>2021-06-11T09:39:13Z</time>
</trkpt>
<trkpt lat="62.75346" lon="22.859956">
<time>2021-06-11T09:39:14Z</time>
</trkpt>
<trkpt lat="62.753441" lon="22.859981">
<time>2021-06-11T09:39:15Z</time>
</trkpt>
<trkpt lat="62.75342" lon="22.860011">
<time>2021-06-11T09:39:16Z</time>
</trkpt>
<trkpt lat="62.75339" lon="22.860043">
<time>2021-06-11T09:39:17Z</time>
</trkpt>
<trkpt lat="62.753355" lon="22.86008">
<time>2021-06-11T09:39:18Z</time>
</trkpt>
<trkpt lat="62.753321" lon="22.86011">
<time>2021-06-11T09:39:19Z</time>
</trkpt>
<trkpt lat="62.753293" lon="22.860138">
<time>2021-06-11T09:39:20Z</time>
</trkpt>
<trkpt lat="62.753263" lon="22.860163">
<time>2021-06-11T09:39:21Z</time>
</trkpt>
<trkpt lat="62.75323" lon="22.860178">
<time>2021-06-11T09:39:22Z</time>
</trkpt>
<trkpt lat="62.753196" lon="22.86018">
<time>2021-06-11T09:39:23Z</time>
</trkpt>
<trkpt lat="62.753161" lon="22.860173">
<time>2021-06-11T09:39:24Z</time>
</trkpt>
<trkpt lat="62.753126" lon="22.860166">
<time>2021-06-11T09:39:25Z</time>
</trkpt>
<trkpt lat="62.75309" lon="22.86015">
<time>2021-06-11T09:39:26Z</time>
</trkpt>
<trkpt lat="62.753056" lon="22.860115">
<time>2021-06-11T09:39:27Z</time>
</trkpt>
<trkpt lat="62.75303" lon="22.860058">
<time>2021-06-11T09:39:28Z</time>
</trkpt>
<trkpt lat="62.753003" lon="22.85999">
<time>2021-06-11T09:39:29Z</time>
</trkpt>
<trkpt lat="62.752981" lon="22.859916">
<time>2021-06-11T09:39:30Z</time>
</trkpt>
<trkpt lat="62.752956" lon="22.859835">
<time>2021-06-11T09:39:31Z</time>
</trkpt>
<trkpt lat="62.75293" lon="22.85975">
<time>2021-06-11T09:39:32Z</time>
</trkpt>
<trkpt lat="62.752901" lon="22.859661">
<time>2021-06-11T09:39:33Z</time>
</trkpt>
<trkpt lat="62.752868" lon="22.859571">
<time>2021-06-11T09:39:34Z</time>
</trkpt>
<trkpt lat="62.752833" lon="22.859476">
<time>2021-06-11T09:39:35Z</time>
</trkpt>
<trkpt lat="62.752796" lon="22.859376">
<time>2021-06-11T09:39:36Z</time>
</trkpt>
<trkpt lat="62.75276" lon="22.859276">
<time>2021-06-11T09:39:37Z</time>
</trkpt>
<trkpt lat="62.752725" lon="22.859175">
<time>2021-06-11T09:39:38Z</time>
</trkpt>
<trkpt lat="62.75269" lon="22.859075">
<time>2021-06-11T09:39:39Z</time>
</trkpt>
<trkpt lat="62.752656" lon="22.858976">
<time>2021-06-11T09:39:40Z</time>
</trkpt>
<trkpt lat="62.75263" lon="22.858875">
<time>2021-06-11T09:39:41Z</time>
</trkpt>
<trkpt lat="62.752606" lon="22.858771">
<time>2021-06-11T09:39:42Z</time>
</trkpt>
<trkpt lat="62.752581" lon="22.85867">
<time>2021-06-11T09:39:43Z</time>
</trkpt>
<trkpt lat="62.752556" lon="22.858566">
<time>2021-06-11T09:39:44Z</time>
</trkpt>
<trkpt lat="62.752531" lon="22.858465">
<time>2021-06-11T09:39:45Z</time>
</trkpt>
<trkpt lat="62.752503" lon="22.858363">
<time>2021-06-11T09:39:46Z</time>
</trkpt>
<trkpt lat="62.752471" lon="22.858263">
<time>2021-06-11T09:39:47Z</time>
</trkpt>
<trkpt lat="62.75244" lon="22.858166">
<time>2021-06-11T09:39:48Z</time>
</trkpt>
<trkpt lat="62.752408" lon="22.858071">
<time>2021-06-11T09:39:49Z</time>
</trkpt>
<trkpt lat="62.752375" lon="22.857973">
<time>2021-06-11T09:39:50Z</time>
</trkpt>
<trkpt lat="62.752343" lon="22.857875">
<time>2021-06-11T09:39:51Z</time>
</trkpt>
<trkpt lat="62.752311" lon="22.857778">
<time>2021-06-11T09:39:52Z</time>
</trkpt>
<trkpt lat="62.752283" lon="22.857683">
<time>2021-06-11T09:39:53Z</time>
</trkpt>
<trkpt lat="62.752253" lon="22.85759">
<time>2021-06-11T09:39:54Z</time>
</trkpt>
<trkpt lat="62.75223" lon="22.857501">
<time>2021-06-11T09:39:55Z</time>
</trkpt>
<trkpt lat="62.752218" lon="22.857435">
<time>2021-06-11T09:39:56Z</time>
</trkpt>
<trkpt lat="62.752221" lon="22.8574">
<time>2021-06-11T09:39:57Z</time>
</trkpt>
<trkpt lat="62.752233" lon="22.857383">
<time>2021-06-11T09:39:58Z</time>
</trkpt>
<trkpt lat="62.752253" lon="22.857365">
<time>2021-06-11T09:39:59Z</time>
</trkpt>
<trkpt lat="62.752278" lon="22.857341">
<time>2021-06-11T09:40:00Z</time>
</trkpt>
<trkpt lat="62.752301" lon="22.857316">
<time>2021-06-11T09:40:01Z</time>
</trkpt>
<trkpt lat="62.752325" lon="22.857296">
<time>2021-06-11T09:40:02Z</time>
</trkpt>
<trkpt lat="62.752355" lon="22.857285">
<time>2021-06-11T09:40:03Z</time>
</trkpt>
<trkpt lat="62.752388" lon="22.857281">
<time>2021-06-11T09:40:04Z</time>
</trkpt>
<trkpt lat="62.752425" lon="22.857273">
<time>2021-06-11T09:40:05Z</time>
</trkpt>
<trkpt lat="62.752461" lon="22.857261">
<time>2021-06-11T09:40:06Z</time>
</trkpt>
<trkpt lat="62.7525" lon="22.857263">
<time>2021-06-11T09:40:07Z</time>
</trkpt>
<trkpt lat="62.752538" lon="22.857278">
<time>2021-06-11T09:40:08Z</time>
</trkpt>
<trkpt lat="62.752573" lon="22.857295">
<time>2021-06-11T09:40:09Z</time>
</trkpt>
<trkpt lat="62.752601" lon="22.857325">
<time>2021-06-11T09:40:10Z</time>
</trkpt>
<trkpt lat="62.752618" lon="22.857363">
<time>2021-06-11T09:40:11Z</time>
</trkpt>
<trkpt lat="62.752641" lon="22.857393">
<time>2021-06-11T09:40:12Z</time>
</trkpt>
<trkpt lat="62.752675" lon="22.857431">
<time>2021-06-11T09:40:13Z</time>
</trkpt>
<trkpt lat="62.752711" lon="22.857461">
<time>2021-06-11T09:40:14Z</time>
</trkpt>
<trkpt lat="62.752746" lon="22.857476">
<time>2021-06-11T09:40:15Z</time>
</trkpt>
<trkpt lat="62.752781" lon="22.857471">
<time>2021-06-11T09:40:16Z</time>
</trkpt>
<trkpt lat="62.752813" lon="22.857448">
<time>2021-06-11T09:40:17Z</time>
</trkpt>
<trkpt lat="62.75284" lon="22.857403">
<time>2021-06-11T09:40:18Z</time>
</trkpt>
<trkpt lat="62.752868" lon="22.857348">
<time>2021-06-11T09:40:19Z</time>
</trkpt>
<trkpt lat="62.752888" lon="22.857293">
<time>2021-06-11T09:40:20Z</time>
</trkpt>
<trkpt lat="62.752908" lon="22.85724">
<time>2021-06-11T09:40:21Z</time>
</trkpt>
<trkpt lat="62.75293" lon="22.857193">
<time>2021-06-11T09:40:22Z</time>
</trkpt>
<trkpt lat="62.752953" lon="22.857156">
<time>2021-06-11T09:40:23Z</time>
</trkpt>
<trkpt lat="62.752971" lon="22.857113">
<time>2021-06-11T09:40:24Z</time>
</trkpt>
<trkpt lat="62.752991" lon="22.857068">
<time>2021-06-11T09:40:25Z</time>
</trkpt>
<trkpt lat="62.753015" lon="22.85704">
<time>2021-06-11T09:40:26Z</time>
</trkpt>
<trkpt lat="62.753038" lon="22.857038">
<time>2021-06-11T09:40:27Z</time>
</trkpt>
<trkpt lat="62.753066" lon="22.857055">
<time>2021-06-11T09:40:28Z</time>
</trkpt>
<trkpt lat="62.753101" lon="22.857066">
<time>2021-06-11T09:40:29Z</time>
</trkpt>
<trkpt lat="62.753131" lon="22.857068">
<time>2021-06-11T09:40:30Z</time>
</trkpt>
<trkpt lat="62.753151" lon="22.85705">
<time>2021-06-11T09:40:31Z</time>
</trkpt>
<trkpt lat="62.753168" lon="22.857006">
<time>2021-06-11T09:40:32Z</time>
</trkpt>
<trkpt lat="62.753191" lon="22.856968">
<time>2021-06-11T09:40:33Z</time>
</trkpt>
<trkpt lat="62.753216" lon="22.856931">
<time>2021-06-11T09:40:34Z</time>
</trkpt>
<trkpt lat="62.753243" lon="22.856895">
<time>2021-06-11T09:40:35Z</time>
</trkpt>
<trkpt lat="62.753273" lon="22.85687">
<time>2021-06-11T09:40:36Z</time>
</trkpt>
<trkpt lat="62.753303" lon="22.856831">
<time>2021-06-11T09:40:37Z</time>
</trkpt>
<trkpt lat="62.753333" lon="22.856775">
<time>2021-06-11T09:40:38Z</time>
</trkpt>
<trkpt lat="62.753358" lon="22.856713">
<time>2021-06-11T09:40:39Z</time>
</trkpt>
<trkpt lat="62.753383" lon="22.856658">
<time>2021-06-11T09:40:40Z</time>
</trkpt>
<trkpt lat="62.7534" lon="22.856625">
<time>2021-06-11T09:40:41Z</time>
</trkpt>
<trkpt lat="62.753425" lon="22.856598">
<time>2021-06-11T09:40:42Z</time>
</trkpt>
<trkpt lat="62.753453" lon="22.85657">
<time>2021-06-11T09:40:43Z</time>
</trkpt>
<trkpt lat="62.753476" lon="22.856545">
<time>2021-06-11T09:40:44Z</time>
</trkpt>
<trkpt lat="62.753505" lon="22.856521">
<time>2021-06-11T09:40:45Z</time>
</trkpt>
<trkpt lat="62.75353" lon="22.856505">
<time>2021-06-11T09:40:46Z</time>
</trkpt>
<trkpt lat="62.753556" lon="22.856486">
<time>2021-06-11T09:40:47Z</time>
</trkpt>
<trkpt lat="62.75359" lon="22.856463">
<time>2021-06-11T09:40:48Z</time>
</trkpt>
<trkpt lat="62.753628" lon="22.856425">
<time>2021-06-11T09:40:49Z</time>
</trkpt>
<trkpt lat="62.75366" lon="22.856378">
<time>2021-06-11T09:40:50Z</time>
</trkpt>
<trkpt lat="62.753681" lon="22.856336">
<time>2021-06-11T09:40:51Z</time>
</trkpt>
<trkpt lat="62.7537" lon="22.856291">
<time>2021-06-11T09:40:52Z</time>
</trkpt>
<trkpt lat="62.753731" lon="22.856255">
<time>2021-06-11T09:40:53Z</time>
</trkpt>
<trkpt lat="62.753753" lon="22.856228">
<time>2021-06-11T09:40:54Z</time>
</trkpt>
<trkpt lat="62.75377" lon="22.8562">
<time>2021-06-11T09:40:55Z</time>
</trkpt>
<trkpt lat="62.753783" lon="22.85616">
<time>2021-06-11T09:40:56Z</time>
</trkpt>
<trkpt lat="62.753798" lon="22.856105">
<time>2021-06-11T09:40:57Z</time>
</trkpt>
<trkpt lat="62.753816" lon="22.856046">
<time>2021-06-11T09:40:58Z</time>
</trkpt>
<trkpt lat="62.753833" lon="22.856001">
<time>2021-06-11T09:40:59Z</time>
</trkpt>
<trkpt lat="62.75385" lon="22.85596">
<time>2021-06-11T09:41:00Z</time>
</trkpt>
<trkpt lat="62.753873" lon="22.8559">
<time>2021-06-11T09:41:01Z</time>
</trkpt>
<trkpt lat="62.753905" lon="22.855821">
<time>2021-06-11T09:41:02Z</time>
</trkpt>
<trkpt lat="62.753926" lon="22.855738">
<time>2021-06-11T09:41:03Z</time>
</trkpt>
<trkpt lat="62.753941" lon="22.855673">
<time>2021-06-11T09:41:04Z</time>
</trkpt>
<trkpt lat="62.75396" lon="22.855593">
<time>2021-06-11T09:41:05Z</time>
</trkpt>
<trkpt lat="62.753976" lon="22.855518">
<time>2021-06-11T09:41:06Z</time>
</trkpt>
<trkpt lat="62.753995" lon="22.855428">
<time>2021-06-11T09:41:07Z</time>
</trkpt>
<trkpt lat="62.75401" lon="22.855366">
<time>2021-06-11T09:41:08Z</time>
</trkpt>
<trkpt lat="62.754023" lon="22.855328">
<time>2021-06-11T09:41:09Z</time>
</trkpt>
<trkpt lat="62.754041" lon="22.855286">
<time>2021-06-11T09:41:10Z</time>
</trkpt>
<trkpt lat="62.754073" lon="22.855253">
<time>2021-06-11T09:41:11Z</time>
</trkpt>
<trkpt lat="62.754096" lon="22.855243">
<time>2021-06-11T09:41:12Z</time>
</trkpt>
<trkpt lat="62.754128" lon="22.855256">
<time>2021-06-11T09:41:13Z</time>
</trkpt>
<trkpt lat="62.754146" lon="22.85526">
<time>2021-06-11T09:41:14Z</time>
</trkpt>
<trkpt lat="62.754165" lon="22.855266">
<time>2021-06-11T09:41:15Z</time>
</trkpt>
<trkpt lat="62.754186" lon="22.855275">
<time>2021-06-11T09:41:16Z</time>
</trkpt>
<trkpt lat="62.754196" lon="22.855306">
<time>2021-06-11T09:41:17Z</time>
</trkpt>
<trkpt lat="62.754205" lon="22.855328">
<time>2021-06-11T09:41:18Z</time>
</trkpt>
<trkpt lat="62.754216" lon="22.855341">
<time>2021-06-11T09:41:19Z</time>
</trkpt>
<trkpt lat="62.754231" lon="22.855348">
<time>2021-06-11T09:41:20Z</time>
</trkpt>
<trkpt lat="62.75425" lon="22.855341">
<time>2021-06-11T09:41:21Z</time>
</trkpt>
<trkpt lat="62.754281" lon="22.85533">
<time>2021-06-11T09:41:22Z</time>
</trkpt>
<trkpt lat="62.754316" lon="22.855326">
<time>2021-06-11T09:41:23Z</time>
</trkpt>
<trkpt lat="62.75434" lon="22.855325">
<time>2021-06-11T09:41:24Z</time>
</trkpt>
<trkpt lat="62.754363" lon="22.85532">
<time>2021-06-11T09:41:25Z</time>
</trkpt>
<trkpt lat="62.754376" lon="22.855321">
<time>2021-06-11T09:41:26Z</time>
</trkpt>
<trkpt lat="62.754388" lon="22.855326">
<time>2021-06-11T09:41:27Z</time>
</trkpt>
<trkpt lat="62.754398" lon="22.85533">
<time>2021-06-11T09:41:28Z</time>
</trkpt>
<trkpt lat="62.754413" lon="22.855326">
<time>2021-06-11T09:41:29Z</time>
</trkpt>
<trkpt lat="62.754436" lon="22.85532">
<time>2021-06-11T09:41:30Z</time>
</trkpt>
<trkpt lat="62.754461" lon="22.855315">
<time>2021-06-11T09:41:31Z</time>
</trkpt>
<trkpt lat="62.754486" lon="22.855313">
<time>2021-06-11T09:41:32Z</time>
</trkpt>
<trkpt lat="62.754523" lon="22.855316">
<time>2021-06-11T09:41:33Z</time>
</trkpt>
<trkpt lat="62.754565" lon="22.855335">
<time>2021-06-11T09:41:34Z</time>
</trkpt>
<trkpt lat="62.754621" lon="22.855368">
<time>2021-06-11T09:41:35Z</time>
</trkpt>
<trkpt lat="62.754668" lon="22.855415">
<time>2021-06-11T09:41:36Z</time>
</trkpt>
<trkpt lat="62.754701" lon="22.855466">
<time>2021-06-11T09:41:37Z</time>
</trkpt>
<trkpt lat="62.75473" lon="22.85555">
<time>2021-06-11T09:41:38Z</time>
</trkpt>
<trkpt lat="62.75475" lon="22.855671">
<time>2021-06-11T09:41:39Z</time>
</trkpt>
<trkpt lat="62.754755" lon="22.855775">
<time>2021-06-11T09:41:40Z</time>
</trkpt>
<trkpt lat="62.754753" lon="22.855883">
<time>2021-06-11T09:41:41Z</time>
</trkpt>
<trkpt lat="62.75475" lon="22.855996">
<time>2021-06-11T09:41:42Z</time>
</trkpt>
<trkpt lat="62.754748" lon="22.856085">
<time>2021-06-11T09:41:43Z</time>
</trkpt>
<trkpt lat="62.754745" lon="22.856185">
<time>2021-06-11T09:41:44Z</time>
</trkpt>
<trkpt lat="62.754748" lon="22.856266">
<time>2021-06-11T09:41:45Z</time>
</trkpt>
<trkpt lat="62.75477" lon="22.856321">
<time>2021-06-11T09:41:46Z</time>
</trkpt>
<trkpt lat="62.754803" lon="22.856363">
<time>2021-06-11T09:41:47Z</time>
</trkpt>
<trkpt lat="62.754845" lon="22.856395">
<time>2021-06-11T09:41:48Z</time>
</trkpt>
<trkpt lat="62.754905" lon="22.856441">
<time>2021-06-11T09:41:49Z</time>
</trkpt>
<trkpt lat="62.754965" lon="22.856485">
<time>2021-06-11T09:41:50Z</time>
</trkpt>
<trkpt lat="62.755015" lon="22.856518">
<time>2021-06-11T09:41:51Z</time>
</trkpt>
<trkpt lat="62.755078" lon="22.856546">
<time>2021-06-11T09:41:52Z</time>
</trkpt>
<trkpt lat="62.755146" lon="22.856575">
<time>2021-06-11T09:41:53Z</time>
</trkpt>
<trkpt lat="62.755203" lon="22.85658">
<time>2021-06-11T09:41:54Z</time>
</trkpt>
<trkpt lat="62.755258" lon="22.856561">
<time>2021-06-11T09:41:55Z</time>
</trkpt>
<trkpt lat="62.7553" lon="22.856528">
<time>2021-06-11T09:41:56Z</time>
</trkpt>
<trkpt lat="62.755355" lon="22.856483">
<time>2021-06-11T09:41:57Z</time>
</trkpt>
<trkpt lat="62.75541" lon="22.856431">
<time>2021-06-11T09:41:58Z</time>
</trkpt>
<trkpt lat="62.755476" lon="22.856375">
<time>2021-06-11T09:41:59Z</time>
</trkpt>
<trkpt lat="62.755521" lon="22.856343">
<time>2021-06-11T09:42:00Z</time>
</trkpt>
<trkpt lat="62.755585" lon="22.856293">
<time>2021-06-11T09:42:01Z</time>
</trkpt>
<trkpt lat="62.755655" lon="22.85625">
<time>2021-06-11T09:42:02Z</time>
</trkpt>
<trkpt lat="62.755706" lon="22.856201">
<time>2021-06-11T09:42:03Z</time>
</trkpt>
<trkpt lat="62.755748" lon="22.856155">
<time>2021-06-11T09:42:04Z</time>
</trkpt>
<trkpt lat="62.755771" lon="22.856123">
<time>2021-06-11T09:42:05Z</time>
</trkpt>
<trkpt lat="62.75579" lon="22.856081">
<time>2021-06-11T09:42:06Z</time>
</trkpt>
<trkpt lat="62.755795" lon="22.856046">
<time>2021-06-11T09:42:07Z</time>
</trkpt>
<trkpt lat="62.7558" lon="22.85602">
<time>2021-06-11T09:42:08Z</time>
</trkpt>
<trkpt lat="62.755805" lon="22.856001">
<time>2021-06-11T09:42:09Z</time>
</trkpt>
<trkpt lat="62.755815" lon="22.85598">
<time>2021-06-11T09:42:10Z</time>
</trkpt>
<trkpt lat="62.755835" lon="22.855961">
<time>2021-06-11T09:42:11Z</time>
</trkpt>
<trkpt lat="62.755861" lon="22.855943">
<time>2021-06-11T09:42:12Z</time>
</trkpt>
<trkpt lat="62.755883" lon="22.855945">
<time>2021-06-11T09:42:13Z</time>
</trkpt>
<trkpt lat="62.755905" lon="22.855953">
<time>2021-06-11T09:42:14Z</time>
</trkpt>
<trkpt lat="62.755921" lon="22.855963">
<time>2021-06-11T09:42:15Z</time>
</trkpt>
<trkpt lat="62.755946" lon="22.85599">
<time>2021-06-11T09:42:16Z</time>
</trkpt>
<trkpt lat="62.755975" lon="22.856015">
<time>2021-06-11T09:42:17Z</time>
</trkpt>
<trkpt lat="62.756001" lon="22.856045">
<time>2021-06-11T09:42:18Z</time>
</trkpt>
<trkpt lat="62.756033" lon="22.856075">
<time>2021-06-11T09:42:19Z</time>
</trkpt>
<trkpt lat="62.756068" lon="22.856126">
<time>2021-06-11T09:42:20Z</time>
</trkpt>
<trkpt lat="62.756086" lon="22.856183">
<time>2021-06-11T09:42:21Z</time>
</trkpt>
<trkpt lat="62.756105" lon="22.85626">
<time>2021-06-11T09:42:22Z</time>
</trkpt>
<trkpt lat="62.756111" lon="22.856346">
<time>2021-06-11T09:42:23Z</time>
</trkpt>
<trkpt lat="62.756111" lon="22.856443">
<time>2021-06-11T09:42:24Z</time>
</trkpt>
<trkpt lat="62.756105" lon="22.856545">
<time>2021-06-11T09:42:25Z</time>
</trkpt>
<trkpt lat="62.756096" lon="22.856641">
<time>2021-06-11T09:42:26Z</time>
</trkpt>
<trkpt lat="62.756091" lon="22.856731">
<time>2021-06-11T09:42:27Z</time>
</trkpt>
<trkpt lat="62.756088" lon="22.856818">
<time>2021-06-11T09:42:28Z</time>
</trkpt>
<trkpt lat="62.756086" lon="22.8569">
<time>2021-06-11T09:42:29Z</time>
</trkpt>
<trkpt lat="62.756088" lon="22.856981">
<time>2021-06-11T09:42:30Z</time>
</trkpt>
<trkpt lat="62.756091" lon="22.85705">
<time>2021-06-11T09:42:31Z</time>
</trkpt>
<trkpt lat="62.756096" lon="22.857098">
<time>2021-06-11T09:42:32Z</time>
</trkpt>
<trkpt lat="62.756101" lon="22.857135">
<time>2021-06-11T09:42:33Z</time>
</trkpt>
<trkpt lat="62.756103" lon="22.857165">
<time>2021-06-11T09:42:34Z</time>
</trkpt>
<trkpt lat="62.7561" lon="22.8572">
<time>2021-06-11T09:42:35Z</time>
</trkpt>
<trkpt lat="62.756093" lon="22.857241">
<time>2021-06-11T09:42:36Z</time>
</trkpt>
<trkpt lat="62.75609" lon="22.857278">
<time>2021-06-11T09:42:37Z</time>
</trkpt>
<trkpt lat="62.756086" lon="22.857325">
<time>2021-06-11T09:42:38Z</time>
</trkpt>
<trkpt lat="62.75608" lon="22.857373">
<time>2021-06-11T09:42:39Z</time>
</trkpt>
<trkpt lat="62.75607" lon="22.857436">
<time>2021-06-11T09:42:40Z</time>
</trkpt>
<trkpt lat="62.756061" lon="22.857525">
<time>2021-06-11T09:42:41Z</time>
</trkpt>
<trkpt lat="62.756058" lon="22.857583">
<time>2021-06-11T09:42:42Z</time>
</trkpt>
<trkpt lat="62.756056" lon="22.857671">
<time>2021-06-11T09:42:43Z</time>
</trkpt>
<trkpt lat="62.756053" lon="22.85774">
<time>2021-06-11T09:42:44Z</time>
</trkpt>
<trkpt lat="62.756048" lon="22.857823">
<time>2021-06-11T09:42:45Z</time>
</trkpt>
<trkpt lat="62.75604" lon="22.857883">
<time>2021-06-11T09:42:46Z</time>
</trkpt>
<trkpt lat="62.756023" lon="22.857953">
<time>2021-06-11T09:42:47Z</time>
</trkpt>
<trkpt lat="62.756003" lon="22.858015">
<time>2021-06-11T09:42:48Z</time>
</trkpt>
<trkpt lat="62.75599" lon="22.858093">
<time>2021-06-11T09:42:49Z</time>
</trkpt>
<trkpt lat="62.755975" lon="22.858175">
<time>2021-06-11T09:42:50Z</time>
</trkpt>
<trkpt lat="62.75596" lon="22.85825">
<time>2021-06-11T09:42:51Z</time>
</trkpt>
<trkpt lat="62.755946" lon="22.858318">
<time>2021-06-11T09:42:52Z</time>
</trkpt>
<trkpt lat="62.755933" lon="22.858393">
<time>2021-06-11T09:42:53Z</time>
</trkpt>
<trkpt lat="62.755916" lon="22.858475">
<time>2021-06-11T09:42:54Z</time>
</trkpt>
<trkpt lat="62.755901" lon="22.858563">
<time>2021-06-11T09:42:55Z</time>
</trkpt>
<trkpt lat="62.755888" lon="22.858653">
<time>2021-06-11T09:42:56Z</time>
</trkpt>
<trkpt lat="62.75588" lon="22.858758">
<time>2021-06-11T09:42:57Z</time>
</trkpt>
<trkpt lat="62.755873" lon="22.85886">
<time>2021-06-11T09:42:58Z</time>
</trkpt>
<trkpt lat="62.75586" lon="22.858956">
<time>2021-06-11T09:42:59Z</time>
</trkpt>
<trkpt lat="62.755845" lon="22.859035">
<time>2021-06-11T09:43:00Z</time>
</trkpt>
<trkpt lat="62.75583" lon="22.859111">
<time>2021-06-11T09:43:01Z</time>
</trkpt>
<trkpt lat="62.755815" lon="22.859181">
<time>2021-06-11T09:43:02Z</time>
</trkpt>
<trkpt lat="62.755791" lon="22.859243">
<time>2021-06-11T09:43:03Z</time>
</trkpt>
<trkpt lat="62.755766" lon="22.85929">
<time>2021-06-11T09:43:04Z</time>
</trkpt>
<trkpt lat="62.755743" lon="22.859331">
<time>2021-06-11T09:43:05Z</time>
</trkpt>
<trkpt lat="62.75572" lon="22.859371">
<time>2021-06-11T09:43:06Z</time>
</trkpt>
<trkpt lat="62.75569" lon="22.859403">
<time>2021-06-11T09:43:07Z</time>
</trkpt>
<trkpt lat="62.755656" lon="22.859423">
<time>2021-06-11T09:43:08Z</time>
</trkpt>
<trkpt lat="62.75562" lon="22.859445">
<time>2021-06-11T09:43:09Z</time>
</trkpt>
<trkpt lat="62.755583" lon="22.859466">
<time>2021-06-11T09:43:10Z</time>
</trkpt>
<trkpt lat="62.755551" lon="22.859488">
<time>2021-06-11T09:43:11Z</time>
</trkpt>
<trkpt lat="62.755521" lon="22.859516">
<time>2021-06-11T09:43:12Z</time>
</trkpt>
<trkpt lat="62.75549" lon="22.859541">
<time>2021-06-11T09:43:13Z</time>
</trkpt>
<trkpt lat="62.75546" lon="22.859568">
<time>2021-06-11T09:43:14Z</time>
</trkpt>
<trkpt lat="62.755425" lon="22.859591">
<time>2021-06-11T09:43:15Z</time>
</trkpt>
<trkpt lat="62.75539" lon="22.859628">
<time>2021-06-11T09:43:16Z</time>
</trkpt>
<trkpt lat="62.755358" lon="22.859668">
<time>2021-06-11T09:43:17Z</time>
</trkpt>
<trkpt lat="62.755331" lon="22.859708">
<time>2021-06-11T09:43:18Z</time>
</trkpt>
<trkpt lat="62.75529" lon="22.859753">
<time>2021-06-11T09:43:19Z</time>
</trkpt>
<trkpt lat="62.75525" lon="22.859778">
<time>2021-06-11T09:43:20Z</time>
</trkpt>
<trkpt lat="62.75521" lon="22.859788">
<time>2021-06-11T09:43:21Z</time>
</trkpt>
<trkpt lat="62.755176" lon="22.859815">
<time>2021-06-11T09:43:22Z</time>
</trkpt>
<trkpt lat="62.755146" lon="22.859866">
<time>2021-06-11T09:43:23Z</time>
</trkpt>
<trkpt lat="62.755128" lon="22.85994">
<time>2021-06-11T09:43:24Z</time>
</trkpt>
<trkpt lat="62.755106" lon="22.860016">
<time>2021-06-11T09:43:25Z</time>
</trkpt>
<trkpt lat="62.75509" lon="22.860098">
<time>2021-06-11T09:43:26Z</time>
</trkpt>
<trkpt lat="62.755073" lon="22.86018">
<time>2021-06-11T09:43:27Z</time>
</trkpt>
<trkpt lat="62.75506" lon="22.860256">
<time>2021-06-11T09:43:28Z</time>
</trkpt>
<trkpt lat="62.755056" lon="22.860321">
<time>2021-06-11T09:43:29Z</time>
</trkpt>
<trkpt lat="62.755063" lon="22.860393">
<time>2021-06-11T09:43:30Z</time>
</trkpt>
<trkpt lat="62.755078" lon="22.860466">
<time>2021-06-11T09:43:31Z</time>
</trkpt>
<trkpt lat="62.755088" lon="22.860548">
<time>2021-06-11T09:43:32Z</time>
</trkpt>
<trkpt lat="62.75509" lon="22.860623">
<time>2021-06-11T09:43:33Z</time>
</trkpt>
<trkpt lat="62.755081" lon="22.860691">
<time>2021-06-11T09:43:34Z</time>
</trkpt>
<trkpt lat="62.755066" lon="22.860756">
<time>2021-06-11T09:43:35Z</time>
</trkpt>
<trkpt lat="62.755043" lon="22.86082">
<time>2021-06-11T09:43:36Z</time>
</trkpt>
<trkpt lat="62.755016" lon="22.860875">
<time>2021-06-11T09:43:37Z</time>
</trkpt>
<trkpt lat="62.754995" lon="22.860921">
<time>2021-06-11T09:43:38Z</time>
</trkpt>
<trkpt lat="62.75497" lon="22.860966">
<time>2021-06-11T09:43:39Z</time>
</trkpt>
<trkpt lat="62.75494" lon="22.86101">
<time>2021-06-11T09:43:40Z</time>
</trkpt>
<trkpt lat="62.754906" lon="22.861063">
<time>2021-06-11T09:43:41Z</time>
</trkpt>
<trkpt lat="62.754876" lon="22.861121">
<time>2021-06-11T09:43:42Z</time>
</trkpt>
<trkpt lat="62.754848" lon="22.86118">
<time>2021-06-11T09:43:43Z</time>
</trkpt>
<trkpt lat="62.754815" lon="22.861206">
<time>2021-06-11T09:43:44Z</time>
</trkpt>
<trkpt lat="62.754781" lon="22.861208">
<time>2021-06-11T09:43:45Z</time>
</trkpt>
<trkpt lat="62.75475" lon="22.861186">
<time>2021-06-11T09:43:46Z</time>
</trkpt>
<trkpt lat="62.754721" lon="22.861151">
<time>2021-06-11T09:43:47Z</time>
</trkpt>
<trkpt lat="62.754688" lon="22.861115">
<time>2021-06-11T09:43:48Z</time>
</trkpt>
<trkpt lat="62.75466" lon="22.861066">
<time>2021-06-11T09:43:49Z</time>
</trkpt>
<trkpt lat="62.754633" lon="22.861023">
<time>2021-06-11T09:43:50Z</time>
</trkpt>
<trkpt lat="62.754611" lon="22.860976">
<time>2021-06-11T09:43:51Z</time>
</trkpt>
<trkpt lat="62.754588" lon="22.860928">
<time>2021-06-11T09:43:52Z</time>
</trkpt>
<trkpt lat="62.75457" lon="22.860866">
<time>2021-06-11T09:43:53Z</time>
</trkpt>
<trkpt lat="62.754555" lon="22.860801">
<time>2021-06-11T09:43:54Z</time>
</trkpt>
<trkpt lat="62.75454" lon="22.860733">
<time>2021-06-11T09:43:55Z</time>
</trkpt>
<trkpt lat="62.754521" lon="22.860653">
<time>2021-06-11T09:43:56Z</time>
</trkpt>
<trkpt lat="62.754495" lon="22.860561">
<time>2021-06-11T09:43:57Z</time>
</trkpt>
<trkpt lat="62.75447" lon="22.860475">
<time>2021-06-11T09:43:58Z</time>
</trkpt>
<trkpt lat="62.754451" lon="22.8604">
<time>2021-06-11T09:43:59Z</time>
</trkpt>
<trkpt lat="62.754438" lon="22.860328">
<time>2021-06-11T09:44:00Z</time>
</trkpt>
<trkpt lat="62.754426" lon="22.860255">
<time>2021-06-11T09:44:01Z</time>
</trkpt>
<trkpt lat="62.754418" lon="22.86019">
<time>2021-06-11T09:44:02Z</time>
</trkpt>
<trkpt lat="62.754413" lon="22.860133">
<time>2021-06-11T09:44:03Z</time>
</trkpt>
<trkpt lat="62.75441" lon="22.860081">
<time>2021-06-11T09:44:04Z</time>
</trkpt>
<trkpt lat="62.754411" lon="22.860031">
<time>2021-06-11T09:44:05Z</time>
</trkpt>
<trkpt lat="62.754413" lon="22.859973">
<time>2021-06-11T09:44:06Z</time>
</trkpt>
<trkpt lat="62.754421" lon="22.859908">
<time>2021-06-11T09:44:07Z</time>
</trkpt>
<trkpt lat="62.754428" lon="22.859838">
<time>2021-06-11T09:44:08Z</time>
</trkpt>
<trkpt lat="62.754428" lon="22.85977">
<time>2021-06-11T09:44:09Z</time>
</trkpt>
<trkpt lat="62.754421" lon="22.859706">
<time>2021-06-11T09:44:10Z</time>
</trkpt>
<trkpt lat="62.754411" lon="22.85965">
<time>2021-06-11T09:44:11Z</time>
</trkpt>
<trkpt lat="62.754403" lon="22.859601">
<time>2021-06-11T09:44:12Z</time>
</trkpt>
<trkpt lat="62.754396" lon="22.859565">
<time>2021-06-11T09:44:13Z</time>
</trkpt>
<trkpt lat="62.754393" lon="22.859523">
<time>2021-06-11T09:44:14Z</time>
</trkpt>
<trkpt lat="62.754393" lon="22.85947">
<time>2021-06-11T09:44:15Z</time>
</trkpt>
<trkpt lat="62.754388" lon="22.85941">
<time>2021-06-11T09:44:16Z</time>
</trkpt>
<trkpt lat="62.754378" lon="22.859353">
<time>2021-06-11T09:44:17Z</time>
</trkpt>
<trkpt lat="62.754363" lon="22.859293">
<time>2021-06-11T09:44:18Z</time>
</trkpt>
<trkpt lat="62.754353" lon="22.85923">
<time>2021-06-11T09:44:19Z</time>
</trkpt>
<trkpt lat="62.754351" lon="22.859173">
<time>2021-06-11T09:44:20Z</time>
</trkpt>
<trkpt lat="62.754351" lon="22.85911">
<time>2021-06-11T09:44:21Z</time>
</trkpt>
<trkpt lat="62.754346" lon="22.859041">
<time>2021-06-11T09:44:22Z</time>
</trkpt>
<trkpt lat="62.754338" lon="22.858981">
<time>2021-06-11T09:44:23Z</time>
</trkpt>
<trkpt lat="62.75433" lon="22.858943">
<time>2021-06-11T09:44:24Z</time>
</trkpt>
<trkpt lat="62.75432" lon="22.858921">
<time>2021-06-11T09:44:25Z</time>
</trkpt>
<trkpt lat="62.754301" lon="22.858913">
<time>2021-06-11T09:44:26Z</time>
</trkpt>
<trkpt lat="62.754286" lon="22.858886">
<time>2021-06-11T09:44:27Z</time>
</trkpt>
<trkpt lat="62.754268" lon="22.858875">
<time>2021-06-11T09:44:28Z</time>
</trkpt>
<trkpt lat="62.75425" lon="22.858861">
<time>2021-06-11T09:44:29Z</time>
</trkpt>
<trkpt lat="62.754226" lon="22.858845">
<time>2021-06-11T09:44:30Z</time>
</trkpt>
<trkpt lat="62.754201" lon="22.858816">
<time>2021-06-11T09:44:31Z</time>
</trkpt>
<trkpt lat="62.754173" lon="22.858795">
<time>2021-06-11T09:44:32Z</time>
</trkpt>
<trkpt lat="62.754148" lon="22.858773">
<time>2021-06-11T09:44:33Z</time>
</trkpt>
<trkpt lat="62.754133" lon="22.858756">
<time>2021-06-11T09:44:34Z</time>
</trkpt>
<trkpt lat="62.754123" lon="22.858735">
<time>2021-06-11T09:44:35Z</time>
</trkpt>
<trkpt lat="62.75412" lon="22.858706">
<time>2021-06-11T09:44:36Z</time>
</trkpt>
<trkpt lat="62.754116" lon="22.85868">
<time>2021-06-11T09:44:37Z</time>
</trkpt>
<trkpt lat="62.754113" lon="22.858653">
<time>2021-06-11T09:44:38Z</time>
</trkpt>
<trkpt lat="62.75411" lon="22.85862">
<time>2021-06-11T09:44:39Z</time>
</trkpt>
<trkpt lat="62.754111" lon="22.858578">
<time>2021-06-11T09:44:40Z</time>
</trkpt>
<trkpt lat="62.75411" lon="22.858528">
<time>2021-06-11T09:44:41Z</time>
</trkpt>
<trkpt lat="62.754108" lon="22.85848">
<time>2021-06-11T09:44:42Z</time>
</trkpt>
<trkpt lat="62.75411" lon="22.858433">
<time>2021-06-11T09:44:43Z</time>
</trkpt>
<trkpt lat="62.754113" lon="22.858381">
<time>2021-06-11T09:44:44Z</time>
</trkpt>
<trkpt lat="62.754113" lon="22.858313">
<time>2021-06-11T09:44:45Z</time>
</trkpt>
<trkpt lat="62.754115" lon="22.858258">
<time>2021-06-11T09:44:46Z</time>
</trkpt>
<trkpt lat="62.754113" lon="22.858228">
<time>2021-06-11T09:44:47Z</time>
</trkpt>
<trkpt lat="62.754113" lon="22.8582">
<time>2021-06-11T09:44:48Z</time>
</trkpt>
<trkpt lat="62.75411" lon="22.858161">
<time>2021-06-11T09:44:49Z</time>
</trkpt>
<trkpt lat="62.7541" lon="22.858138">
<time>2021-06-11T09:44:50Z</time>
</trkpt>
<trkpt lat="62.754098" lon="22.85812">
<time>2021-06-11T09:44:51Z</time>
</trkpt>
<trkpt lat="62.754085" lon="22.858105">
<time>2021-06-11T09:44:52Z</time>
</trkpt>
<trkpt lat="62.754068" lon="22.858093">
<time>2021-06-11T09:44:53Z</time>
</trkpt>
<trkpt lat="62.754046" lon="22.858096">
<time>2021-06-11T09:44:54Z</time>
</trkpt>
<trkpt lat="62.754025" lon="22.858103">
<time>2021-06-11T09:44:55Z</time>
</trkpt>
<trkpt lat="62.754005" lon="22.85812">
<time>2021-06-11T09:44:56Z</time>
</trkpt>
<trkpt lat="62.753976" lon="22.858141">
<time>2021-06-11T09:44:57Z</time>
</trkpt>
<trkpt lat="62.753943" lon="22.858165">
<time>2021-06-11T09:44:58Z</time>
</trkpt>
<trkpt lat="62.753908" lon="22.858186">
<time>2021-06-11T09:44:59Z</time>
</trkpt>
<trkpt lat="62.753868" lon="22.858205">
<time>2021-06-11T09:45:00Z</time>
</trkpt>
<trkpt lat="62.753833" lon="22.858213">
<time>2021-06-11T09:45:01Z</time>
</trkpt>
<trkpt lat="62.753788" lon="22.858216">
<time>2021-06-11T09:45:02Z</time>
</trkpt>
<trkpt lat="62.753733" lon="22.858215">
<time>2021-06-11T09:45:03Z</time>
</trkpt>
<trkpt lat="62.753698" lon="22.858195">
<time>2021-06-11T09:45:04Z</time>
</trkpt>
<trkpt lat="62.753665" lon="22.858151">
<time>2021-06-11T09:45:05Z</time>
</trkpt>
<trkpt lat="62.753653" lon="22.858088">
<time>2021-06-11T09:45:06Z</time>
</trkpt>
<trkpt lat="62.753663" lon="22.858021">
<time>2021-06-11T09:45:07Z</time>
</trkpt>
<trkpt lat="62.753678" lon="22.85796">
<time>2021-06-11T09:45:08Z</time>
</trkpt>
<trkpt lat="62.753703" lon="22.857866">
<time>2021-06-11T09:45:09Z</time>
</trkpt>
<trkpt lat="62.753723" lon="22.857775">
<time>2021-06-11T09:45:10Z</time>
</trkpt>
<trkpt lat="62.753746" lon="22.857673">
<time>2021-06-11T09:45:11Z</time>
</trkpt>
<trkpt lat="62.753768" lon="22.857595">
<time>2021-06-11T09:45:12Z</time>
</trkpt>
<trkpt lat="62.753788" lon="22.85753">
<time>2021-06-11T09:45:13Z</time>
</trkpt>
<trkpt lat="62.753813" lon="22.85745">
<time>2021-06-11T09:45:14Z</time>
</trkpt>
<trkpt lat="62.75384" lon="22.857355">
<time>2021-06-11T09:45:15Z</time>
</trkpt>
<trkpt lat="62.75386" lon="22.857281">
<time>2021-06-11T09:45:16Z</time>
</trkpt>
<trkpt lat="62.753873" lon="22.85721">
<time>2021-06-11T09:45:17Z</time>
</trkpt>
<trkpt lat="62.753873" lon="22.857151">
<time>2021-06-11T09:45:18Z</time>
</trkpt>
<trkpt lat="62.753868" lon="22.857088">
<time>2021-06-11T09:45:19Z</time>
</trkpt>
<trkpt lat="62.753851" lon="22.857015">
<time>2021-06-11T09:45:20Z</time>
</trkpt>
<trkpt lat="62.75383" lon="22.856961">
<time>2021-06-11T09:45:21Z</time>
</trkpt>
<trkpt lat="62.753811" lon="22.85692">
<time>2021-06-11T09:45:22Z</time>
</trkpt>
<trkpt lat="62.753783" lon="22.856876">
<time>2021-06-11T09:45:23Z</time>
</trkpt>
<trkpt lat="62.753748" lon="22.856853">
<time>2021-06-11T09:45:24Z</time>
</trkpt>
<trkpt lat="62.753716" lon="22.856863">
<time>2021-06-11T09:45:25Z</time>
</trkpt>
<trkpt lat="62.753685" lon="22.856865">
<time>2021-06-11T09:45:26Z</time>
</trkpt>
<trkpt lat="62.753661" lon="22.856868">
<time>2021-06-11T09:45:27Z</time>
</trkpt>
<trkpt lat="62.753636" lon="22.856863">
<time>2021-06-11T09:45:28Z</time>
</trkpt>
<trkpt lat="62.753611" lon="22.856848">
<time>2021-06-11T09:45:29Z</time>
</trkpt>
<trkpt lat="62.753591" lon="22.85683">
<time>2021-06-11T09:45:30Z</time>
</trkpt>
<trkpt lat="62.753571" lon="22.856795">
<time>2021-06-11T09:45:31Z</time>
</trkpt>
<trkpt lat="62.753555" lon="22.856765">
<time>2021-06-11T09:45:32Z</time>
</trkpt>
<trkpt lat="62.753535" lon="22.856728">
<time>2021-06-11T09:45:33Z</time>
</trkpt>
<trkpt lat="62.753515" lon="22.85668">
<time>2021-06-11T09:45:34Z</time>
</trkpt>
<trkpt lat="62.753501" lon="22.856631">
<time>2021-06-11T09:45:35Z</time>
</trkpt>
<trkpt lat="62.753498" lon="22.856586">
<time>2021-06-11T09:45:36Z</time>
</trkpt>
<trkpt lat="62.753491" lon="22.85653">
<time>2021-06-11T09:45:37Z</time>
</trkpt>
<trkpt lat="62.753478" lon="22.856455">
<time>2021-06-11T09:45:38Z</time>
</trkpt>
<trkpt lat="62.753463" lon="22.856401">
<time>2021-06-11T09:45:39Z</time>
</trkpt>
<trkpt lat="62.753453" lon="22.85636">
<time>2021-06-11T09:45:40Z</time>
</trkpt>
<trkpt lat="62.753445" lon="22.856311">
<time>2021-06-11T09:45:41Z</time>
</trkpt>
<trkpt lat="62.753438" lon="22.856263">
<time>2021-06-11T09:45:42Z</time>
</trkpt>
<trkpt lat="62.753426" lon="22.856216">
<time>2021-06-11T09:45:43Z</time>
</trkpt>
<trkpt lat="62.753413" lon="22.856158">
<time>2021-06-11T09:45:44Z</time>
</trkpt>
<trkpt lat="62.753406" lon="22.856118">
<time>2021-06-11T09:45:45Z</time>
</trkpt>
<trkpt lat="62.753403" lon="22.856066">
<time>2021-06-11T09:45:46Z</time>
</trkpt>
<trkpt lat="62.753401" lon="22.856015">
<time>2021-06-11T09:45:47Z</time>
</trkpt>
<trkpt lat="62.753395" lon="22.855938">
<time>2021-06-11T09:45:48Z</time>
</trkpt>
<trkpt lat="62.75339" lon="22.855863">
<time>2021-06-11T09:45:49Z</time>
</trkpt>
<trkpt lat="62.753383" lon="22.855795">
<time>2021-06-11T09:45:50Z</time>
</trkpt>
<trkpt lat="62.753378" lon="22.855685">
<time>2021-06-11T09:45:51Z</time>
</trkpt>
<trkpt lat="62.753375" lon="22.855606">
<time>2021-06-11T09:45:52Z</time>
</trkpt>
<trkpt lat="62.753368" lon="22.855483">
<time>2021-06-11T09:45:53Z</time>
</trkpt>
<trkpt lat="62.753361" lon="22.855398">
<time>2021-06-11T09:45:54Z</time>
</trkpt>
<trkpt lat="62.753351" lon="22.855295">
<time>2021-06-11T09:45:55Z</time>
</trkpt>
<trkpt lat="62.753338" lon="22.855168">
<time>2021-06-11T09:45:56Z</time>
</trkpt>
<trkpt lat="62.75333" lon="22.855058">
<time>2021-06-11T09:45:57Z</time>
</trkpt>
<trkpt lat="62.753321" lon="22.854968">
<time>2021-06-11T09:45:58Z</time>
</trkpt>
<trkpt lat="62.753316" lon="22.85485">
<time>2021-06-11T09:45:59Z</time>
</trkpt>
<trkpt lat="62.753311" lon="22.854735">
<time>2021-06-11T09:46:00Z</time>
</trkpt>
<trkpt lat="62.753308" lon="22.854631">
<time>2021-06-11T09:46:01Z</time>
</trkpt>
<trkpt lat="62.753311" lon="22.85454">
<time>2021-06-11T09:46:02Z</time>
</trkpt>
<trkpt lat="62.753318" lon="22.854505">
<time>2021-06-11T09:46:03Z</time>
</trkpt>
<trkpt lat="62.753325" lon="22.854483">
<time>2021-06-11T09:46:04Z</time>
</trkpt>
<trkpt lat="62.753331" lon="22.854463">
<time>2021-06-11T09:46:05Z</time>
</trkpt>
<trkpt lat="62.753336" lon="22.854456">
<time>2021-06-11T09:46:06Z</time>
</trkpt>
<trkpt lat="62.753346" lon="22.854446">
<time>2021-06-11T09:46:07Z</time>
</trkpt>
<trkpt lat="62.753358" lon="22.854426">
<time>2021-06-11T09:46:08Z</time>
</trkpt>
<trkpt lat="62.753363" lon="22.854395">
<time>2021-06-11T09:46:09Z</time>
</trkpt>
<trkpt lat="62.753358" lon="22.854345">
<time>2021-06-11T09:46:10Z</time>
</trkpt>
<trkpt lat="62.753346" lon="22.854308">
<time>2021-06-11T09:46:11Z</time>
</trkpt>
<trkpt lat="62.753328" lon="22.854258">
<time>2021-06-11T09:46:12Z</time>
</trkpt>
<trkpt lat="62.753296" lon="22.854211">
<time>2021-06-11T09:46:13Z</time>
</trkpt>
<trkpt lat="62.753258" lon="22.854161">
<time>2021-06-11T09:46:14Z</time>
</trkpt>
<trkpt lat="62.753206" lon="22.854095">
<time>2021-06-11T09:46:15Z</time>
</trkpt>
<trkpt lat="62.753155" lon="22.85403">
<time>2021-06-11T09:46:16Z</time>
</trkpt>
<trkpt lat="62.753108" lon="22.853958">
<time>2021-06-11T09:46:17Z</time>
</trkpt>
<trkpt lat="62.753075" lon="22.853896">
<time>2021-06-11T09:46:18Z</time>
</trkpt>
<trkpt lat="62.753036" lon="22.853805">
<time>2021-06-11T09:46:19Z</time>
</trkpt>
<trkpt lat="62.753008" lon="22.853696">
<time>2021-06-11T09:46:20Z</time>
</trkpt>
<trkpt lat="62.75298" lon="22.853553">
<time>2021-06-11T09:46:21Z</time>
</trkpt>
<trkpt lat="62.752965" lon="22.853448">
<time>2021-06-11T09:46:22Z</time>
</trkpt>
<trkpt lat="62.752948" lon="22.853318">
<time>2021-06-11T09:46:23Z</time>
</trkpt>
<trkpt lat="62.752926" lon="22.853163">
<time>2021-06-11T09:46:24Z</time>
</trkpt>
<trkpt lat="62.752905" lon="22.853035">
<time>2021-06-11T09:46:25Z</time>
</trkpt>
<trkpt lat="62.752876" lon="22.852918">
<time>2021-06-11T09:46:26Z</time>
</trkpt>
<trkpt lat="62.752851" lon="22.85283">
<time>2021-06-11T09:46:27Z</time>
</trkpt>
<trkpt lat="62.752815" lon="22.852733">
<time>2021-06-11T09:46:28Z</time>
</trkpt>
<trkpt lat="62.752775" lon="22.852641">
<time>2021-06-11T09:46:29Z</time>
</trkpt>
<trkpt lat="62.752726" lon="22.852546">
<time>2021-06-11T09:46:30Z</time>
</trkpt>
<trkpt lat="62.7527" lon="22.852485">
<time>2021-06-11T09:46:31Z</time>
</trkpt>
<trkpt lat="62.752671" lon="22.852411">
<time>2021-06-11T09:46:32Z</time>
</trkpt>
<trkpt lat="62.752638" lon="22.852331">
<time>2021-06-11T09:46:33Z</time>
</trkpt>
<trkpt lat="62.75262" lon="22.852288">
<time>2021-06-11T09:46:34Z</time>
</trkpt>
<trkpt lat="62.752601" lon="22.852245">
<time>2021-06-11T09:46:35Z</time>
</trkpt>
<trkpt lat="62.752586" lon="22.852201">
<time>2021-06-11T09:46:36Z</time>
</trkpt>
<trkpt lat="62.752571" lon="22.852168">
<time>2021-06-11T09:46:37Z</time>
</trkpt>
<trkpt lat="62.752553" lon="22.85214">
<time>2021-06-11T09:46:38Z</time>
</trkpt>
<trkpt lat="62.752548" lon="22.852136">
<time>2021-06-11T09:46:39Z</time>
</trkpt>
<trkpt lat="62.752551" lon="22.85217">
<time>2021-06-11T09:46:40Z</time>
</trkpt>
<trkpt lat="62.75257" lon="22.85221">
<time>2021-06-11T09:46:41Z</time>
</trkpt>
<trkpt lat="62.752605" lon="22.852268">
<time>2021-06-11T09:46:42Z</time>
</trkpt>
<trkpt lat="62.75264" lon="22.852333">
<time>2021-06-11T09:46:43Z</time>
</trkpt>
<trkpt lat="62.752681" lon="22.852408">
<time>2021-06-11T09:46:44Z</time>
</trkpt>
<trkpt lat="62.752716" lon="22.852471">
<time>2021-06-11T09:46:45Z</time>
</trkpt>
<trkpt lat="62.752756" lon="22.852553">
<time>2021-06-11T09:46:46Z</time>
</trkpt>
<trkpt lat="62.752808" lon="22.85266">
<time>2021-06-11T09:46:47Z</time>
</trkpt>
<trkpt lat="62.752855" lon="22.852758">
<time>2021-06-11T09:46:48Z</time>
</trkpt>
<trkpt lat="62.752896" lon="22.852836">
<time>2021-06-11T09:46:49Z</time>
</trkpt>
<trkpt lat="62.752956" lon="22.852915">
<time>2021-06-11T09:46:50Z</time>
</trkpt>
<trkpt lat="62.753036" lon="22.852975">
<time>2021-06-11T09:46:51Z</time>
</trkpt>
<trkpt lat="62.753093" lon="22.852985">
<time>2021-06-11T09:46:52Z</time>
</trkpt>
<trkpt lat="62.75316" lon="22.852973">
<time>2021-06-11T09:46:53Z</time>
</trkpt>
<trkpt lat="62.753226" lon="22.852938">
<time>2021-06-11T09:46:54Z</time>
</trkpt>
<trkpt lat="62.75329" lon="22.852886">
<time>2021-06-11T09:46:55Z</time>
</trkpt>
<trkpt lat="62.753345" lon="22.852818">
<time>2021-06-11T09:46:56Z</time>
</trkpt>
<trkpt lat="62.753396" lon="22.852725">
<time>2021-06-11T09:46:57Z</time>
</trkpt>
<trkpt lat="62.75343" lon="22.852611">
<time>2021-06-11T09:46:58Z</time>
</trkpt>
<trkpt lat="62.753466" lon="22.852496">
<time>2021-06-11T09:46:59Z</time>
</trkpt>
<trkpt lat="62.753496" lon="22.852393">
<time>2021-06-11T09:47:00Z</time>
</trkpt>
<trkpt lat="62.753536" lon="22.852306">
<time>2021-06-11T09:47:01Z</time>
</trkpt>
<trkpt lat="62.753581" lon="22.852256">
<time>2021-06-11T09:47:02Z</time>
</trkpt>
<trkpt lat="62.753645" lon="22.852248">
<time>2021-06-11T09:47:03Z</time>
</trkpt>
<trkpt lat="62.753685" lon="22.852286">
<time>2021-06-11T09:47:04Z</time>
</trkpt>
<trkpt lat="62.753726" lon="22.852355">
<time>2021-06-11T09:47:05Z</time>
</trkpt>
<trkpt lat="62.753766" lon="22.852423">
<time>2021-06-11T09:47:06Z</time>
</trkpt>
<trkpt lat="62.753801" lon="22.852478">
<time>2021-06-11T09:47:07Z</time>
</trkpt>
<trkpt lat="62.753836" lon="22.85251">
<time>2021-06-11T09:47:08Z</time>
</trkpt>
<trkpt lat="62.75388" lon="22.852518">
<time>2021-06-11T09:47:09Z</time>
</trkpt>
<trkpt lat="62.753926" lon="22.852498">
<time>2021-06-11T09:47:10Z</time>
</trkpt>
<trkpt lat="62.75398" lon="22.852453">
<time>2021-06-11T09:47:11Z</time>
</trkpt>
<trkpt lat="62.75404" lon="22.852396">
<time>2021-06-11T09:47:12Z</time>
</trkpt>
<trkpt lat="62.7541" lon="22.85232">
<time>2021-06-11T09:47:13Z</time>
</trkpt>
<trkpt lat="62.754166" lon="22.852241">
<time>2021-06-11T09:47:14Z</time>
</trkpt>
<trkpt lat="62.75424" lon="22.852171">
<time>2021-06-11T09:47:15Z</time>
</trkpt>
<trkpt lat="62.754308" lon="22.852113">
<time>2021-06-11T09:47:16Z</time>
</trkpt>
<trkpt lat="62.754378" lon="22.852066">
<time>2021-06-11T09:47:17Z</time>
</trkpt>
<trkpt lat="62.754458" lon="22.852048">
<time>2021-06-11T09:47:18Z</time>
</trkpt>
<trkpt lat="62.75454" lon="22.852053">
<time>2021-06-11T09:47:19Z</time>
</trkpt>
<trkpt lat="62.754625" lon="22.852073">
<time>2021-06-11T09:47:20Z</time>
</trkpt>
<trkpt lat="62.754715" lon="22.852106">
<time>2021-06-11T09:47:21Z</time>
</trkpt>
<trkpt lat="62.754806" lon="22.85216">
<time>2021-06-11T09:47:22Z</time>
</trkpt>
<trkpt lat="62.754901" lon="22.852206">
<time>2021-06-11T09:47:23Z</time>
</trkpt>
<trkpt lat="62.75499" lon="22.852246">
<time>2021-06-11T09:47:24Z</time>
</trkpt>
<trkpt lat="62.75508" lon="22.852295">
<time>2021-06-11T09:47:25Z</time>
</trkpt>
<trkpt lat="62.755186" lon="22.852358">
<time>2021-06-11T09:47:26Z</time>
</trkpt>
<trkpt lat="62.755278" lon="22.852405">
<time>2021-06-11T09:47:27Z</time>
</trkpt>
<trkpt lat="62.75534" lon="22.852431">
<time>2021-06-11T09:47:28Z</time>
</trkpt>
<trkpt lat="62.7554" lon="22.85247">
<time>2021-06-11T09:47:29Z</time>
</trkpt>
<trkpt lat="62.75545" lon="22.852535">
<time>2021-06-11T09:47:30Z</time>
</trkpt>
<trkpt lat="62.755463" lon="22.852595">
<time>2021-06-11T09:47:31Z</time>
</trkpt>
<trkpt lat="62.755465" lon="22.85268">
<time>2021-06-11T09:47:32Z</time>
</trkpt>
<trkpt lat="62.75546" lon="22.852781">
<time>2021-06-11T09:47:33Z</time>
</trkpt>
<trkpt lat="62.755451" lon="22.85287">
<time>2021-06-11T09:47:34Z</time>
</trkpt>
<trkpt lat="62.75544" lon="22.852978">
<time>2021-06-11T09:47:35Z</time>
</trkpt>
<trkpt lat="62.755423" lon="22.853085">
<time>2021-06-11T09:47:36Z</time>
</trkpt>
<trkpt lat="62.755406" lon="22.853191">
<time>2021-06-11T09:47:37Z</time>
</trkpt>
<trkpt lat="62.755395" lon="22.853285">
<time>2021-06-11T09:47:38Z</time>
</trkpt>
<trkpt lat="62.755385" lon="22.853351">
<time>2021-06-11T09:47:39Z</time>
</trkpt>
<trkpt lat="62.755383" lon="22.853381">
<time>2021-06-11T09:47:40Z</time>
</trkpt>
<trkpt lat="62.755388" lon="22.853376">
<time>2021-06-11T09:47:41Z</time>
</trkpt>
<trkpt lat="62.755393" lon="22.853351">
<time>2021-06-11T09:47:42Z</time>
</trkpt>
<trkpt lat="62.755388" lon="22.853275">
<time>2021-06-11T09:47:43Z</time>
</trkpt>
<trkpt lat="62.7554" lon="22.853195">
<time>2021-06-11T09:47:44Z</time>
</trkpt>
<trkpt lat="62.755411" lon="22.853095">
<time>2021-06-11T09:47:45Z</time>
</trkpt>
<trkpt lat="62.755425" lon="22.852988">
<time>2021-06-11T09:47:46Z</time>
</trkpt>
<trkpt lat="62.755435" lon="22.852873">
<time>2021-06-11T09:47:47Z</time>
</trkpt>
<trkpt lat="62.755445" lon="22.852746">
<time>2021-06-11T09:47:48Z</time>
</trkpt>
<trkpt lat="62.755458" lon="22.852615">
<time>2021-06-11T09:47:49Z</time>
</trkpt>
<trkpt lat="62.755473" lon="22.852473">
<time>2021-06-11T09:47:50Z</time>
</trkpt>
<trkpt lat="62.755488" lon="22.852328">
<time>2021-06-11T09:47:51Z</time>
</trkpt>
<trkpt lat="62.755508" lon="22.852181">
<time>2021-06-11T09:47:52Z</time>
</trkpt>
<trkpt lat="62.75553" lon="22.852033">
<time>2021-06-11T09:47:53Z</time>
</trkpt>
<trkpt lat="62.75555" lon="22.851881">
<time>2021-06-11T09:47:54Z</time>
</trkpt>
<trkpt lat="62.75557" lon="22.851725">
<time>2021-06-11T09:47:55Z</time>
</trkpt>
<trkpt lat="62.755588" lon="22.85157">
<time>2021-06-11T09:47:56Z</time>
</trkpt>
<trkpt lat="62.755606" lon="22.851416">
<time>2021-06-11T09:47:57Z</time>
</trkpt>
<trkpt lat="62.755626" lon="22.851265">
<time>2021-06-11T09:47:58Z</time>
</trkpt>
<trkpt lat="62.755645" lon="22.851115">
<time>2021-06-11T09:47:59Z</time>
</trkpt>
<trkpt lat="62.755661" lon="22.850965">
<time>2021-06-11T09:48:00Z</time>
</trkpt>
<trkpt lat="62.755675" lon="22.85082">
<time>2021-06-11T09:48:01Z</time>
</trkpt>
<trkpt lat="62.755681" lon="22.850678">
<time>2021-06-11T09:48:02Z</time>
</trkpt>
<trkpt lat="62.75568" lon="22.85054">
<time>2021-06-11T09:48:03Z</time>
</trkpt>
<trkpt lat="62.75567" lon="22.850408">
<time>2021-06-11T09:48:04Z</time>
</trkpt>
<trkpt lat="62.755655" lon="22.85028">
<time>2021-06-11T09:48:05Z</time>
</trkpt>
<trkpt lat="62.755645" lon="22.850151">
<time>2021-06-11T09:48:06Z</time>
</trkpt>
<trkpt lat="62.755645" lon="22.850025">
<time>2021-06-11T09:48:07Z</time>
</trkpt>
<trkpt lat="62.755658" lon="22.849903">
<time>2021-06-11T09:48:08Z</time>
</trkpt>
<trkpt lat="62.755681" lon="22.84979">
<time>2021-06-11T09:48:09Z</time>
</trkpt>
<trkpt lat="62.755711" lon="22.849686">
<time>2021-06-11T09:48:10Z</time>
</trkpt>
<trkpt lat="62.755748" lon="22.849591">
<time>2021-06-11T09:48:11Z</time>
</trkpt>
<trkpt lat="62.755778" lon="22.8495">
<time>2021-06-11T09:48:12Z</time>
</trkpt>
<trkpt lat="62.755793" lon="22.84942">
<time>2021-06-11T09:48:13Z</time>
</trkpt>
<trkpt lat="62.7558" lon="22.849363">
<time>2021-06-11T09:48:14Z</time>
</trkpt>
<trkpt lat="62.7558" lon="22.849326">
<time>2021-06-11T09:48:15Z</time>
</trkpt>
<trkpt lat="62.755793" lon="22.849291">
<time>2021-06-11T09:48:16Z</time>
</trkpt>
<trkpt lat="62.755793" lon="22.849256">
<time>2021-06-11T09:48:17Z</time>
</trkpt>
<trkpt lat="62.755801" lon="22.849225">
<time>2021-06-11T09:48:18Z</time>
</trkpt>
<trkpt lat="62.75582" lon="22.849188">
<time>2021-06-11T09:48:19Z</time>
</trkpt>
<trkpt lat="62.755846" lon="22.849143">
<time>2021-06-11T09:48:20Z</time>
</trkpt>
<trkpt lat="62.755868" lon="22.849083">
<time>2021-06-11T09:48:21Z</time>
</trkpt>
<trkpt lat="62.75588" lon="22.849011">
<time>2021-06-11T09:48:22Z</time>
</trkpt>
<trkpt lat="62.755878" lon="22.848933">
<time>2021-06-11T09:48:23Z</time>
</trkpt>
<trkpt lat="62.755851" lon="22.848858">
<time>2021-06-11T09:48:24Z</time>
</trkpt>
<trkpt lat="62.75582" lon="22.848775">
<time>2021-06-11T09:48:25Z</time>
</trkpt>
<trkpt lat="62.75579" lon="22.848691">
<time>2021-06-11T09:48:26Z</time>
</trkpt>
<trkpt lat="62.755773" lon="22.848595">
<time>2021-06-11T09:48:27Z</time>
</trkpt>
<trkpt lat="62.755778" lon="22.848516">
<time>2021-06-11T09:48:28Z</time>
</trkpt>
<trkpt lat="62.755788" lon="22.848443">
<time>2021-06-11T09:48:29Z</time>
</trkpt>
<trkpt lat="62.755796" lon="22.848365">
<time>2021-06-11T09:48:30Z</time>
</trkpt>
<trkpt lat="62.755798" lon="22.84828">
<time>2021-06-11T09:48:31Z</time>
</trkpt>
<trkpt lat="62.755801" lon="22.848185">
<time>2021-06-11T09:48:32Z</time>
</trkpt>
<trkpt lat="62.75581" lon="22.848081">
<time>2021-06-11T09:48:33Z</time>
</trkpt>
<trkpt lat="62.755825" lon="22.847973">
<time>2021-06-11T09:48:34Z</time>
</trkpt>
<trkpt lat="62.755841" lon="22.847856">
<time>2021-06-11T09:48:35Z</time>
</trkpt>
<trkpt lat="62.755861" lon="22.84774">
<time>2021-06-11T09:48:36Z</time>
</trkpt>
<trkpt lat="62.755881" lon="22.847618">
<time>2021-06-11T09:48:37Z</time>
</trkpt>
<trkpt lat="62.755901" lon="22.847493">
<time>2021-06-11T09:48:38Z</time>
</trkpt>
<trkpt lat="62.755913" lon="22.847358">
<time>2021-06-11T09:48:39Z</time>
</trkpt>
<trkpt lat="62.755908" lon="22.847223">
<time>2021-06-11T09:48:40Z</time>
</trkpt>
<trkpt lat="62.755901" lon="22.84709">
<time>2021-06-11T09:48:41Z</time>
</trkpt>
<trkpt lat="62.755891" lon="22.846958">
<time>2021-06-11T09:48:42Z</time>
</trkpt>
<trkpt lat="62.75588" lon="22.846836">
<time>2021-06-11T09:48:43Z</time>
</trkpt>
<trkpt lat="62.75588" lon="22.84673">
<time>2021-06-11T09:48:44Z</time>
</trkpt>
<trkpt lat="62.755896" lon="22.846635">
<time>2021-06-11T09:48:45Z</time>
</trkpt>
<trkpt lat="62.755921" lon="22.846565">
<time>2021-06-11T09:48:46Z</time>
</trkpt>
<trkpt lat="62.755951" lon="22.846508">
<time>2021-06-11T09:48:47Z</time>
</trkpt>
<trkpt lat="62.75599" lon="22.846448">
<time>2021-06-11T09:48:48Z</time>
</trkpt>
<trkpt lat="62.756028" lon="22.846391">
<time>2021-06-11T09:48:49Z</time>
</trkpt>
<trkpt lat="62.756073" lon="22.846338">
<time>2021-06-11T09:48:50Z</time>
</trkpt>
<trkpt lat="62.75612" lon="22.846281">
<time>2021-06-11T09:48:51Z</time>
</trkpt>
<trkpt lat="62.756161" lon="22.846206">
<time>2021-06-11T09:48:52Z</time>
</trkpt>
<trkpt lat="62.756205" lon="22.846126">
<time>2021-06-11T09:48:53Z</time>
</trkpt>
<trkpt lat="62.756248" lon="22.846036">
<time>2021-06-11T09:48:54Z</time>
</trkpt>
<trkpt lat="62.756291" lon="22.845938">
<time>2021-06-11T09:48:55Z</time>
</trkpt>
<trkpt lat="62.756333" lon="22.845828">
<time>2021-06-11T09:48:56Z</time>
</trkpt>
<trkpt lat="62.756368" lon="22.845723">
<time>2021-06-11T09:48:57Z</time>
</trkpt>
<trkpt lat="62.7564" lon="22.84561">
<time>2021-06-11T09:48:58Z</time>
</trkpt>
<trkpt lat="62.756431" lon="22.845498">
<time>2021-06-11T09:48:59Z</time>
</trkpt>
<trkpt lat="62.756461" lon="22.845383">
<time>2021-06-11T09:49:00Z</time>
</trkpt>
<trkpt lat="62.7565" lon="22.845271">
<time>2021-06-11T09:49:01Z</time>
</trkpt>
<trkpt lat="62.756536" lon="22.845163">
<time>2021-06-11T09:49:02Z</time>
</trkpt>
<trkpt lat="62.756566" lon="22.845063">
<time>2021-06-11T09:49:03Z</time>
</trkpt>
<trkpt lat="62.75659" lon="22.844983">
<time>2021-06-11T09:49:04Z</time>
</trkpt>
<trkpt lat="62.7566" lon="22.844901">
<time>2021-06-11T09:49:05Z</time>
</trkpt>
<trkpt lat="62.756601" lon="22.844815">
<time>2021-06-11T09:49:06Z</time>
</trkpt>
<trkpt lat="62.756598" lon="22.844721">
<time>2021-06-11T09:49:07Z</time>
</trkpt>
<trkpt lat="62.756595" lon="22.844621">
<time>2021-06-11T09:49:08Z</time>
</trkpt>
<trkpt lat="62.756595" lon="22.844521">
<time>2021-06-11T09:49:09Z</time>
</trkpt>
<trkpt lat="62.756591" lon="22.844433">
<time>2021-06-11T09:49:10Z</time>
</trkpt>
<trkpt lat="62.756576" lon="22.844356">
<time>2021-06-11T09:49:11Z</time>
</trkpt>
<trkpt lat="62.75655" lon="22.844286">
<time>2021-06-11T09:49:12Z</time>
</trkpt>
<trkpt lat="62.756513" lon="22.84421">
<time>2021-06-11T09:49:13Z</time>
</trkpt>
<trkpt lat="62.756476" lon="22.84412">
<time>2021-06-11T09:49:14Z</time>
</trkpt>
<trkpt lat="62.756436" lon="22.844018">
<time>2021-06-11T09:49:15Z</time>
</trkpt>
<trkpt lat="62.756391" lon="22.843916">
<time>2021-06-11T09:49:16Z</time>
</trkpt>
<trkpt lat="62.756338" lon="22.843818">
<time>2021-06-11T09:49:17Z</time>
</trkpt>
<trkpt lat="62.75628" lon="22.843751">
<time>2021-06-11T09:49:18Z</time>
</trkpt>
<trkpt lat="62.756218" lon="22.843723">
<time>2021-06-11T09:49:19Z</time>
</trkpt>
<trkpt lat="62.756158" lon="22.843731">
<time>2021-06-11T09:49:20Z</time>
</trkpt>
<trkpt lat="62.7561" lon="22.843763">
<time>2021-06-11T09:49:21Z</time>
</trkpt>
<trkpt lat="62.756035" lon="22.843811">
<time>2021-06-11T09:49:22Z</time>
</trkpt>
<trkpt lat="62.755973" lon="22.843868">
<time>2021-06-11T09:49:23Z</time>
</trkpt>
<trkpt lat="62.755911" lon="22.843928">
<time>2021-06-11T09:49:24Z</time>
</trkpt>
<trkpt lat="62.755846" lon="22.844008">
<time>2021-06-11T09:49:25Z</time>
</trkpt>
<trkpt lat="62.75578" lon="22.844091">
<time>2021-06-11T09:49:26Z</time>
</trkpt>
<trkpt lat="62.755713" lon="22.844166">
<time>2021-06-11T09:49:27Z</time>
</trkpt>
<trkpt lat="62.75564" lon="22.844218">
<time>2021-06-11T09:49:28Z</time>
</trkpt>
<trkpt lat="62.755566" lon="22.844261">
<time>2021-06-11T09:49:29Z</time>
</trkpt>
<trkpt lat="62.755495" lon="22.844298">
<time>2021-06-11T09:49:30Z</time>
</trkpt>
<trkpt lat="62.755425" lon="22.84432">
<time>2021-06-11T09:49:31Z</time>
</trkpt>
<trkpt lat="62.755356" lon="22.844325">
<time>2021-06-11T09:49:32Z</time>
</trkpt>
<trkpt lat="62.755291" lon="22.844313">
<time>2021-06-11T09:49:33Z</time>
</trkpt>
<trkpt lat="62.755226" lon="22.844285">
<time>2021-06-11T09:49:34Z</time>
</trkpt>
<trkpt lat="62.755163" lon="22.84424">
<time>2021-06-11T09:49:35Z</time>
</trkpt>
<trkpt lat="62.755108" lon="22.844218">
<time>2021-06-11T09:49:36Z</time>
</trkpt>
<trkpt lat="62.755063" lon="22.844206">
<time>2021-06-11T09:49:37Z</time>
</trkpt>
<trkpt lat="62.755025" lon="22.844191">
<time>2021-06-11T09:49:38Z</time>
</trkpt>
<trkpt lat="62.754996" lon="22.844186">
<time>2021-06-11T09:49:39Z</time>
</trkpt>
<trkpt lat="62.754971" lon="22.844181">
<time>2021-06-11T09:49:40Z</time>
</trkpt>
<trkpt lat="62.75495" lon="22.844188">
<time>2021-06-11T09:49:41Z</time>
</trkpt>
<trkpt lat="62.754936" lon="22.84421">
<time>2021-06-11T09:49:42Z</time>
</trkpt>
<trkpt lat="62.754926" lon="22.844243">
<time>2021-06-11T09:49:43Z</time>
</trkpt>
<trkpt lat="62.754911" lon="22.844278">
<time>2021-06-11T09:49:44Z</time>
</trkpt>
<trkpt lat="62.754896" lon="22.844306">
<time>2021-06-11T09:49:45Z</time>
</trkpt>
<trkpt lat="62.754893" lon="22.84433">
<time>2021-06-11T09:49:46Z</time>
</trkpt>
<trkpt lat="62.754898" lon="22.844345">
<time>2021-06-11T09:49:47Z</time>
</trkpt>
<trkpt lat="62.75491" lon="22.844326">
<time>2021-06-11T09:49:48Z</time>
</trkpt>
<trkpt lat="62.754923" lon="22.84429">
<time>2021-06-11T09:49:49Z</time>
</trkpt>
<trkpt lat="62.754936" lon="22.844243">
<time>2021-06-11T09:49:50Z</time>
</trkpt>
<trkpt lat="62.754953" lon="22.844191">
<time>2021-06-11T09:49:51Z</time>
</trkpt>
<trkpt lat="62.754981" lon="22.844161">
<time>2021-06-11T09:49:52Z</time>
</trkpt>
<trkpt lat="62.755015" lon="22.84415">
<time>2021-06-11T09:49:53Z</time>
</trkpt>
<trkpt lat="62.755051" lon="22.844148">
<time>2021-06-11T09:49:54Z</time>
</trkpt>
<trkpt lat="62.755093" lon="22.844161">
<time>2021-06-11T09:49:55Z</time>
</trkpt>
<trkpt lat="62.75514" lon="22.844173">
<time>2021-06-11T09:49:56Z</time>
</trkpt>
<trkpt lat="62.755191" lon="22.844176">
<time>2021-06-11T09:49:57Z</time>
</trkpt>
<trkpt lat="62.755248" lon="22.844173">
<time>2021-06-11T09:49:58Z</time>
</trkpt>
<trkpt lat="62.755308" lon="22.844163">
<time>2021-06-11T09:49:59Z</time>
</trkpt>
<trkpt lat="62.755368" lon="22.844158">
<time>2021-06-11T09:50:00Z</time>
</trkpt>
<trkpt lat="62.755426" lon="22.844153">
<time>2021-06-11T09:50:01Z</time>
</trkpt>
<trkpt lat="62.755485" lon="22.84415">
<time>2021-06-11T09:50:02Z</time>
</trkpt>
<trkpt lat="62.75555" lon="22.844148">
<time>2021-06-11T09:50:03Z</time>
</trkpt>
<trkpt lat="62.755596" lon="22.844146">
<time>2021-06-11T09:50:04Z</time>
</trkpt>
<trkpt lat="62.755668" lon="22.844135">
<time>2021-06-11T09:50:05Z</time>
</trkpt>
<trkpt lat="62.755718" lon="22.844121">
<time>2021-06-11T09:50:06Z</time>
</trkpt>
<trkpt lat="62.755778" lon="22.844098">
<time>2021-06-11T09:50:07Z</time>
</trkpt>
<trkpt lat="62.755841" lon="22.844065">
<time>2021-06-11T09:50:08Z</time>
</trkpt>
<trkpt lat="62.75592" lon="22.844011">
<time>2021-06-11T09:50:09Z</time>
</trkpt>
<trkpt lat="62.75599" lon="22.843953">
<time>2021-06-11T09:50:10Z</time>
</trkpt>
<trkpt lat="62.756046" lon="22.843905">
<time>2021-06-11T09:50:11Z</time>
</trkpt>
<trkpt lat="62.75612" lon="22.84386">
<time>2021-06-11T09:50:12Z</time>
</trkpt>
<trkpt lat="62.75621" lon="22.843841">
<time>2021-06-11T09:50:13Z</time>
</trkpt>
<trkpt lat="62.756283" lon="22.843858">
<time>2021-06-11T09:50:14Z</time>
</trkpt>
<trkpt lat="62.756333" lon="22.843905">
<time>2021-06-11T09:50:15Z</time>
</trkpt>
<trkpt lat="62.756383" lon="22.843985">
<time>2021-06-11T09:50:16Z</time>
</trkpt>
<trkpt lat="62.75643" lon="22.844098">
<time>2021-06-11T09:50:17Z</time>
</trkpt>
<trkpt lat="62.756471" lon="22.844186">
<time>2021-06-11T09:50:18Z</time>
</trkpt>
<trkpt lat="62.756503" lon="22.844255">
<time>2021-06-11T09:50:19Z</time>
</trkpt>
<trkpt lat="62.75654" lon="22.84433">
<time>2021-06-11T09:50:20Z</time>
</trkpt>
<trkpt lat="62.756571" lon="22.844405">
<time>2021-06-11T09:50:21Z</time>
</trkpt>
<trkpt lat="62.756596" lon="22.844486">
<time>2021-06-11T09:50:22Z</time>
</trkpt>
<trkpt lat="62.75662" lon="22.844581">
<time>2021-06-11T09:50:23Z</time>
</trkpt>
<trkpt lat="62.756628" lon="22.844705">
<time>2021-06-11T09:50:24Z</time>
</trkpt>
<trkpt lat="62.756635" lon="22.844825">
<time>2021-06-11T09:50:25Z</time>
</trkpt>
<trkpt lat="62.756648" lon="22.844933">
<time>2021-06-11T09:50:26Z</time>
</trkpt>
<trkpt lat="62.75667" lon="22.845033">
<time>2021-06-11T09:50:27Z</time>
</trkpt>
<trkpt lat="62.756698" lon="22.845093">
<time>2021-06-11T09:50:28Z</time>
</trkpt>
<trkpt lat="62.756733" lon="22.845126">
<time>2021-06-11T09:50:29Z</time>
</trkpt>
<trkpt lat="62.756771" lon="22.84514">
<time>2021-06-11T09:50:30Z</time>
</trkpt>
<trkpt lat="62.756818" lon="22.84515">
<time>2021-06-11T09:50:31Z</time>
</trkpt>
<trkpt lat="62.756878" lon="22.845106">
<time>2021-06-11T09:50:32Z</time>
</trkpt>
<trkpt lat="62.756926" lon="22.845035">
<time>2021-06-11T09:50:33Z</time>
</trkpt>
<trkpt lat="62.756968" lon="22.844955">
<time>2021-06-11T09:50:34Z</time>
</trkpt>
<trkpt lat="62.757023" lon="22.844855">
<time>2021-06-11T09:50:35Z</time>
</trkpt>
<trkpt lat="62.75709" lon="22.844736">
<time>2021-06-11T09:50:36Z</time>
</trkpt>
<trkpt lat="62.757146" lon="22.844626">
<time>2021-06-11T09:50:37Z</time>
</trkpt>
<trkpt lat="62.757205" lon="22.844518">
<time>2021-06-11T09:50:38Z</time>
</trkpt>
<trkpt lat="62.757253" lon="22.844446">
<time>2021-06-11T09:50:39Z</time>
</trkpt>
<trkpt lat="62.757321" lon="22.844388">
<time>2021-06-11T09:50:40Z</time>
</trkpt>
<trkpt lat="62.757398" lon="22.84437">
<time>2021-06-11T09:50:41Z</time>
</trkpt>
<trkpt lat="62.757473" lon="22.84439">
<time>2021-06-11T09:50:42Z</time>
</trkpt>
<trkpt lat="62.757545" lon="22.84443">
<time>2021-06-11T09:50:43Z</time>
</trkpt>
<trkpt lat="62.75761" lon="22.844486">
<time>2021-06-11T09:50:44Z</time>
</trkpt>
<trkpt lat="62.75766" lon="22.844565">
<time>2021-06-11T09:50:45Z</time>
</trkpt>
<trkpt lat="62.757703" lon="22.844653">
<time>2021-06-11T09:50:46Z</time>
</trkpt>
<trkpt lat="62.757735" lon="22.844721">
<time>2021-06-11T09:50:47Z</time>
</trkpt>
<trkpt lat="62.757748" lon="22.844753">
<time>2021-06-11T09:50:48Z</time>
</trkpt>
<trkpt lat="62.757753" lon="22.844761">
<time>2021-06-11T09:50:49Z</time>
</trkpt>
<trkpt lat="62.757748" lon="22.844755">
<time>2021-06-11T09:50:50Z</time>
</trkpt>
<trkpt lat="62.757735" lon="22.844731">
<time>2021-06-11T09:50:51Z</time>
</trkpt>
<trkpt lat="62.757725" lon="22.844675">
<time>2021-06-11T09:50:52Z</time>
</trkpt>
<trkpt lat="62.75773" lon="22.84461">
<time>2021-06-11T09:50:53Z</time>
</trkpt>
<trkpt lat="62.757746" lon="22.844548">
<time>2021-06-11T09:50:54Z</time>
</trkpt>
<trkpt lat="62.757775" lon="22.844496">
<time>2021-06-11T09:50:55Z</time>
</trkpt>
<trkpt lat="62.757815" lon="22.844436">
<time>2021-06-11T09:50:56Z</time>
</trkpt>
<trkpt lat="62.757861" lon="22.844375">
<time>2021-06-11T09:50:57Z</time>
</trkpt>
<trkpt lat="62.75791" lon="22.84431">
<time>2021-06-11T09:50:58Z</time>
</trkpt>
<trkpt lat="62.757961" lon="22.84424">
<time>2021-06-11T09:50:59Z</time>
</trkpt>
<trkpt lat="62.758016" lon="22.844161">
<time>2021-06-11T09:51:00Z</time>
</trkpt>
<trkpt lat="62.758075" lon="22.844078">
<time>2021-06-11T09:51:01Z</time>
</trkpt>
<trkpt lat="62.758133" lon="22.843985">
<time>2021-06-11T09:51:02Z</time>
</trkpt>
<trkpt lat="62.758195" lon="22.843896">
<time>2021-06-11T09:51:03Z</time>
</trkpt>
<trkpt lat="62.758255" lon="22.843808">
<time>2021-06-11T09:51:04Z</time>
</trkpt>
<trkpt lat="62.758315" lon="22.84372">
<time>2021-06-11T09:51:05Z</time>
</trkpt>
<trkpt lat="62.758381" lon="22.843633">
<time>2021-06-11T09:51:06Z</time>
</trkpt>
<trkpt lat="62.75845" lon="22.84357">
<time>2021-06-11T09:51:07Z</time>
</trkpt>
<trkpt lat="62.758518" lon="22.843551">
<time>2021-06-11T09:51:08Z</time>
</trkpt>
<trkpt lat="62.758578" lon="22.843591">
<time>2021-06-11T09:51:09Z</time>
</trkpt>
<trkpt lat="62.758623" lon="22.84369">
<time>2021-06-11T09:51:10Z</time>
</trkpt>
<trkpt lat="62.75866" lon="22.843821">
<time>2021-06-11T09:51:11Z</time>
</trkpt>
<trkpt lat="62.758691" lon="22.843966">
<time>2021-06-11T09:51:12Z</time>
</trkpt>
<trkpt lat="62.758716" lon="22.844125">
<time>2021-06-11T09:51:13Z</time>
</trkpt>
<trkpt lat="62.758743" lon="22.84428">
<time>2021-06-11T09:51:14Z</time>
</trkpt>
<trkpt lat="62.758773" lon="22.844436">
<time>2021-06-11T09:51:15Z</time>
</trkpt>
<trkpt lat="62.758813" lon="22.844581">
<time>2021-06-11T09:51:16Z</time>
</trkpt>
<trkpt lat="62.758858" lon="22.844701">
<time>2021-06-11T09:51:17Z</time>
</trkpt>
<trkpt lat="62.758913" lon="22.84478">
<time>2021-06-11T09:51:18Z</time>
</trkpt>
<trkpt lat="62.758975" lon="22.844806">
<time>2021-06-11T09:51:19Z</time>
</trkpt>
<trkpt lat="62.759041" lon="22.844781">
<time>2021-06-11T09:51:20Z</time>
</trkpt>
<trkpt lat="62.75911" lon="22.844725">
<time>2021-06-11T09:51:21Z</time>
</trkpt>
<trkpt lat="62.75918" lon="22.844655">
<time>2021-06-11T09:51:22Z</time>
</trkpt>
<trkpt lat="62.75925" lon="22.844581">
<time>2021-06-11T09:51:23Z</time>
</trkpt>
<trkpt lat="62.75932" lon="22.844501">
<time>2021-06-11T09:51:24Z</time>
</trkpt>
<trkpt lat="62.759391" lon="22.84442">
<time>2021-06-11T09:51:25Z</time>
</trkpt>
<trkpt lat="62.759463" lon="22.844336">
<time>2021-06-11T09:51:26Z</time>
</trkpt>
<trkpt lat="62.759538" lon="22.844266">
<time>2021-06-11T09:51:27Z</time>
</trkpt>
<trkpt lat="62.759608" lon="22.8442">
<time>2021-06-11T09:51:28Z</time>
</trkpt>
<trkpt lat="62.75968" lon="22.844133">
<time>2021-06-11T09:51:29Z</time>
</trkpt>
<trkpt lat="62.759748" lon="22.84408">
<time>2021-06-11T09:51:30Z</time>
</trkpt>
<trkpt lat="62.759823" lon="22.844031">
<time>2021-06-11T09:51:31Z</time>
</trkpt>
<trkpt lat="62.759863" lon="22.843996">
<time>2021-06-11T09:51:32Z</time>
</trkpt>
<trkpt lat="62.759901" lon="22.843943">
<time>2021-06-11T09:51:33Z</time>
</trkpt>
<trkpt lat="62.759921" lon="22.843895">
<time>2021-06-11T09:51:34Z</time>
</trkpt>
<trkpt lat="62.759928" lon="22.843855">
<time>2021-06-11T09:51:35Z</time>
</trkpt>
<trkpt lat="62.759923" lon="22.84382">
<time>2021-06-11T09:51:36Z</time>
</trkpt>
<trkpt lat="62.759916" lon="22.84378">
<time>2021-06-11T09:51:37Z</time>
</trkpt>
<trkpt lat="62.75992" lon="22.843731">
<time>2021-06-11T09:51:38Z</time>
</trkpt>
<trkpt lat="62.759923" lon="22.84366">
<time>2021-06-11T09:51:39Z</time>
</trkpt>
<trkpt lat="62.759923" lon="22.843576">
<time>2021-06-11T09:51:40Z</time>
</trkpt>
<trkpt lat="62.759923" lon="22.843491">
<time>2021-06-11T09:51:41Z</time>
</trkpt>
<trkpt lat="62.759921" lon="22.84343">
<time>2021-06-11T09:51:42Z</time>
</trkpt>
<trkpt lat="62.759928" lon="22.843403">
<time>2021-06-11T09:51:43Z</time>
</trkpt>
<trkpt lat="62.759941" lon="22.843415">
<time>2021-06-11T09:51:44Z</time>
</trkpt>
<trkpt lat="62.759963" lon="22.843426">
<time>2021-06-11T09:51:45Z</time>
</trkpt>
<trkpt lat="62.759996" lon="22.843431">
<time>2021-06-11T09:51:46Z</time>
</trkpt>
<trkpt lat="62.76003" lon="22.843421">
<time>2021-06-11T09:51:47Z</time>
</trkpt>
<trkpt lat="62.760068" lon="22.843406">
<time>2021-06-11T09:51:48Z</time>
</trkpt>
<trkpt lat="62.760106" lon="22.843411">
<time>2021-06-11T09:51:49Z</time>
</trkpt>
<trkpt lat="62.760145" lon="22.843438">
<time>2021-06-11T09:51:50Z</time>
</trkpt>
<trkpt lat="62.760186" lon="22.843485">
<time>2021-06-11T09:51:51Z</time>
</trkpt>
<trkpt lat="62.760228" lon="22.84354">
<time>2021-06-11T09:51:52Z</time>
</trkpt>
<trkpt lat="62.760276" lon="22.84361">
<time>2021-06-11T09:51:53Z</time>
</trkpt>
<trkpt lat="62.760326" lon="22.843685">
<time>2021-06-11T09:51:54Z</time>
</trkpt>
<trkpt lat="62.760378" lon="22.843765">
<time>2021-06-11T09:51:55Z</time>
</trkpt>
<trkpt lat="62.760431" lon="22.843853">
<time>2021-06-11T09:51:56Z</time>
</trkpt>
<trkpt lat="62.760488" lon="22.843931">
<time>2021-06-11T09:51:57Z</time>
</trkpt>
<trkpt lat="62.760546" lon="22.843998">
<time>2021-06-11T09:51:58Z</time>
</trkpt>
<trkpt lat="62.76061" lon="22.844063">
<time>2021-06-11T09:51:59Z</time>
</trkpt>
<trkpt lat="62.760673" lon="22.844131">
<time>2021-06-11T09:52:00Z</time>
</trkpt>
<trkpt lat="62.760741" lon="22.844203">
<time>2021-06-11T09:52:01Z</time>
</trkpt>
<trkpt lat="62.760808" lon="22.84428">
<time>2021-06-11T09:52:02Z</time>
</trkpt>
<trkpt lat="62.76087" lon="22.844361">
<time>2021-06-11T09:52:03Z</time>
</trkpt>
<trkpt lat="62.760935" lon="22.844448">
<time>2021-06-11T09:52:04Z</time>
</trkpt>
<trkpt lat="62.760988" lon="22.844546">
<time>2021-06-11T09:52:05Z</time>
</trkpt>
<trkpt lat="62.76104" lon="22.844651">
<time>2021-06-11T09:52:06Z</time>
</trkpt>
<trkpt lat="62.761088" lon="22.844746">
<time>2021-06-11T09:52:07Z</time>
</trkpt>
<trkpt lat="62.761135" lon="22.844843">
<time>2021-06-11T09:52:08Z</time>
</trkpt>
<trkpt lat="62.76118" lon="22.844945">
<time>2021-06-11T09:52:09Z</time>
</trkpt>
<trkpt lat="62.761221" lon="22.845055">
<time>2021-06-11T09:52:10Z</time>
</trkpt>
<trkpt lat="62.761258" lon="22.845166">
<time>2021-06-11T09:52:11Z</time>
</trkpt>
<trkpt lat="62.761293" lon="22.845276">
<time>2021-06-11T09:52:12Z</time>
</trkpt>
<trkpt lat="62.761323" lon="22.845391">
<time>2021-06-11T09:52:13Z</time>
</trkpt>
<trkpt lat="62.761348" lon="22.845501">
<time>2021-06-11T09:52:14Z</time>
</trkpt>
<trkpt lat="62.76138" lon="22.845581">
<time>2021-06-11T09:52:15Z</time>
</trkpt>
<trkpt lat="62.7614" lon="22.8456">
<time>2021-06-11T09:52:16Z</time>
</trkpt>
<trkpt lat="62.761418" lon="22.84559">
<time>2021-06-11T09:52:17Z</time>
</trkpt>
<trkpt lat="62.76143" lon="22.845546">
<time>2021-06-11T09:52:18Z</time>
</trkpt>
<trkpt lat="62.761441" lon="22.845478">
<time>2021-06-11T09:52:19Z</time>
</trkpt>
<trkpt lat="62.761451" lon="22.84539">
<time>2021-06-11T09:52:20Z</time>
</trkpt>
<trkpt lat="62.761463" lon="22.845305">
<time>2021-06-11T09:52:21Z</time>
</trkpt>
<trkpt lat="62.76148" lon="22.845218">
<time>2021-06-11T09:52:22Z</time>
</trkpt>
<trkpt lat="62.761496" lon="22.845128">
<time>2021-06-11T09:52:23Z</time>
</trkpt>
<trkpt lat="62.761515" lon="22.845061">
<time>2021-06-11T09:52:24Z</time>
</trkpt>
<trkpt lat="62.761533" lon="22.845023">
<time>2021-06-11T09:52:25Z</time>
</trkpt>
<trkpt lat="62.761561" lon="22.845003">
<time>2021-06-11T09:52:26Z</time>
</trkpt>
<trkpt lat="62.761591" lon="22.844993">
<time>2021-06-11T09:52:27Z</time>
</trkpt>
<trkpt lat="62.761615" lon="22.844991">
<time>2021-06-11T09:52:28Z</time>
</trkpt>
<trkpt lat="62.76164" lon="22.844993">
<time>2021-06-11T09:52:29Z</time>
</trkpt>
<trkpt lat="62.761666" lon="22.844988">
<time>2021-06-11T09:52:30Z</time>
</trkpt>
<trkpt lat="62.761695" lon="22.844976">
<time>2021-06-11T09:52:31Z</time>
</trkpt>
<trkpt lat="62.761723" lon="22.844955">
<time>2021-06-11T09:52:32Z</time>
</trkpt>
<trkpt lat="62.761755" lon="22.844921">
<time>2021-06-11T09:52:33Z</time>
</trkpt>
<trkpt lat="62.761776" lon="22.844883">
<time>2021-06-11T09:52:34Z</time>
</trkpt>
<trkpt lat="62.761796" lon="22.844855">
<time>2021-06-11T09:52:35Z</time>
</trkpt>
<trkpt lat="62.761813" lon="22.84483">
<time>2021-06-11T09:52:36Z</time>
</trkpt>
<trkpt lat="62.761833" lon="22.8448">
<time>2021-06-11T09:52:37Z</time>
</trkpt>
<trkpt lat="62.761851" lon="22.844766">
<time>2021-06-11T09:52:38Z</time>
</trkpt>
<trkpt lat="62.761876" lon="22.844725">
<time>2021-06-11T09:52:39Z</time>
</trkpt>
<trkpt lat="62.76189" lon="22.844693">
<time>2021-06-11T09:52:40Z</time>
</trkpt>
<trkpt lat="62.761901" lon="22.844651">
<time>2021-06-11T09:52:41Z</time>
</trkpt>
<trkpt lat="62.761916" lon="22.8446">
<time>2021-06-11T09:52:42Z</time>
</trkpt>
<trkpt lat="62.761943" lon="22.844525">
<time>2021-06-11T09:52:43Z</time>
</trkpt>
<trkpt lat="62.76197" lon="22.844451">
<time>2021-06-11T09:52:44Z</time>
</trkpt>
<trkpt lat="62.761991" lon="22.844393">
<time>2021-06-11T09:52:45Z</time>
</trkpt>
<trkpt lat="62.762011" lon="22.844323">
<time>2021-06-11T09:52:46Z</time>
</trkpt>
<trkpt lat="62.76203" lon="22.844256">
<time>2021-06-11T09:52:47Z</time>
</trkpt>
<trkpt lat="62.762048" lon="22.844183">
<time>2021-06-11T09:52:48Z</time>
</trkpt>
<trkpt lat="62.762066" lon="22.844125">
<time>2021-06-11T09:52:49Z</time>
</trkpt>
<trkpt lat="62.762085" lon="22.844078">
<time>2021-06-11T09:52:50Z</time>
</trkpt>
<trkpt lat="62.762105" lon="22.844041">
<time>2021-06-11T09:52:51Z</time>
</trkpt>
<trkpt lat="62.762125" lon="22.844018">
<time>2021-06-11T09:52:52Z</time>
</trkpt>
<trkpt lat="62.762145" lon="22.843988">
<time>2021-06-11T09:52:53Z</time>
</trkpt>
<trkpt lat="62.762171" lon="22.843958">
<time>2021-06-11T09:52:54Z</time>
</trkpt>
<trkpt lat="62.762196" lon="22.843931">
<time>2021-06-11T09:52:55Z</time>
</trkpt>
<trkpt lat="62.762221" lon="22.843908">
<time>2021-06-11T09:52:56Z</time>
</trkpt>
<trkpt lat="62.762246" lon="22.84389">
<time>2021-06-11T09:52:57Z</time>
</trkpt>
<trkpt lat="62.762276" lon="22.843878">
<time>2021-06-11T09:52:58Z</time>
</trkpt>
<trkpt lat="62.762303" lon="22.84387">
<time>2021-06-11T09:52:59Z</time>
</trkpt>
<trkpt lat="62.76233" lon="22.843871">
<time>2021-06-11T09:53:00Z</time>
</trkpt>
<trkpt lat="62.762355" lon="22.843888">
<time>2021-06-11T09:53:01Z</time>
</trkpt>
<trkpt lat="62.762385" lon="22.843926">
<time>2021-06-11T09:53:02Z</time>
</trkpt>
<trkpt lat="62.762415" lon="22.843965">
<time>2021-06-11T09:53:03Z</time>
</trkpt>
<trkpt lat="62.762441" lon="22.844016">
<time>2021-06-11T09:53:04Z</time>
</trkpt>
<trkpt lat="62.762461" lon="22.844065">
<time>2021-06-11T09:53:05Z</time>
</trkpt>
<trkpt lat="62.762483" lon="22.844128">
<time>2021-06-11T09:53:06Z</time>
</trkpt>
<trkpt lat="62.762506" lon="22.844195">
<time>2021-06-11T09:53:07Z</time>
</trkpt>
<trkpt lat="62.762526" lon="22.844261">
<time>2021-06-11T09:53:08Z</time>
</trkpt>
<trkpt lat="62.762533" lon="22.844338">
<time>2021-06-11T09:53:09Z</time>
</trkpt>
<trkpt lat="62.762525" lon="22.844405">
<time>2021-06-11T09:53:10Z</time>
</trkpt>
<trkpt lat="62.762508" lon="22.844463">
<time>2021-06-11T09:53:11Z</time>
</trkpt>
<trkpt lat="62.762485" lon="22.84451">
<time>2021-06-11T09:53:12Z</time>
</trkpt>
<trkpt lat="62.762455" lon="22.844556">
<time>2021-06-11T09:53:13Z</time>
</trkpt>
<trkpt lat="62.762418" lon="22.844605">
<time>2021-06-11T09:53:14Z</time>
</trkpt>
<trkpt lat="62.762375" lon="22.844646">
<time>2021-06-11T09:53:15Z</time>
</trkpt>
<trkpt lat="62.762331" lon="22.844685">
<time>2021-06-11T09:53:16Z</time>
</trkpt>
<trkpt lat="62.762288" lon="22.844733">
<time>2021-06-11T09:53:17Z</time>
</trkpt>
<trkpt lat="62.762241" lon="22.844791">
<time>2021-06-11T09:53:18Z</time>
</trkpt>
<trkpt lat="62.762181" lon="22.84487">
<time>2021-06-11T09:53:19Z</time>
</trkpt>
<trkpt lat="62.762138" lon="22.844921">
<time>2021-06-11T09:53:20Z</time>
</trkpt>
<trkpt lat="62.762085" lon="22.844993">
<time>2021-06-11T09:53:21Z</time>
</trkpt>
<trkpt lat="62.76202" lon="22.845075">
<time>2021-06-11T09:53:22Z</time>
</trkpt>
<trkpt lat="62.761978" lon="22.845131">
<time>2021-06-11T09:53:23Z</time>
</trkpt>
<trkpt lat="62.761928" lon="22.845206">
<time>2021-06-11T09:53:24Z</time>
</trkpt>
<trkpt lat="62.761876" lon="22.845288">
<time>2021-06-11T09:53:25Z</time>
</trkpt>
<trkpt lat="62.761833" lon="22.845378">
<time>2021-06-11T09:53:26Z</time>
</trkpt>
<trkpt lat="62.761791" lon="22.845468">
<time>2021-06-11T09:53:27Z</time>
</trkpt>
<trkpt lat="62.761745" lon="22.845563">
<time>2021-06-11T09:53:28Z</time>
</trkpt>
<trkpt lat="62.761705" lon="22.845646">
<time>2021-06-11T09:53:29Z</time>
</trkpt>
<trkpt lat="62.761668" lon="22.845716">
<time>2021-06-11T09:53:30Z</time>
</trkpt>
<trkpt lat="62.761621" lon="22.845805">
<time>2021-06-11T09:53:31Z</time>
</trkpt>
<trkpt lat="62.761563" lon="22.845915">
<time>2021-06-11T09:53:32Z</time>
</trkpt>
<trkpt lat="62.761516" lon="22.846006">
<time>2021-06-11T09:53:33Z</time>
</trkpt>
<trkpt lat="62.761471" lon="22.846096">
<time>2021-06-11T09:53:34Z</time>
</trkpt>
<trkpt lat="62.761438" lon="22.846171">
<time>2021-06-11T09:53:35Z</time>
</trkpt>
<trkpt lat="62.761406" lon="22.846278">
<time>2021-06-11T09:53:36Z</time>
</trkpt>
<trkpt lat="62.76138" lon="22.846418">
<time>2021-06-11T09:53:37Z</time>
</trkpt>
<trkpt lat="62.761373" lon="22.84654">
<time>2021-06-11T09:53:38Z</time>
</trkpt>
<trkpt lat="62.761373" lon="22.846638">
<time>2021-06-11T09:53:39Z</time>
</trkpt>
<trkpt lat="62.761371" lon="22.846758">
<time>2021-06-11T09:53:40Z</time>
</trkpt>
<trkpt lat="62.761361" lon="22.846886">
<time>2021-06-11T09:53:41Z</time>
</trkpt>
<trkpt lat="62.76134" lon="22.84697">
<time>2021-06-11T09:53:42Z</time>
</trkpt>
<trkpt lat="62.761316" lon="22.847003">
<time>2021-06-11T09:53:43Z</time>
</trkpt>
<trkpt lat="62.761286" lon="22.847025">
<time>2021-06-11T09:53:44Z</time>
</trkpt>
<trkpt lat="62.761253" lon="22.847035">
<time>2021-06-11T09:53:45Z</time>
</trkpt>
<trkpt lat="62.761205" lon="22.847051">
<time>2021-06-11T09:53:46Z</time>
</trkpt>
<trkpt lat="62.761165" lon="22.847085">
<time>2021-06-11T09:53:47Z</time>
</trkpt>
<trkpt lat="62.76113" lon="22.847121">
<time>2021-06-11T09:53:48Z</time>
</trkpt>
<trkpt lat="62.761105" lon="22.84715">
<time>2021-06-11T09:53:49Z</time>
</trkpt>
<trkpt lat="62.761073" lon="22.847175">
<time>2021-06-11T09:53:50Z</time>
</trkpt>
<trkpt lat="62.761043" lon="22.847193">
<time>2021-06-11T09:53:51Z</time>
</trkpt>
<trkpt lat="62.76101" lon="22.847213">
<time>2021-06-11T09:53:52Z</time>
</trkpt>
<trkpt lat="62.760988" lon="22.847226">
<time>2021-06-11T09:53:53Z</time>
</trkpt>
<trkpt lat="62.760965" lon="22.847251">
<time>2021-06-11T09:53:54Z</time>
</trkpt>
<trkpt lat="62.760941" lon="22.847268">
<time>2021-06-11T09:53:55Z</time>
</trkpt>
<trkpt lat="62.760913" lon="22.847303">
<time>2021-06-11T09:53:56Z</time>
</trkpt>
<trkpt lat="62.76089" lon="22.847351">
<time>2021-06-11T09:53:57Z</time>
</trkpt>
<trkpt lat="62.760861" lon="22.847388">
<time>2021-06-11T09:53:58Z</time>
</trkpt>
<trkpt lat="62.76084" lon="22.847398">
<time>2021-06-11T09:53:59Z</time>
</trkpt>
<trkpt lat="62.760823" lon="22.847398">
<time>2021-06-11T09:54:00Z</time>
</trkpt>
<trkpt lat="62.760796" lon="22.847393">
<time>2021-06-11T09:54:01Z</time>
</trkpt>
<trkpt lat="62.760773" lon="22.84738">
<time>2021-06-11T09:54:02Z</time>
</trkpt>
<trkpt lat="62.760751" lon="22.847363">
<time>2021-06-11T09:54:03Z</time>
</trkpt>
<trkpt lat="62.760723" lon="22.847348">
<time>2021-06-11T09:54:04Z</time>
</trkpt>
<trkpt lat="62.760705" lon="22.84733">
<time>2021-06-11T09:54:05Z</time>
</trkpt>
<trkpt lat="62.760683" lon="22.847318">
<time>2021-06-11T09:54:06Z</time>
</trkpt>
<trkpt lat="62.760666" lon="22.847288">
<time>2021-06-11T09:54:07Z</time>
</trkpt>
<trkpt lat="62.760658" lon="22.847251">
<time>2021-06-11T09:54:08Z</time>
</trkpt>
<trkpt lat="62.760646" lon="22.84723">
<time>2021-06-11T09:54:09Z</time>
</trkpt>
<trkpt lat="62.760628" lon="22.847216">
<time>2021-06-11T09:54:10Z</time>
</trkpt>
<trkpt lat="62.76061" lon="22.84721">
<time>2021-06-11T09:54:11Z</time>
</trkpt>
<trkpt lat="62.760595" lon="22.847191">
<time>2021-06-11T09:54:12Z</time>
</trkpt>
<trkpt lat="62.760586" lon="22.847163">
<time>2021-06-11T09:54:13Z</time>
</trkpt>
<trkpt lat="62.760585" lon="22.847135">
<time>2021-06-11T09:54:14Z</time>
</trkpt>
<trkpt lat="62.760581" lon="22.847095">
<time>2021-06-11T09:54:15Z</time>
</trkpt>
<trkpt lat="62.760573" lon="22.847048">
<time>2021-06-11T09:54:16Z</time>
</trkpt>
<trkpt lat="62.760568" lon="22.847013">
<time>2021-06-11T09:54:17Z</time>
</trkpt>
<trkpt lat="62.76056" lon="22.846976">
<time>2021-06-11T09:54:18Z</time>
</trkpt>
<trkpt lat="62.760548" lon="22.846945">
<time>2021-06-11T09:54:19Z</time>
</trkpt>
<trkpt lat="62.760535" lon="22.846923">
<time>2021-06-11T09:54:20Z</time>
</trkpt>
<trkpt lat="62.760523" lon="22.846891">
<time>2021-06-11T09:54:21Z</time>
</trkpt>
<trkpt lat="62.760511" lon="22.846853">
<time>2021-06-11T09:54:22Z</time>
</trkpt>
<trkpt lat="62.760496" lon="22.846806">
<time>2021-06-11T09:54:23Z</time>
</trkpt>
<trkpt lat="62.760481" lon="22.846751">
<time>2021-06-11T09:54:24Z</time>
</trkpt>
<trkpt lat="62.760476" lon="22.846703">
<time>2021-06-11T09:54:25Z</time>
</trkpt>
<trkpt lat="62.760468" lon="22.846656">
<time>2021-06-11T09:54:26Z</time>
</trkpt>
<trkpt lat="62.760463" lon="22.846611">
<time>2021-06-11T09:54:27Z</time>
</trkpt>
<trkpt lat="62.760458" lon="22.846568">
<time>2021-06-11T09:54:28Z</time>
</trkpt>
<trkpt lat="62.760456" lon="22.84653">
<time>2021-06-11T09:54:29Z</time>
</trkpt>
<trkpt lat="62.760455" lon="22.846495">
<time>2021-06-11T09:54:30Z</time>
</trkpt>
<trkpt lat="62.760451" lon="22.846475">
<time>2021-06-11T09:54:31Z</time>
</trkpt>
<trkpt lat="62.76045" lon="22.84646">
<time>2021-06-11T09:54:32Z</time>
</trkpt>
<trkpt lat="62.760446" lon="22.84645">
<time>2021-06-11T09:54:33Z</time>
</trkpt>
<trkpt lat="62.760443" lon="22.846438">
<time>2021-06-11T09:54:34Z</time>
</trkpt>
<trkpt lat="62.760441" lon="22.846423">
<time>2021-06-11T09:54:35Z</time>
</trkpt>
<trkpt lat="62.760435" lon="22.846388">
<time>2021-06-11T09:54:36Z</time>
</trkpt>
<trkpt lat="62.760426" lon="22.846356">
<time>2021-06-11T09:54:37Z</time>
</trkpt>
<trkpt lat="62.760421" lon="22.846321">
<time>2021-06-11T09:54:38Z</time>
</trkpt>
<trkpt lat="62.760411" lon="22.846278">
<time>2021-06-11T09:54:39Z</time>
</trkpt>
<trkpt lat="62.760405" lon="22.846231">
<time>2021-06-11T09:54:40Z</time>
</trkpt>
<trkpt lat="62.760401" lon="22.846171">
<time>2021-06-11T09:54:41Z</time>
</trkpt>
<trkpt lat="62.760398" lon="22.846121">
<time>2021-06-11T09:54:42Z</time>
</trkpt>
<trkpt lat="62.760393" lon="22.84609">
<time>2021-06-11T09:54:43Z</time>
</trkpt>
<trkpt lat="62.760376" lon="22.846045">
<time>2021-06-11T09:54:44Z</time>
</trkpt>
<trkpt lat="62.76036" lon="22.845996">
<time>2021-06-11T09:54:45Z</time>
</trkpt>
<trkpt lat="62.760345" lon="22.84594">
<time>2021-06-11T09:54:46Z</time>
</trkpt>
<trkpt lat="62.760335" lon="22.845885">
<time>2021-06-11T09:54:47Z</time>
</trkpt>
<trkpt lat="62.76032" lon="22.845838">
<time>2021-06-11T09:54:48Z</time>
</trkpt>
<trkpt lat="62.760303" lon="22.845811">
<time>2021-06-11T09:54:49Z</time>
</trkpt>
<trkpt lat="62.760293" lon="22.845798">
<time>2021-06-11T09:54:50Z</time>
</trkpt>
<trkpt lat="62.76028" lon="22.845775">
<time>2021-06-11T09:54:51Z</time>
</trkpt>
<trkpt lat="62.76027" lon="22.845743">
<time>2021-06-11T09:54:52Z</time>
</trkpt>
<trkpt lat="62.760261" lon="22.845706">
<time>2021-06-11T09:54:53Z</time>
</trkpt>
<trkpt lat="62.76026" lon="22.845653">
<time>2021-06-11T09:54:54Z</time>
</trkpt>
<trkpt lat="62.760258" lon="22.845596">
<time>2021-06-11T09:54:55Z</time>
</trkpt>
<trkpt lat="62.760255" lon="22.845516">
<time>2021-06-11T09:54:56Z</time>
</trkpt>
<trkpt lat="62.760236" lon="22.845433">
<time>2021-06-11T09:54:57Z</time>
</trkpt>
<trkpt lat="62.760218" lon="22.845348">
<time>2021-06-11T09:54:58Z</time>
</trkpt>
<trkpt lat="62.760201" lon="22.845275">
<time>2021-06-11T09:54:59Z</time>
</trkpt>
<trkpt lat="62.760185" lon="22.845208">
<time>2021-06-11T09:55:00Z</time>
</trkpt>
<trkpt lat="62.760166" lon="22.845145">
<time>2021-06-11T09:55:01Z</time>
</trkpt>
<trkpt lat="62.760156" lon="22.845086">
<time>2021-06-11T09:55:02Z</time>
</trkpt>
<trkpt lat="62.760148" lon="22.845035">
<time>2021-06-11T09:55:03Z</time>
</trkpt>
<trkpt lat="62.760146" lon="22.844976">
<time>2021-06-11T09:55:04Z</time>
</trkpt>
<trkpt lat="62.76015" lon="22.84492">
<time>2021-06-11T09:55:05Z</time>
</trkpt>
<trkpt lat="62.760161" lon="22.844878">
<time>2021-06-11T09:55:06Z</time>
</trkpt>
<trkpt lat="62.76018" lon="22.844851">
<time>2021-06-11T09:55:07Z</time>
</trkpt>
<trkpt lat="62.760196" lon="22.844831">
<time>2021-06-11T09:55:08Z</time>
</trkpt>
<trkpt lat="62.760215" lon="22.844816">
<time>2021-06-11T09:55:09Z</time>
</trkpt>
<trkpt lat="62.760233" lon="22.844805">
<time>2021-06-11T09:55:10Z</time>
</trkpt>
<trkpt lat="62.760246" lon="22.84479">
<time>2021-06-11T09:55:11Z</time>
</trkpt>
<trkpt lat="62.760263" lon="22.844776">
<time>2021-06-11T09:55:12Z</time>
</trkpt>
<trkpt lat="62.760286" lon="22.844758">
<time>2021-06-11T09:55:13Z</time>
</trkpt>
<trkpt lat="62.760311" lon="22.844745">
<time>2021-06-11T09:55:14Z</time>
</trkpt>
<trkpt lat="62.760341" lon="22.84473">
<time>2021-06-11T09:55:15Z</time>
</trkpt>
<trkpt lat="62.76037" lon="22.844713">
<time>2021-06-11T09:55:16Z</time>
</trkpt>
<trkpt lat="62.760393" lon="22.84469">
<time>2021-06-11T09:55:17Z</time>
</trkpt>
<trkpt lat="62.760416" lon="22.844663">
<time>2021-06-11T09:55:18Z</time>
</trkpt>
<trkpt lat="62.760433" lon="22.844631">
<time>2021-06-11T09:55:19Z</time>
</trkpt>
<trkpt lat="62.760441" lon="22.844623">
<time>2021-06-11T09:55:20Z</time>
</trkpt>
<trkpt lat="62.760436" lon="22.844595">
<time>2021-06-11T09:55:21Z</time>
</trkpt>
<trkpt lat="62.760436" lon="22.844578">
<time>2021-06-11T09:55:22Z</time>
</trkpt>
<trkpt lat="62.76044" lon="22.844581">
<time>2021-06-11T09:55:23Z</time>
</trkpt>
<trkpt lat="62.760446" lon="22.844605">
<time>2021-06-11T09:55:24Z</time>
</trkpt>
<trkpt lat="62.760453" lon="22.84463">
<time>2021-06-11T09:55:25Z</time>
</trkpt>
<trkpt lat="62.760451" lon="22.844633">
<time>2021-06-11T09:55:26Z</time>
</trkpt>
<trkpt lat="62.760451" lon="22.844631">
<time>2021-06-11T09:55:27Z</time>
</trkpt>
<trkpt lat="62.76045" lon="22.84463">
<time>2021-06-11T09:55:28Z</time>
</trkpt>
<trkpt lat="62.76045" lon="22.84463">
<time>2021-06-11T09:55:29Z</time>
</trkpt>
<trkpt lat="62.760448" lon="22.84464">
<time>2021-06-11T09:55:30Z</time>
</trkpt>
<trkpt lat="62.760443" lon="22.844661">
<time>2021-06-11T09:55:31Z</time>
</trkpt>
<trkpt lat="62.760433" lon="22.844683">
<time>2021-06-11T09:55:32Z</time>
</trkpt>
<trkpt lat="62.760421" lon="22.844706">
<time>2021-06-11T09:55:33Z</time>
</trkpt>
<trkpt lat="62.76041" lon="22.844725">
<time>2021-06-11T09:55:34Z</time>
</trkpt>
<trkpt lat="62.76039" lon="22.844746">
<time>2021-06-11T09:55:35Z</time>
</trkpt>
<trkpt lat="62.760365" lon="22.844763">
<time>2021-06-11T09:55:36Z</time>
</trkpt>
<trkpt lat="62.76034" lon="22.844785">
<time>2021-06-11T09:55:37Z</time>
</trkpt>
<trkpt lat="62.760311" lon="22.844805">
<time>2021-06-11T09:55:38Z</time>
</trkpt>
<trkpt lat="62.76028" lon="22.844825">
<time>2021-06-11T09:55:39Z</time>
</trkpt>
<trkpt lat="62.760245" lon="22.844846">
<time>2021-06-11T09:55:40Z</time>
</trkpt>
<trkpt lat="62.760213" lon="22.844866">
<time>2021-06-11T09:55:41Z</time>
</trkpt>
<trkpt lat="62.760186" lon="22.844901">
<time>2021-06-11T09:55:42Z</time>
</trkpt>
<trkpt lat="62.760175" lon="22.844933">
<time>2021-06-11T09:55:43Z</time>
</trkpt>
<trkpt lat="62.760168" lon="22.844973">
<time>2021-06-11T09:55:44Z</time>
</trkpt>
<trkpt lat="62.760163" lon="22.845015">
<time>2021-06-11T09:55:45Z</time>
</trkpt>
<trkpt lat="62.760163" lon="22.845053">
<time>2021-06-11T09:55:46Z</time>
</trkpt>
<trkpt lat="62.76017" lon="22.845095">
<time>2021-06-11T09:55:47Z</time>
</trkpt>
<trkpt lat="62.760173" lon="22.845141">
<time>2021-06-11T09:55:48Z</time>
</trkpt>
<trkpt lat="62.760168" lon="22.845188">
<time>2021-06-11T09:55:49Z</time>
</trkpt>
<trkpt lat="62.760161" lon="22.845223">
<time>2021-06-11T09:55:50Z</time>
</trkpt>
<trkpt lat="62.760143" lon="22.845243">
<time>2021-06-11T09:55:51Z</time>
</trkpt>
<trkpt lat="62.760121" lon="22.845255">
<time>2021-06-11T09:55:52Z</time>
</trkpt>
<trkpt lat="62.760096" lon="22.845253">
<time>2021-06-11T09:55:53Z</time>
</trkpt>
<trkpt lat="62.760071" lon="22.845246">
<time>2021-06-11T09:55:54Z</time>
</trkpt>
<trkpt lat="62.760048" lon="22.84523">
<time>2021-06-11T09:55:55Z</time>
</trkpt>
<trkpt lat="62.760025" lon="22.845205">
<time>2021-06-11T09:55:56Z</time>
</trkpt>
<trkpt lat="62.760006" lon="22.845171">
<time>2021-06-11T09:55:57Z</time>
</trkpt>
<trkpt lat="62.75999" lon="22.84513">
<time>2021-06-11T09:55:58Z</time>
</trkpt>
<trkpt lat="62.759975" lon="22.845078">
<time>2021-06-11T09:55:59Z</time>
</trkpt>
<trkpt lat="62.759963" lon="22.845028">
<time>2021-06-11T09:56:00Z</time>
</trkpt>
<trkpt lat="62.75996" lon="22.844976">
<time>2021-06-11T09:56:01Z</time>
</trkpt>
<trkpt lat="62.759955" lon="22.844926">
<time>2021-06-11T09:56:02Z</time>
</trkpt>
<trkpt lat="62.759945" lon="22.844891">
<time>2021-06-11T09:56:03Z</time>
</trkpt>
<trkpt lat="62.759946" lon="22.844871">
<time>2021-06-11T09:56:04Z</time>
</trkpt>
<trkpt lat="62.759948" lon="22.844863">
<time>2021-06-11T09:56:05Z</time>
</trkpt>
<trkpt lat="62.759946" lon="22.844858">
<time>2021-06-11T09:56:06Z</time>
</trkpt>
<trkpt lat="62.759946" lon="22.844863">
<time>2021-06-11T09:56:07Z</time>
</trkpt>
<trkpt lat="62.75995" lon="22.844861">
<time>2021-06-11T09:56:08Z</time>
</trkpt>
<trkpt lat="62.759956" lon="22.844833">
<time>2021-06-11T09:56:09Z</time>
</trkpt>
<trkpt lat="62.759956" lon="22.844845">
<time>2021-06-11T09:56:10Z</time>
</trkpt>
<trkpt lat="62.759956" lon="22.84488">
<time>2021-06-11T09:56:11Z</time>
</trkpt>
<trkpt lat="62.759956" lon="22.844925">
<time>2021-06-11T09:56:12Z</time>
</trkpt>
<trkpt lat="62.759958" lon="22.84497">
<time>2021-06-11T09:56:13Z</time>
</trkpt>
<trkpt lat="62.759961" lon="22.845021">
<time>2021-06-11T09:56:14Z</time>
</trkpt>
<trkpt lat="62.75997" lon="22.845073">
<time>2021-06-11T09:56:15Z</time>
</trkpt>
<trkpt lat="62.759978" lon="22.845126">
<time>2021-06-11T09:56:16Z</time>
</trkpt>
<trkpt lat="62.759983" lon="22.845183">
<time>2021-06-11T09:56:17Z</time>
</trkpt>
<trkpt lat="62.759985" lon="22.845246">
<time>2021-06-11T09:56:18Z</time>
</trkpt>
<trkpt lat="62.759976" lon="22.845298">
<time>2021-06-11T09:56:19Z</time>
</trkpt>
<trkpt lat="62.759958" lon="22.845341">
<time>2021-06-11T09:56:20Z</time>
</trkpt>
<trkpt lat="62.759935" lon="22.845381">
<time>2021-06-11T09:56:21Z</time>
</trkpt>
<trkpt lat="62.759906" lon="22.84542">
<time>2021-06-11T09:56:22Z</time>
</trkpt>
<trkpt lat="62.759873" lon="22.845451">
<time>2021-06-11T09:56:23Z</time>
</trkpt>
<trkpt lat="62.759843" lon="22.845478">
<time>2021-06-11T09:56:24Z</time>
</trkpt>
<trkpt lat="62.75982" lon="22.845508">
<time>2021-06-11T09:56:25Z</time>
</trkpt>
<trkpt lat="62.7598" lon="22.845543">
<time>2021-06-11T09:56:26Z</time>
</trkpt>
<trkpt lat="62.759775" lon="22.845583">
<time>2021-06-11T09:56:27Z</time>
</trkpt>
<trkpt lat="62.75975" lon="22.845628">
<time>2021-06-11T09:56:28Z</time>
</trkpt>
<trkpt lat="62.759731" lon="22.845671">
<time>2021-06-11T09:56:29Z</time>
</trkpt>
<trkpt lat="62.759718" lon="22.845723">
<time>2021-06-11T09:56:30Z</time>
</trkpt>
<trkpt lat="62.7597" lon="22.845768">
<time>2021-06-11T09:56:31Z</time>
</trkpt>
<trkpt lat="62.759686" lon="22.845816">
<time>2021-06-11T09:56:32Z</time>
</trkpt>
<trkpt lat="62.759676" lon="22.84586">
<time>2021-06-11T09:56:33Z</time>
</trkpt>
<trkpt lat="62.759658" lon="22.845913">
<time>2021-06-11T09:56:34Z</time>
</trkpt>
<trkpt lat="62.759638" lon="22.845965">
<time>2021-06-11T09:56:35Z</time>
</trkpt>
<trkpt lat="62.759618" lon="22.846016">
<time>2021-06-11T09:56:36Z</time>
</trkpt>
<trkpt lat="62.759593" lon="22.846093">
<time>2021-06-11T09:56:37Z</time>
</trkpt>
<trkpt lat="62.759573" lon="22.846161">
<time>2021-06-11T09:56:38Z</time>
</trkpt>
<trkpt lat="62.75954" lon="22.846233">
<time>2021-06-11T09:56:39Z</time>
</trkpt>
<trkpt lat="62.759516" lon="22.846293">
<time>2021-06-11T09:56:40Z</time>
</trkpt>
<trkpt lat="62.759498" lon="22.846356">
<time>2021-06-11T09:56:41Z</time>
</trkpt>
<trkpt lat="62.759476" lon="22.846426">
<time>2021-06-11T09:56:42Z</time>
</trkpt>
<trkpt lat="62.75945" lon="22.846513">
<time>2021-06-11T09:56:43Z</time>
</trkpt>
<trkpt lat="62.759425" lon="22.846586">
<time>2021-06-11T09:56:44Z</time>
</trkpt>
<trkpt lat="62.759401" lon="22.84664">
<time>2021-06-11T09:56:45Z</time>
</trkpt>
<trkpt lat="62.75937" lon="22.846686">
<time>2021-06-11T09:56:46Z</time>
</trkpt>
<trkpt lat="62.759336" lon="22.846703">
<time>2021-06-11T09:56:47Z</time>
</trkpt>
<trkpt lat="62.759301" lon="22.846703">
<time>2021-06-11T09:56:48Z</time>
</trkpt>
<trkpt lat="62.759273" lon="22.846701">
<time>2021-06-11T09:56:49Z</time>
</trkpt>
<trkpt lat="62.759238" lon="22.846703">
<time>2021-06-11T09:56:50Z</time>
</trkpt>
<trkpt lat="62.75919" lon="22.846708">
<time>2021-06-11T09:56:51Z</time>
</trkpt>
<trkpt lat="62.75915" lon="22.846715">
<time>2021-06-11T09:56:52Z</time>
</trkpt>
<trkpt lat="62.759118" lon="22.846738">
<time>2021-06-11T09:56:53Z</time>
</trkpt>
<trkpt lat="62.759093" lon="22.846776">
<time>2021-06-11T09:56:54Z</time>
</trkpt>
<trkpt lat="62.75907" lon="22.846831">
<time>2021-06-11T09:56:55Z</time>
</trkpt>
<trkpt lat="62.759045" lon="22.8469">
<time>2021-06-11T09:56:56Z</time>
</trkpt>
<trkpt lat="62.759018" lon="22.846978">
<time>2021-06-11T09:56:57Z</time>
</trkpt>
<trkpt lat="62.75899" lon="22.847053">
<time>2021-06-11T09:56:58Z</time>
</trkpt>
<trkpt lat="62.758963" lon="22.847131">
<time>2021-06-11T09:56:59Z</time>
</trkpt>
<trkpt lat="62.758933" lon="22.847215">
<time>2021-06-11T09:57:00Z</time>
</trkpt>
<trkpt lat="62.758905" lon="22.847296">
<time>2021-06-11T09:57:01Z</time>
</trkpt>
<trkpt lat="62.758873" lon="22.847378">
<time>2021-06-11T09:57:02Z</time>
</trkpt>
<trkpt lat="62.758838" lon="22.847463">
<time>2021-06-11T09:57:03Z</time>
</trkpt>
<trkpt lat="62.75881" lon="22.847565">
<time>2021-06-11T09:57:04Z</time>
</trkpt>
<trkpt lat="62.758785" lon="22.847675">
<time>2021-06-11T09:57:05Z</time>
</trkpt>
<trkpt lat="62.758766" lon="22.84779">
<time>2021-06-11T09:57:06Z</time>
</trkpt>
<trkpt lat="62.75876" lon="22.8479">
<time>2021-06-11T09:57:07Z</time>
</trkpt>
<trkpt lat="62.758765" lon="22.84798">
<time>2021-06-11T09:57:08Z</time>
</trkpt>
<trkpt lat="62.758788" lon="22.848025">
<time>2021-06-11T09:57:09Z</time>
</trkpt>
<trkpt lat="62.758825" lon="22.848053">
<time>2021-06-11T09:57:10Z</time>
</trkpt>
<trkpt lat="62.758865" lon="22.848083">
<time>2021-06-11T09:57:11Z</time>
</trkpt>
<trkpt lat="62.758908" lon="22.848111">
<time>2021-06-11T09:57:12Z</time>
</trkpt>
<trkpt lat="62.758951" lon="22.848133">
<time>2021-06-11T09:57:13Z</time>
</trkpt>
<trkpt lat="62.758995" lon="22.848151">
<time>2021-06-11T09:57:14Z</time>
</trkpt>
<trkpt lat="62.759041" lon="22.848163">
<time>2021-06-11T09:57:15Z</time>
</trkpt>
<trkpt lat="62.759091" lon="22.848161">
<time>2021-06-11T09:57:16Z</time>
</trkpt>
<trkpt lat="62.759141" lon="22.84815">
<time>2021-06-11T09:57:17Z</time>
</trkpt>
<trkpt lat="62.759191" lon="22.84814">
<time>2021-06-11T09:57:18Z</time>
</trkpt>
<trkpt lat="62.75924" lon="22.848138">
<time>2021-06-11T09:57:19Z</time>
</trkpt>
<trkpt lat="62.75929" lon="22.848156">
<time>2021-06-11T09:57:20Z</time>
</trkpt>
<trkpt lat="62.759335" lon="22.848186">
<time>2021-06-11T09:57:21Z</time>
</trkpt>
<trkpt lat="62.759371" lon="22.848231">
<time>2021-06-11T09:57:22Z</time>
</trkpt>
<trkpt lat="62.759396" lon="22.848281">
<time>2021-06-11T09:57:23Z</time>
</trkpt>
<trkpt lat="62.759398" lon="22.848333">
<time>2021-06-11T09:57:24Z</time>
</trkpt>
<trkpt lat="62.759385" lon="22.848388">
<time>2021-06-11T09:57:25Z</time>
</trkpt>
<trkpt lat="62.759365" lon="22.848453">
<time>2021-06-11T09:57:26Z</time>
</trkpt>
<trkpt lat="62.759345" lon="22.84853">
<time>2021-06-11T09:57:27Z</time>
</trkpt>
<trkpt lat="62.759326" lon="22.848613">
<time>2021-06-11T09:57:28Z</time>
</trkpt>
<trkpt lat="62.759306" lon="22.848693">
<time>2021-06-11T09:57:29Z</time>
</trkpt>
<trkpt lat="62.759285" lon="22.84876">
<time>2021-06-11T09:57:30Z</time>
</trkpt>
<trkpt lat="62.759265" lon="22.848815">
<time>2021-06-11T09:57:31Z</time>
</trkpt>
<trkpt lat="62.759255" lon="22.848846">
<time>2021-06-11T09:57:32Z</time>
</trkpt>
<trkpt lat="62.759255" lon="22.848858">
<time>2021-06-11T09:57:33Z</time>
</trkpt>
<trkpt lat="62.759263" lon="22.848843">
<time>2021-06-11T09:57:34Z</time>
</trkpt>
<trkpt lat="62.759276" lon="22.848803">
<time>2021-06-11T09:57:35Z</time>
</trkpt>
<trkpt lat="62.759286" lon="22.84875">
<time>2021-06-11T09:57:36Z</time>
</trkpt>
<trkpt lat="62.7593" lon="22.848685">
<time>2021-06-11T09:57:37Z</time>
</trkpt>
<trkpt lat="62.75932" lon="22.848606">
<time>2021-06-11T09:57:38Z</time>
</trkpt>
<trkpt lat="62.759345" lon="22.848516">
<time>2021-06-11T09:57:39Z</time>
</trkpt>
<trkpt lat="62.759373" lon="22.848428">
<time>2021-06-11T09:57:40Z</time>
</trkpt>
<trkpt lat="62.759416" lon="22.848366">
<time>2021-06-11T09:57:41Z</time>
</trkpt>
<trkpt lat="62.759468" lon="22.848343">
<time>2021-06-11T09:57:42Z</time>
</trkpt>
<trkpt lat="62.759528" lon="22.84835">
<time>2021-06-11T09:57:43Z</time>
</trkpt>
<trkpt lat="62.759586" lon="22.848373">
<time>2021-06-11T09:57:44Z</time>
</trkpt>
<trkpt lat="62.759651" lon="22.84841">
<time>2021-06-11T09:57:45Z</time>
</trkpt>
<trkpt lat="62.759713" lon="22.848456">
<time>2021-06-11T09:57:46Z</time>
</trkpt>
<trkpt lat="62.759776" lon="22.848511">
<time>2021-06-11T09:57:47Z</time>
</trkpt>
<trkpt lat="62.759843" lon="22.848571">
<time>2021-06-11T09:57:48Z</time>
</trkpt>
<trkpt lat="62.75991" lon="22.848631">
<time>2021-06-11T09:57:49Z</time>
</trkpt>
<trkpt lat="62.759991" lon="22.848713">
<time>2021-06-11T09:57:50Z</time>
</trkpt>
<trkpt lat="62.760046" lon="22.84876">
<time>2021-06-11T09:57:51Z</time>
</trkpt>
<trkpt lat="62.76011" lon="22.848825">
<time>2021-06-11T09:57:52Z</time>
</trkpt>
<trkpt lat="62.760173" lon="22.848891">
<time>2021-06-11T09:57:53Z</time>
</trkpt>
<trkpt lat="62.76024" lon="22.848961">
<time>2021-06-11T09:57:54Z</time>
</trkpt>
<trkpt lat="62.760301" lon="22.849033">
<time>2021-06-11T09:57:55Z</time>
</trkpt>
<trkpt lat="62.760363" lon="22.849101">
<time>2021-06-11T09:57:56Z</time>
</trkpt>
<trkpt lat="62.760425" lon="22.849181">
<time>2021-06-11T09:57:57Z</time>
</trkpt>
<trkpt lat="62.760483" lon="22.849268">
<time>2021-06-11T09:57:58Z</time>
</trkpt>
<trkpt lat="62.760543" lon="22.849358">
<time>2021-06-11T09:57:59Z</time>
</trkpt>
<trkpt lat="62.760603" lon="22.849448">
<time>2021-06-11T09:58:00Z</time>
</trkpt>
<trkpt lat="62.760663" lon="22.849535">
<time>2021-06-11T09:58:01Z</time>
</trkpt>
<trkpt lat="62.760721" lon="22.84962">
<time>2021-06-11T09:58:02Z</time>
</trkpt>
<trkpt lat="62.760775" lon="22.849706">
<time>2021-06-11T09:58:03Z</time>
</trkpt>
<trkpt lat="62.760821" lon="22.849808">
<time>2021-06-11T09:58:04Z</time>
</trkpt>
<trkpt lat="62.760858" lon="22.849925">
<time>2021-06-11T09:58:05Z</time>
</trkpt>
<trkpt lat="62.760876" lon="22.850055">
<time>2021-06-11T09:58:06Z</time>
</trkpt>
<trkpt lat="62.760883" lon="22.850193">
<time>2021-06-11T09:58:07Z</time>
</trkpt>
<trkpt lat="62.760885" lon="22.850336">
<time>2021-06-11T09:58:08Z</time>
</trkpt>
<trkpt lat="62.760883" lon="22.850486">
<time>2021-06-11T09:58:09Z</time>
</trkpt>
<trkpt lat="62.760876" lon="22.850635">
<time>2021-06-11T09:58:10Z</time>
</trkpt>
<trkpt lat="62.760866" lon="22.850785">
<time>2021-06-11T09:58:11Z</time>
</trkpt>
<trkpt lat="62.760851" lon="22.850931">
<time>2021-06-11T09:58:12Z</time>
</trkpt>
<trkpt lat="62.760835" lon="22.851083">
<time>2021-06-11T09:58:13Z</time>
</trkpt>
<trkpt lat="62.760818" lon="22.851238">
<time>2021-06-11T09:58:14Z</time>
</trkpt>
<trkpt lat="62.760805" lon="22.851398">
<time>2021-06-11T09:58:15Z</time>
</trkpt>
<trkpt lat="62.760791" lon="22.85156">
<time>2021-06-11T09:58:16Z</time>
</trkpt>
<trkpt lat="62.760781" lon="22.85172">
<time>2021-06-11T09:58:17Z</time>
</trkpt>
<trkpt lat="62.760771" lon="22.851885">
<time>2021-06-11T09:58:18Z</time>
</trkpt>
<trkpt lat="62.760761" lon="22.85205">
<time>2021-06-11T09:58:19Z</time>
</trkpt>
<trkpt lat="62.760748" lon="22.852218">
<time>2021-06-11T09:58:20Z</time>
</trkpt>
<trkpt lat="62.760735" lon="22.852385">
<time>2021-06-11T09:58:21Z</time>
</trkpt>
<trkpt lat="62.760723" lon="22.852551">
<time>2021-06-11T09:58:22Z</time>
</trkpt>
<trkpt lat="62.760711" lon="22.852716">
<time>2021-06-11T09:58:23Z</time>
</trkpt>
<trkpt lat="62.7607" lon="22.852881">
<time>2021-06-11T09:58:24Z</time>
</trkpt>
<trkpt lat="62.760686" lon="22.853045">
<time>2021-06-11T09:58:25Z</time>
</trkpt>
<trkpt lat="62.760678" lon="22.85321">
<time>2021-06-11T09:58:26Z</time>
</trkpt>
<trkpt lat="62.76067" lon="22.853375">
<time>2021-06-11T09:58:27Z</time>
</trkpt>
<trkpt lat="62.760651" lon="22.853533">
<time>2021-06-11T09:58:28Z</time>
</trkpt>
<trkpt lat="62.760618" lon="22.853665">
<time>2021-06-11T09:58:29Z</time>
</trkpt>
<trkpt lat="62.760575" lon="22.853765">
<time>2021-06-11T09:58:30Z</time>
</trkpt>
<trkpt lat="62.76053" lon="22.853865">
<time>2021-06-11T09:58:31Z</time>
</trkpt>
<trkpt lat="62.760493" lon="22.853975">
<time>2021-06-11T09:58:32Z</time>
</trkpt>
<trkpt lat="62.760463" lon="22.854096">
<time>2021-06-11T09:58:33Z</time>
</trkpt>
<trkpt lat="62.760433" lon="22.854218">
<time>2021-06-11T09:58:34Z</time>
</trkpt>
<trkpt lat="62.760398" lon="22.854338">
<time>2021-06-11T09:58:35Z</time>
</trkpt>
<trkpt lat="62.760366" lon="22.854463">
<time>2021-06-11T09:58:36Z</time>
</trkpt>
<trkpt lat="62.760338" lon="22.854591">
<time>2021-06-11T09:58:37Z</time>
</trkpt>
<trkpt lat="62.760313" lon="22.854721">
<time>2021-06-11T09:58:38Z</time>
</trkpt>
<trkpt lat="62.760285" lon="22.854846">
<time>2021-06-11T09:58:39Z</time>
</trkpt>
<trkpt lat="62.760253" lon="22.854953">
<time>2021-06-11T09:58:40Z</time>
</trkpt>
<trkpt lat="62.760213" lon="22.855036">
<time>2021-06-11T09:58:41Z</time>
</trkpt>
<trkpt lat="62.76017" lon="22.855098">
<time>2021-06-11T09:58:42Z</time>
</trkpt>
<trkpt lat="62.760136" lon="22.855145">
<time>2021-06-11T09:58:43Z</time>
</trkpt>
<trkpt lat="62.760108" lon="22.855146">
<time>2021-06-11T09:58:44Z</time>
</trkpt>
<trkpt lat="62.760086" lon="22.855126">
<time>2021-06-11T09:58:45Z</time>
</trkpt>
<trkpt lat="62.760078" lon="22.855118">
<time>2021-06-11T09:58:46Z</time>
</trkpt>
<trkpt lat="62.760066" lon="22.855123">
<time>2021-06-11T09:58:47Z</time>
</trkpt>
<trkpt lat="62.760058" lon="22.855126">
<time>2021-06-11T09:58:48Z</time>
</trkpt>
<trkpt lat="62.760058" lon="22.855121">
<time>2021-06-11T09:58:49Z</time>
</trkpt>
<trkpt lat="62.760058" lon="22.855105">
<time>2021-06-11T09:58:50Z</time>
</trkpt>
<trkpt lat="62.760058" lon="22.855075">
<time>2021-06-11T09:58:51Z</time>
</trkpt>
<trkpt lat="62.760051" lon="22.855038">
<time>2021-06-11T09:58:52Z</time>
</trkpt>
<trkpt lat="62.760036" lon="22.855018">
<time>2021-06-11T09:58:53Z</time>
</trkpt>
<trkpt lat="62.760011" lon="22.855005">
<time>2021-06-11T09:58:54Z</time>
</trkpt>
<trkpt lat="62.759978" lon="22.85498">
<time>2021-06-11T09:58:55Z</time>
</trkpt>
<trkpt lat="62.759941" lon="22.854936">
<time>2021-06-11T09:58:56Z</time>
</trkpt>
<trkpt lat="62.759908" lon="22.85487">
<time>2021-06-11T09:58:57Z</time>
</trkpt>
<trkpt lat="62.759881" lon="22.854785">
<time>2021-06-11T09:58:58Z</time>
</trkpt>
<trkpt lat="62.759858" lon="22.854685">
<time>2021-06-11T09:58:59Z</time>
</trkpt>
<trkpt lat="62.759843" lon="22.854576">
<time>2021-06-11T09:59:00Z</time>
</trkpt>
<trkpt lat="62.75983" lon="22.854461">
<time>2021-06-11T09:59:01Z</time>
</trkpt>
<trkpt lat="62.759818" lon="22.854343">
<time>2021-06-11T09:59:02Z</time>
</trkpt>
<trkpt lat="62.759806" lon="22.854215">
<time>2021-06-11T09:59:03Z</time>
</trkpt>
<trkpt lat="62.7598" lon="22.854096">
<time>2021-06-11T09:59:04Z</time>
</trkpt>
<trkpt lat="62.75979" lon="22.853976">
<time>2021-06-11T09:59:05Z</time>
</trkpt>
<trkpt lat="62.75978" lon="22.853875">
<time>2021-06-11T09:59:06Z</time>
</trkpt>
<trkpt lat="62.759763" lon="22.853801">
<time>2021-06-11T09:59:07Z</time>
</trkpt>
<trkpt lat="62.759746" lon="22.853768">
<time>2021-06-11T09:59:08Z</time>
</trkpt>
<trkpt lat="62.759723" lon="22.853776">
<time>2021-06-11T09:59:09Z</time>
</trkpt>
<trkpt lat="62.759691" lon="22.853805">
<time>2021-06-11T09:59:10Z</time>
</trkpt>
<trkpt lat="62.759656" lon="22.85386">
<time>2021-06-11T09:59:11Z</time>
</trkpt>
<trkpt lat="62.759618" lon="22.853921">
<time>2021-06-11T09:59:12Z</time>
</trkpt>
<trkpt lat="62.759586" lon="22.85399">
<time>2021-06-11T09:59:13Z</time>
</trkpt>
<trkpt lat="62.75956" lon="22.854053">
<time>2021-06-11T09:59:14Z</time>
</trkpt>
<trkpt lat="62.75954" lon="22.854116">
<time>2021-06-11T09:59:15Z</time>
</trkpt>
<trkpt lat="62.75953" lon="22.854183">
<time>2021-06-11T09:59:16Z</time>
</trkpt>
<trkpt lat="62.75952" lon="22.85426">
<time>2021-06-11T09:59:17Z</time>
</trkpt>
<trkpt lat="62.759506" lon="22.85434">
<time>2021-06-11T09:59:18Z</time>
</trkpt>
<trkpt lat="62.759488" lon="22.854426">
<time>2021-06-11T09:59:19Z</time>
</trkpt>
<trkpt lat="62.75947" lon="22.854521">
<time>2021-06-11T09:59:20Z</time>
</trkpt>
<trkpt lat="62.75945" lon="22.854631">
<time>2021-06-11T09:59:21Z</time>
</trkpt>
<trkpt lat="62.75943" lon="22.854758">
<time>2021-06-11T09:59:22Z</time>
</trkpt>
<trkpt lat="62.759418" lon="22.854883">
<time>2021-06-11T09:59:23Z</time>
</trkpt>
<trkpt lat="62.759413" lon="22.85502">
<time>2021-06-11T09:59:24Z</time>
</trkpt>
<trkpt lat="62.759411" lon="22.855143">
<time>2021-06-11T09:59:25Z</time>
</trkpt>
<trkpt lat="62.759416" lon="22.855261">
<time>2021-06-11T09:59:26Z</time>
</trkpt>
<trkpt lat="62.75942" lon="22.855388">
<time>2021-06-11T09:59:27Z</time>
</trkpt>
<trkpt lat="62.759415" lon="22.855521">
<time>2021-06-11T09:59:28Z</time>
</trkpt>
<trkpt lat="62.759396" lon="22.855633">
<time>2021-06-11T09:59:29Z</time>
</trkpt>
<trkpt lat="62.759358" lon="22.855713">
<time>2021-06-11T09:59:30Z</time>
</trkpt>
<trkpt lat="62.759306" lon="22.855791">
<time>2021-06-11T09:59:31Z</time>
</trkpt>
<trkpt lat="62.759256" lon="22.85586">
<time>2021-06-11T09:59:32Z</time>
</trkpt>
<trkpt lat="62.759223" lon="22.855935">
<time>2021-06-11T09:59:33Z</time>
</trkpt>
<trkpt lat="62.759198" lon="22.856036">
<time>2021-06-11T09:59:34Z</time>
</trkpt>
<trkpt lat="62.75919" lon="22.856153">
<time>2021-06-11T09:59:35Z</time>
</trkpt>
<trkpt lat="62.759201" lon="22.856283">
<time>2021-06-11T09:59:36Z</time>
</trkpt>
<trkpt lat="62.759218" lon="22.856426">
<time>2021-06-11T09:59:37Z</time>
</trkpt>
<trkpt lat="62.759241" lon="22.856528">
<time>2021-06-11T09:59:38Z</time>
</trkpt>
<trkpt lat="62.759273" lon="22.856653">
<time>2021-06-11T09:59:39Z</time>
</trkpt>
<trkpt lat="62.75931" lon="22.856781">
<time>2021-06-11T09:59:40Z</time>
</trkpt>
<trkpt lat="62.759345" lon="22.856911">
<time>2021-06-11T09:59:41Z</time>
</trkpt>
<trkpt lat="62.759386" lon="22.85705">
<time>2021-06-11T09:59:42Z</time>
</trkpt>
<trkpt lat="62.759428" lon="22.857178">
<time>2021-06-11T09:59:43Z</time>
</trkpt>
<trkpt lat="62.759476" lon="22.857291">
<time>2021-06-11T09:59:44Z</time>
</trkpt>
<trkpt lat="62.759535" lon="22.857378">
<time>2021-06-11T09:59:45Z</time>
</trkpt>
<trkpt lat="62.7596" lon="22.857435">
<time>2021-06-11T09:59:46Z</time>
</trkpt>
<trkpt lat="62.75967" lon="22.85747">
<time>2021-06-11T09:59:47Z</time>
</trkpt>
<trkpt lat="62.759741" lon="22.857485">
<time>2021-06-11T09:59:48Z</time>
</trkpt>
<trkpt lat="62.759811" lon="22.857495">
<time>2021-06-11T09:59:49Z</time>
</trkpt>
<trkpt lat="62.759881" lon="22.857486">
<time>2021-06-11T09:59:50Z</time>
</trkpt>
<trkpt lat="62.759956" lon="22.857483">
<time>2021-06-11T09:59:51Z</time>
</trkpt>
<trkpt lat="62.760016" lon="22.857468">
<time>2021-06-11T09:59:52Z</time>
</trkpt>
<trkpt lat="62.760078" lon="22.85745">
<time>2021-06-11T09:59:53Z</time>
</trkpt>
<trkpt lat="62.76013" lon="22.85745">
<time>2021-06-11T09:59:54Z</time>
</trkpt>
<trkpt lat="62.760168" lon="22.85748">
<time>2021-06-11T09:59:55Z</time>
</trkpt>
<trkpt lat="62.76019" lon="22.857545">
<time>2021-06-11T09:59:56Z</time>
</trkpt>
<trkpt lat="62.760191" lon="22.857631">
<time>2021-06-11T09:59:57Z</time>
</trkpt>
<trkpt lat="62.760183" lon="22.857738">
<time>2021-06-11T09:59:58Z</time>
</trkpt>
<trkpt lat="62.760171" lon="22.857855">
<time>2021-06-11T09:59:59Z</time>
</trkpt>
<trkpt lat="62.760155" lon="22.857983">
<time>2021-06-11T10:00:00Z</time>
</trkpt>
<trkpt lat="62.760138" lon="22.858125">
<time>2021-06-11T10:00:01Z</time>
</trkpt>
<trkpt lat="62.760121" lon="22.858278">
<time>2021-06-11T10:00:02Z</time>
</trkpt>
<trkpt lat="62.7601" lon="22.858468">
<time>2021-06-11T10:00:03Z</time>
</trkpt>
<trkpt lat="62.760083" lon="22.858633">
<time>2021-06-11T10:00:04Z</time>
</trkpt>
<trkpt lat="62.760066" lon="22.858801">
<time>2021-06-11T10:00:05Z</time>
</trkpt>
<trkpt lat="62.760043" lon="22.858973">
<time>2021-06-11T10:00:06Z</time>
</trkpt>
<trkpt lat="62.760025" lon="22.859135">
<time>2021-06-11T10:00:07Z</time>
</trkpt>
<trkpt lat="62.760006" lon="22.859293">
<time>2021-06-11T10:00:08Z</time>
</trkpt>
<trkpt lat="62.75999" lon="22.859418">
<time>2021-06-11T10:00:09Z</time>
</trkpt>
<trkpt lat="62.75997" lon="22.859598">
<time>2021-06-11T10:00:10Z</time>
</trkpt>
<trkpt lat="62.75995" lon="22.859746">
<time>2021-06-11T10:00:11Z</time>
</trkpt>
<trkpt lat="62.75993" lon="22.85989">
<time>2021-06-11T10:00:12Z</time>
</trkpt>
<trkpt lat="62.759908" lon="22.860026">
<time>2021-06-11T10:00:13Z</time>
</trkpt>
<trkpt lat="62.759891" lon="22.860133">
<time>2021-06-11T10:00:14Z</time>
</trkpt>
<trkpt lat="62.759866" lon="22.860283">
<time>2021-06-11T10:00:15Z</time>
</trkpt>
<trkpt lat="62.759836" lon="22.860386">
<time>2021-06-11T10:00:16Z</time>
</trkpt>
<trkpt lat="62.7598" lon="22.860455">
<time>2021-06-11T10:00:17Z</time>
</trkpt>
<trkpt lat="62.759756" lon="22.860481">
<time>2021-06-11T10:00:18Z</time>
</trkpt>
<trkpt lat="62.759718" lon="22.860485">
<time>2021-06-11T10:00:19Z</time>
</trkpt>
<trkpt lat="62.75966" lon="22.860496">
<time>2021-06-11T10:00:20Z</time>
</trkpt>
<trkpt lat="62.759613" lon="22.86051">
<time>2021-06-11T10:00:21Z</time>
</trkpt>
<trkpt lat="62.75956" lon="22.86052">
<time>2021-06-11T10:00:22Z</time>
</trkpt>
<trkpt lat="62.759505" lon="22.860558">
<time>2021-06-11T10:00:23Z</time>
</trkpt>
<trkpt lat="62.759451" lon="22.860596">
<time>2021-06-11T10:00:24Z</time>
</trkpt>
<trkpt lat="62.759396" lon="22.860645">
<time>2021-06-11T10:00:25Z</time>
</trkpt>
<trkpt lat="62.759335" lon="22.860675">
<time>2021-06-11T10:00:26Z</time>
</trkpt>
<trkpt lat="62.759273" lon="22.86069">
<time>2021-06-11T10:00:27Z</time>
</trkpt>
<trkpt lat="62.759215" lon="22.860698">
<time>2021-06-11T10:00:28Z</time>
</trkpt>
<trkpt lat="62.759161" lon="22.860673">
<time>2021-06-11T10:00:29Z</time>
</trkpt>
<trkpt lat="62.759126" lon="22.860613">
<time>2021-06-11T10:00:30Z</time>
</trkpt>
<trkpt lat="62.759101" lon="22.860536">
<time>2021-06-11T10:00:31Z</time>
</trkpt>
<trkpt lat="62.75908" lon="22.860446">
<time>2021-06-11T10:00:32Z</time>
</trkpt>
<trkpt lat="62.759061" lon="22.860366">
<time>2021-06-11T10:00:33Z</time>
</trkpt>
<trkpt lat="62.759043" lon="22.860288">
<time>2021-06-11T10:00:34Z</time>
</trkpt>
<trkpt lat="62.759048" lon="22.860276">
<time>2021-06-11T10:00:35Z</time>
</trkpt>
<trkpt lat="62.759055" lon="22.860298">
<time>2021-06-11T10:00:36Z</time>
</trkpt>
<trkpt lat="62.75906" lon="22.860341">
<time>2021-06-11T10:00:37Z</time>
</trkpt>
<trkpt lat="62.759065" lon="22.86039">
<time>2021-06-11T10:00:38Z</time>
</trkpt>
<trkpt lat="62.759075" lon="22.860453">
<time>2021-06-11T10:00:39Z</time>
</trkpt>
<trkpt lat="62.759085" lon="22.8605">
<time>2021-06-11T10:00:40Z</time>
</trkpt>
<trkpt lat="62.759098" lon="22.860545">
<time>2021-06-11T10:00:41Z</time>
</trkpt>
<trkpt lat="62.759115" lon="22.860581">
<time>2021-06-11T10:00:42Z</time>
</trkpt>
<trkpt lat="62.75914" lon="22.860603">
<time>2021-06-11T10:00:43Z</time>
</trkpt>
<trkpt lat="62.75917" lon="22.860615">
<time>2021-06-11T10:00:44Z</time>
</trkpt>
<trkpt lat="62.759206" lon="22.860618">
<time>2021-06-11T10:00:45Z</time>
</trkpt>
<trkpt lat="62.75925" lon="22.860606">
<time>2021-06-11T10:00:46Z</time>
</trkpt>
<trkpt lat="62.759293" lon="22.860581">
<time>2021-06-11T10:00:47Z</time>
</trkpt>
<trkpt lat="62.759338" lon="22.860543">
<time>2021-06-11T10:00:48Z</time>
</trkpt>
<trkpt lat="62.759386" lon="22.860498">
<time>2021-06-11T10:00:49Z</time>
</trkpt>
<trkpt lat="62.75944" lon="22.860451">
<time>2021-06-11T10:00:50Z</time>
</trkpt>
<trkpt lat="62.759496" lon="22.860401">
<time>2021-06-11T10:00:51Z</time>
</trkpt>
<trkpt lat="62.759553" lon="22.860375">
<time>2021-06-11T10:00:52Z</time>
</trkpt>
<trkpt lat="62.759613" lon="22.860363">
<time>2021-06-11T10:00:53Z</time>
</trkpt>
<trkpt lat="62.759668" lon="22.860373">
<time>2021-06-11T10:00:54Z</time>
</trkpt>
<trkpt lat="62.7597" lon="22.86041">
<time>2021-06-11T10:00:55Z</time>
</trkpt>
<trkpt lat="62.759721" lon="22.860476">
<time>2021-06-11T10:00:56Z</time>
</trkpt>
<trkpt lat="62.759725" lon="22.860565">
<time>2021-06-11T10:00:57Z</time>
</trkpt>
<trkpt lat="62.759715" lon="22.860665">
<time>2021-06-11T10:00:58Z</time>
</trkpt>
<trkpt lat="62.759691" lon="22.860793">
<time>2021-06-11T10:00:59Z</time>
</trkpt>
<trkpt lat="62.75967" lon="22.860905">
<time>2021-06-11T10:01:00Z</time>
</trkpt>
<trkpt lat="62.759643" lon="22.861021">
<time>2021-06-11T10:01:01Z</time>
</trkpt>
<trkpt lat="62.759615" lon="22.861143">
<time>2021-06-11T10:01:02Z</time>
</trkpt>
<trkpt lat="62.759585" lon="22.86127">
<time>2021-06-11T10:01:03Z</time>
</trkpt>
<trkpt lat="62.759551" lon="22.8614">
<time>2021-06-11T10:01:04Z</time>
</trkpt>
<trkpt lat="62.759518" lon="22.861535">
<time>2021-06-11T10:01:05Z</time>
</trkpt>
<trkpt lat="62.759483" lon="22.861673">
<time>2021-06-11T10:01:06Z</time>
</trkpt>
<trkpt lat="62.759448" lon="22.86181">
<time>2021-06-11T10:01:07Z</time>
</trkpt>
<trkpt lat="62.759415" lon="22.861953">
<time>2021-06-11T10:01:08Z</time>
</trkpt>
<trkpt lat="62.759385" lon="22.862098">
<time>2021-06-11T10:01:09Z</time>
</trkpt>
<trkpt lat="62.759355" lon="22.862245">
<time>2021-06-11T10:01:10Z</time>
</trkpt>
<trkpt lat="62.75933" lon="22.862371">
<time>2021-06-11T10:01:11Z</time>
</trkpt>
<trkpt lat="62.759301" lon="22.8625">
<time>2021-06-11T10:01:12Z</time>
</trkpt>
<trkpt lat="62.759261" lon="22.862615">
<time>2021-06-11T10:01:13Z</time>
</trkpt>
<trkpt lat="62.759216" lon="22.862695">
<time>2021-06-11T10:01:14Z</time>
</trkpt>
<trkpt lat="62.759175" lon="22.86272">
<time>2021-06-11T10:01:15Z</time>
</trkpt>
<trkpt lat="62.75911" lon="22.862711">
<time>2021-06-11T10:01:16Z</time>
</trkpt>
<trkpt lat="62.759053" lon="22.862675">
<time>2021-06-11T10:01:17Z</time>
</trkpt>
<trkpt lat="62.758996" lon="22.862633">
<time>2021-06-11T10:01:18Z</time>
</trkpt>
<trkpt lat="62.758933" lon="22.862586">
<time>2021-06-11T10:01:19Z</time>
</trkpt>
<trkpt lat="62.758873" lon="22.86255">
<time>2021-06-11T10:01:20Z</time>
</trkpt>
<trkpt lat="62.758791" lon="22.862513">
<time>2021-06-11T10:01:21Z</time>
</trkpt>
<trkpt lat="62.758723" lon="22.862505">
<time>2021-06-11T10:01:22Z</time>
</trkpt>
<trkpt lat="62.758665" lon="22.862531">
<time>2021-06-11T10:01:23Z</time>
</trkpt>
<trkpt lat="62.758613" lon="22.862606">
<time>2021-06-11T10:01:24Z</time>
</trkpt>
<trkpt lat="62.758571" lon="22.862713">
<time>2021-06-11T10:01:25Z</time>
</trkpt>
<trkpt lat="62.758541" lon="22.862846">
<time>2021-06-11T10:01:26Z</time>
</trkpt>
<trkpt lat="62.758518" lon="22.862991">
<time>2021-06-11T10:01:27Z</time>
</trkpt>
<trkpt lat="62.758496" lon="22.863143">
<time>2021-06-11T10:01:28Z</time>
</trkpt>
<trkpt lat="62.758481" lon="22.863298">
<time>2021-06-11T10:01:29Z</time>
</trkpt>
<trkpt lat="62.758466" lon="22.863455">
<time>2021-06-11T10:01:30Z</time>
</trkpt>
<trkpt lat="62.758453" lon="22.863608">
<time>2021-06-11T10:01:31Z</time>
</trkpt>
<trkpt lat="62.758425" lon="22.86375">
<time>2021-06-11T10:01:32Z</time>
</trkpt>
<trkpt lat="62.758383" lon="22.863853">
<time>2021-06-11T10:01:33Z</time>
</trkpt>
<trkpt lat="62.758328" lon="22.86391">
<time>2021-06-11T10:01:34Z</time>
</trkpt>
<trkpt lat="62.758268" lon="22.863921">
<time>2021-06-11T10:01:35Z</time>
</trkpt>
<trkpt lat="62.758211" lon="22.863903">
<time>2021-06-11T10:01:36Z</time>
</trkpt>
<trkpt lat="62.758166" lon="22.863885">
<time>2021-06-11T10:01:37Z</time>
</trkpt>
<trkpt lat="62.758115" lon="22.86386">
<time>2021-06-11T10:01:38Z</time>
</trkpt>
<trkpt lat="62.758066" lon="22.863833">
<time>2021-06-11T10:01:39Z</time>
</trkpt>
<trkpt lat="62.758011" lon="22.863808">
<time>2021-06-11T10:01:40Z</time>
</trkpt>
<trkpt lat="62.757988" lon="22.86381">
<time>2021-06-11T10:01:41Z</time>
</trkpt>
<trkpt lat="62.75796" lon="22.863836">
<time>2021-06-11T10:01:42Z</time>
</trkpt>
<trkpt lat="62.757933" lon="22.86389">
<time>2021-06-11T10:01:43Z</time>
</trkpt>
<trkpt lat="62.757906" lon="22.863955">
<time>2021-06-11T10:01:44Z</time>
</trkpt>
<trkpt lat="62.757885" lon="22.86402">
<time>2021-06-11T10:01:45Z</time>
</trkpt>
<trkpt lat="62.75787" lon="22.864075">
<time>2021-06-11T10:01:46Z</time>
</trkpt>
<trkpt lat="62.757853" lon="22.864141">
<time>2021-06-11T10:01:47Z</time>
</trkpt>
<trkpt lat="62.757846" lon="22.864205">
<time>2021-06-11T10:01:48Z</time>
</trkpt>
<trkpt lat="62.757838" lon="22.864293">
<time>2021-06-11T10:01:49Z</time>
</trkpt>
<trkpt lat="62.75783" lon="22.864395">
<time>2021-06-11T10:01:50Z</time>
</trkpt>
<trkpt lat="62.757823" lon="22.864498">
<time>2021-06-11T10:01:51Z</time>
</trkpt>
<trkpt lat="62.757816" lon="22.864588">
<time>2021-06-11T10:01:52Z</time>
</trkpt>
<trkpt lat="62.757808" lon="22.864666">
<time>2021-06-11T10:01:53Z</time>
</trkpt>
<trkpt lat="62.7578" lon="22.864741">
<time>2021-06-11T10:01:54Z</time>
</trkpt>
<trkpt lat="62.757796" lon="22.864816">
<time>2021-06-11T10:01:55Z</time>
</trkpt>
<trkpt lat="62.757798" lon="22.86489">
<time>2021-06-11T10:01:56Z</time>
</trkpt>
<trkpt lat="62.75779" lon="22.864965">
<time>2021-06-11T10:01:57Z</time>
</trkpt>
<trkpt lat="62.757778" lon="22.865045">
<time>2021-06-11T10:01:58Z</time>
</trkpt>
<trkpt lat="62.757761" lon="22.865121">
<time>2021-06-11T10:01:59Z</time>
</trkpt>
<trkpt lat="62.757745" lon="22.865203">
<time>2021-06-11T10:02:00Z</time>
</trkpt>
<trkpt lat="62.757723" lon="22.86529">
<time>2021-06-11T10:02:01Z</time>
</trkpt>
<trkpt lat="62.757701" lon="22.865371">
<time>2021-06-11T10:02:02Z</time>
</trkpt>
<trkpt lat="62.757676" lon="22.865453">
<time>2021-06-11T10:02:03Z</time>
</trkpt>
<trkpt lat="62.757656" lon="22.865523">
<time>2021-06-11T10:02:04Z</time>
</trkpt>
<trkpt lat="62.757638" lon="22.865585">
<time>2021-06-11T10:02:05Z</time>
</trkpt>
<trkpt lat="62.757615" lon="22.865636">
<time>2021-06-11T10:02:06Z</time>
</trkpt>
<trkpt lat="62.757588" lon="22.865675">
<time>2021-06-11T10:02:07Z</time>
</trkpt>
<trkpt lat="62.75756" lon="22.865698">
<time>2021-06-11T10:02:08Z</time>
</trkpt>
<trkpt lat="62.757533" lon="22.865695">
<time>2021-06-11T10:02:09Z</time>
</trkpt>
<trkpt lat="62.757513" lon="22.865661">
<time>2021-06-11T10:02:10Z</time>
</trkpt>
<trkpt lat="62.757488" lon="22.865613">
<time>2021-06-11T10:02:11Z</time>
</trkpt>
<trkpt lat="62.757458" lon="22.865545">
<time>2021-06-11T10:02:12Z</time>
</trkpt>
<trkpt lat="62.757421" lon="22.865481">
<time>2021-06-11T10:02:13Z</time>
</trkpt>
<trkpt lat="62.757381" lon="22.865425">
<time>2021-06-11T10:02:14Z</time>
</trkpt>
<trkpt lat="62.757336" lon="22.865375">
<time>2021-06-11T10:02:15Z</time>
</trkpt>
<trkpt lat="62.757295" lon="22.86534">
<time>2021-06-11T10:02:16Z</time>
</trkpt>
<trkpt lat="62.757238" lon="22.865296">
<time>2021-06-11T10:02:17Z</time>
</trkpt>
<trkpt lat="62.757176" lon="22.865255">
<time>2021-06-11T10:02:18Z</time>
</trkpt>
<trkpt lat="62.757108" lon="22.865211">
<time>2021-06-11T10:02:19Z</time>
</trkpt>
<trkpt lat="62.75704" lon="22.865161">
<time>2021-06-11T10:02:20Z</time>
</trkpt>
<trkpt lat="62.756968" lon="22.865118">
<time>2021-06-11T10:02:21Z</time>
</trkpt>
<trkpt lat="62.756898" lon="22.865118">
<time>2021-06-11T10:02:22Z</time>
</trkpt>
<trkpt lat="62.756831" lon="22.865178">
<time>2021-06-11T10:02:23Z</time>
</trkpt>
<trkpt lat="62.756783" lon="22.86527">
<time>2021-06-11T10:02:24Z</time>
</trkpt>
<trkpt lat="62.756755" lon="22.86537">
<time>2021-06-11T10:02:25Z</time>
</trkpt>
<trkpt lat="62.756721" lon="22.865536">
<time>2021-06-11T10:02:26Z</time>
</trkpt>
<trkpt lat="62.756703" lon="22.865718">
<time>2021-06-11T10:02:27Z</time>
</trkpt>
<trkpt lat="62.756681" lon="22.865878">
<time>2021-06-11T10:02:28Z</time>
</trkpt>
<trkpt lat="62.756663" lon="22.866028">
<time>2021-06-11T10:02:29Z</time>
</trkpt>
<trkpt lat="62.756643" lon="22.866173">
<time>2021-06-11T10:02:30Z</time>
</trkpt>
<trkpt lat="62.756625" lon="22.866321">
<time>2021-06-11T10:02:31Z</time>
</trkpt>
<trkpt lat="62.756606" lon="22.866468">
<time>2021-06-11T10:02:32Z</time>
</trkpt>
<trkpt lat="62.756601" lon="22.86661">
<time>2021-06-11T10:02:33Z</time>
</trkpt>
<trkpt lat="62.756616" lon="22.866746">
<time>2021-06-11T10:02:34Z</time>
</trkpt>
<trkpt lat="62.756641" lon="22.866883">
<time>2021-06-11T10:02:35Z</time>
</trkpt>
<trkpt lat="62.756661" lon="22.867">
<time>2021-06-11T10:02:36Z</time>
</trkpt>
<trkpt lat="62.756685" lon="22.867188">
<time>2021-06-11T10:02:37Z</time>
</trkpt>
<trkpt lat="62.756683" lon="22.86736">
<time>2021-06-11T10:02:38Z</time>
</trkpt>
<trkpt lat="62.75667" lon="22.867536">
<time>2021-06-11T10:02:39Z</time>
</trkpt>
<trkpt lat="62.756651" lon="22.867716">
<time>2021-06-11T10:02:40Z</time>
</trkpt>
<trkpt lat="62.756636" lon="22.867861">
<time>2021-06-11T10:02:41Z</time>
</trkpt>
<trkpt lat="62.756615" lon="22.868033">
<time>2021-06-11T10:02:42Z</time>
</trkpt>
<trkpt lat="62.756596" lon="22.868206">
<time>2021-06-11T10:02:43Z</time>
</trkpt>
<trkpt lat="62.756571" lon="22.86838">
<time>2021-06-11T10:02:44Z</time>
</trkpt>
<trkpt lat="62.75654" lon="22.868551">
<time>2021-06-11T10:02:45Z</time>
</trkpt>
<trkpt lat="62.756515" lon="22.868721">
<time>2021-06-11T10:02:46Z</time>
</trkpt>
<trkpt lat="62.756496" lon="22.868886">
<time>2021-06-11T10:02:47Z</time>
</trkpt>
<trkpt lat="62.756493" lon="22.869041">
<time>2021-06-11T10:02:48Z</time>
</trkpt>
<trkpt lat="62.756511" lon="22.869173">
<time>2021-06-11T10:02:49Z</time>
</trkpt>
<trkpt lat="62.756546" lon="22.869273">
<time>2021-06-11T10:02:50Z</time>
</trkpt>
<trkpt lat="62.756601" lon="22.869326">
<time>2021-06-11T10:02:51Z</time>
</trkpt>
<trkpt lat="62.756666" lon="22.869346">
<time>2021-06-11T10:02:52Z</time>
</trkpt>
<trkpt lat="62.756738" lon="22.86934">
<time>2021-06-11T10:02:53Z</time>
</trkpt>
<trkpt lat="62.75682" lon="22.869308">
<time>2021-06-11T10:02:54Z</time>
</trkpt>
<trkpt lat="62.756898" lon="22.869275">
<time>2021-06-11T10:02:55Z</time>
</trkpt>
<trkpt lat="62.756978" lon="22.869233">
<time>2021-06-11T10:02:56Z</time>
</trkpt>
<trkpt lat="62.757055" lon="22.869181">
<time>2021-06-11T10:02:57Z</time>
</trkpt>
<trkpt lat="62.75713" lon="22.869123">
<time>2021-06-11T10:02:58Z</time>
</trkpt>
<trkpt lat="62.757205" lon="22.869058">
<time>2021-06-11T10:02:59Z</time>
</trkpt>
<trkpt lat="62.757281" lon="22.86898">
<time>2021-06-11T10:03:00Z</time>
</trkpt>
<trkpt lat="62.757355" lon="22.868893">
<time>2021-06-11T10:03:01Z</time>
</trkpt>
<trkpt lat="62.757428" lon="22.868798">
<time>2021-06-11T10:03:02Z</time>
</trkpt>
<trkpt lat="62.757501" lon="22.868703">
<time>2021-06-11T10:03:03Z</time>
</trkpt>
<trkpt lat="62.757578" lon="22.868633">
<time>2021-06-11T10:03:04Z</time>
</trkpt>
<trkpt lat="62.757653" lon="22.868606">
<time>2021-06-11T10:03:05Z</time>
</trkpt>
<trkpt lat="62.757723" lon="22.868643">
<time>2021-06-11T10:03:06Z</time>
</trkpt>
<trkpt lat="62.757781" lon="22.868725">
<time>2021-06-11T10:03:07Z</time>
</trkpt>
<trkpt lat="62.757833" lon="22.868828">
<time>2021-06-11T10:03:08Z</time>
</trkpt>
<trkpt lat="62.757883" lon="22.868948">
<time>2021-06-11T10:03:09Z</time>
</trkpt>
<trkpt lat="62.757933" lon="22.869061">
<time>2021-06-11T10:03:10Z</time>
</trkpt>
<trkpt lat="62.75797" lon="22.869178">
<time>2021-06-11T10:03:11Z</time>
</trkpt>
<trkpt lat="62.757983" lon="22.869313">
<time>2021-06-11T10:03:12Z</time>
</trkpt>
<trkpt lat="62.757966" lon="22.869391">
<time>2021-06-11T10:03:13Z</time>
</trkpt>
<trkpt lat="62.757931" lon="22.869483">
<time>2021-06-11T10:03:14Z</time>
</trkpt>
<trkpt lat="62.757886" lon="22.869565">
<time>2021-06-11T10:03:15Z</time>
</trkpt>
<trkpt lat="62.757833" lon="22.869653">
<time>2021-06-11T10:03:16Z</time>
</trkpt>
<trkpt lat="62.757775" lon="22.869736">
<time>2021-06-11T10:03:17Z</time>
</trkpt>
<trkpt lat="62.757716" lon="22.869818">
<time>2021-06-11T10:03:18Z</time>
</trkpt>
<trkpt lat="62.757648" lon="22.869901">
<time>2021-06-11T10:03:19Z</time>
</trkpt>
<trkpt lat="62.757578" lon="22.869971">
<time>2021-06-11T10:03:20Z</time>
</trkpt>
<trkpt lat="62.757505" lon="22.870038">
<time>2021-06-11T10:03:21Z</time>
</trkpt>
<trkpt lat="62.757426" lon="22.870096">
<time>2021-06-11T10:03:22Z</time>
</trkpt>
<trkpt lat="62.757348" lon="22.87015">
<time>2021-06-11T10:03:23Z</time>
</trkpt>
<trkpt lat="62.757273" lon="22.8702">
<time>2021-06-11T10:03:24Z</time>
</trkpt>
<trkpt lat="62.757198" lon="22.870245">
<time>2021-06-11T10:03:25Z</time>
</trkpt>
<trkpt lat="62.757115" lon="22.870283">
<time>2021-06-11T10:03:26Z</time>
</trkpt>
<trkpt lat="62.757036" lon="22.870315">
<time>2021-06-11T10:03:27Z</time>
</trkpt>
<trkpt lat="62.756958" lon="22.870336">
<time>2021-06-11T10:03:28Z</time>
</trkpt>
<trkpt lat="62.75688" lon="22.870351">
<time>2021-06-11T10:03:29Z</time>
</trkpt>
<trkpt lat="62.756803" lon="22.870361">
<time>2021-06-11T10:03:30Z</time>
</trkpt>
<trkpt lat="62.756725" lon="22.870368">
<time>2021-06-11T10:03:31Z</time>
</trkpt>
<trkpt lat="62.756646" lon="22.870373">
<time>2021-06-11T10:03:32Z</time>
</trkpt>
<trkpt lat="62.756568" lon="22.870368">
<time>2021-06-11T10:03:33Z</time>
</trkpt>
<trkpt lat="62.756488" lon="22.870358">
<time>2021-06-11T10:03:34Z</time>
</trkpt>
<trkpt lat="62.75641" lon="22.870343">
<time>2021-06-11T10:03:35Z</time>
</trkpt>
<trkpt lat="62.75633" lon="22.870321">
<time>2021-06-11T10:03:36Z</time>
</trkpt>
<trkpt lat="62.756251" lon="22.870295">
<time>2021-06-11T10:03:37Z</time>
</trkpt>
<trkpt lat="62.756163" lon="22.870256">
<time>2021-06-11T10:03:38Z</time>
</trkpt>
<trkpt lat="62.756105" lon="22.870226">
<time>2021-06-11T10:03:39Z</time>
</trkpt>
<trkpt lat="62.756041" lon="22.87019">
<time>2021-06-11T10:03:40Z</time>
</trkpt>
<trkpt lat="62.755983" lon="22.870151">
<time>2021-06-11T10:03:41Z</time>
</trkpt>
<trkpt lat="62.755935" lon="22.87013">
<time>2021-06-11T10:03:42Z</time>
</trkpt>
<trkpt lat="62.755895" lon="22.870126">
<time>2021-06-11T10:03:43Z</time>
</trkpt>
<trkpt lat="62.75587" lon="22.870165">
<time>2021-06-11T10:03:44Z</time>
</trkpt>
<trkpt lat="62.755856" lon="22.87024">
<time>2021-06-11T10:03:45Z</time>
</trkpt>
<trkpt lat="62.755851" lon="22.870338">
<time>2021-06-11T10:03:46Z</time>
</trkpt>
<trkpt lat="62.755853" lon="22.870453">
<time>2021-06-11T10:03:47Z</time>
</trkpt>
<trkpt lat="62.75586" lon="22.870598">
<time>2021-06-11T10:03:48Z</time>
</trkpt>
<trkpt lat="62.755856" lon="22.870746">
<time>2021-06-11T10:03:49Z</time>
</trkpt>
<trkpt lat="62.755845" lon="22.870895">
<time>2021-06-11T10:03:50Z</time>
</trkpt>
<trkpt lat="62.755833" lon="22.871045">
<time>2021-06-11T10:03:51Z</time>
</trkpt>
<trkpt lat="62.755815" lon="22.871196">
<time>2021-06-11T10:03:52Z</time>
</trkpt>
<trkpt lat="62.755796" lon="22.871356">
<time>2021-06-11T10:03:53Z</time>
</trkpt>
<trkpt lat="62.755776" lon="22.871518">
<time>2021-06-11T10:03:54Z</time>
</trkpt>
<trkpt lat="62.755755" lon="22.871681">
<time>2021-06-11T10:03:55Z</time>
</trkpt>
<trkpt lat="62.755736" lon="22.871851">
<time>2021-06-11T10:03:56Z</time>
</trkpt>
<trkpt lat="62.755723" lon="22.872021">
<time>2021-06-11T10:03:57Z</time>
</trkpt>
<trkpt lat="62.755703" lon="22.872186">
<time>2021-06-11T10:03:58Z</time>
</trkpt>
<trkpt lat="62.755683" lon="22.872353">
<time>2021-06-11T10:03:59Z</time>
</trkpt>
<trkpt lat="62.755663" lon="22.872515">
<time>2021-06-11T10:04:00Z</time>
</trkpt>
<trkpt lat="62.755645" lon="22.872675">
<time>2021-06-11T10:04:01Z</time>
</trkpt>
<trkpt lat="62.755626" lon="22.872831">
<time>2021-06-11T10:04:02Z</time>
</trkpt>
<trkpt lat="62.755606" lon="22.872986">
<time>2021-06-11T10:04:03Z</time>
</trkpt>
</trkseg>
<name>Piero T</name>
</trk>
</gpx>